<?xml version="1.0" encoding="UTF-8"?>
<gpx xmlns="http://www.topografix.com/GPX/1/1" xmlns:gpsies="http://www.gpsies.com/GPX/1/0" creator="GPSies http://www.gpsies.com - Sortie du Fué" version="1.1" xmlns:xsi="http://www.w3.org/2001/XMLSchema-instance" xsi:schemaLocation="http://www.topografix.com/GPX/1/1 http://www.topografix.com/GPX/1/1/gpx.xsd http://www.gpsies.com/GPX/1/0 http://www.gpsies.com/gpsies.xsd">
  <metadata>
    <name>Sortie du Fué</name>
    <copyright author="GPSies.com" />
    <link href="http://www.gpsies.com/map.do?fileId=blnestrqrlkpvexx">
      <text>Sortie du Fué on GPSies.com</text>
    </link>
    <time>2010-06-22T22:56:38Z</time>
    <extensions>
      <gpsies:property>round trip</gpsies:property>
      <gpsies:trackLengthMeter>76735.5018513836</gpsies:trackLengthMeter>
      <gpsies:totalAscentMeter>1978.0</gpsies:totalAscentMeter>
      <gpsies:totalDescentMeter>1974.0</gpsies:totalDescentMeter>
      <gpsies:minHeightMeter>443.0</gpsies:minHeightMeter>
      <gpsies:maxHeightMeter>1682.0</gpsies:maxHeightMeter>
    </extensions>
  </metadata>
  <trk>
    <name>Sortie du Fué on GPSies.com</name>
    <link href="http://www.gpsies.com/map.do?fileId=blnestrqrlkpvexx" />
    <trkseg>
      <trkpt lat="45.89872970" lon="6.128654470">
        <ele>444.00000</ele>
        <time>2010-06-22T22:56:38Z</time>
      </trkpt>
      <trkpt lat="45.89878000" lon="6.128860000">
        <ele>443.00000</ele>
        <time>2010-06-22T22:56:44Z</time>
      </trkpt>
      <trkpt lat="45.89839000" lon="6.129100000">
        <ele>444.00000</ele>
        <time>2010-06-22T22:57:01Z</time>
      </trkpt>
      <trkpt lat="45.89817000" lon="6.129070000">
        <ele>444.00000</ele>
        <time>2010-06-22T22:57:10Z</time>
      </trkpt>
      <trkpt lat="45.89797000" lon="6.129180000">
        <ele>444.00000</ele>
        <time>2010-06-22T22:57:19Z</time>
      </trkpt>
      <trkpt lat="45.89786000" lon="6.129420000">
        <ele>445.00000</ele>
        <time>2010-06-22T22:57:27Z</time>
      </trkpt>
      <trkpt lat="45.89775000" lon="6.130440000">
        <ele>445.00000</ele>
        <time>2010-06-22T22:57:55Z</time>
      </trkpt>
      <trkpt lat="45.89764000" lon="6.130780000">
        <ele>445.00000</ele>
        <time>2010-06-22T22:58:06Z</time>
      </trkpt>
      <trkpt lat="45.89740000" lon="6.131120000">
        <ele>445.00000</ele>
        <time>2010-06-22T22:58:19Z</time>
      </trkpt>
      <trkpt lat="45.89674000" lon="6.131820000">
        <ele>447.00000</ele>
        <time>2010-06-22T22:58:52Z</time>
      </trkpt>
      <trkpt lat="45.89607000" lon="6.130760000">
        <ele>450.00000</ele>
        <time>2010-06-22T22:59:32Z</time>
      </trkpt>
      <trkpt lat="45.89565000" lon="6.130250000">
        <ele>451.00000</ele>
        <time>2010-06-22T22:59:54Z</time>
      </trkpt>
      <trkpt lat="45.89513000" lon="6.129490000">
        <ele>464.00000</ele>
        <time>2010-06-22T23:00:24Z</time>
      </trkpt>
      <trkpt lat="45.89494000" lon="6.129420000">
        <ele>464.00000</ele>
        <time>2010-06-22T23:00:32Z</time>
      </trkpt>
      <trkpt lat="45.89481000" lon="6.129440000">
        <ele>464.00000</ele>
        <time>2010-06-22T23:00:37Z</time>
      </trkpt>
      <trkpt lat="45.89462000" lon="6.129580000">
        <ele>464.00000</ele>
        <time>2010-06-22T23:00:45Z</time>
      </trkpt>
      <trkpt lat="45.89428000" lon="6.129940000">
        <ele>470.00000</ele>
        <time>2010-06-22T23:01:02Z</time>
      </trkpt>
      <trkpt lat="45.89407000" lon="6.129940000">
        <ele>470.00000</ele>
        <time>2010-06-22T23:01:11Z</time>
      </trkpt>
      <trkpt lat="45.89404000" lon="6.129870000">
        <ele>470.00000</ele>
        <time>2010-06-22T23:01:13Z</time>
      </trkpt>
      <trkpt lat="45.89405000" lon="6.129510000">
        <ele>473.00000</ele>
        <time>2010-06-22T23:01:23Z</time>
      </trkpt>
      <trkpt lat="45.89412000" lon="6.128670000">
        <ele>477.00000</ele>
        <time>2010-06-22T23:01:47Z</time>
      </trkpt>
      <trkpt lat="45.89418000" lon="6.128430000">
        <ele>477.00000</ele>
        <time>2010-06-22T23:01:54Z</time>
      </trkpt>
      <trkpt lat="45.89436000" lon="6.128150000">
        <ele>477.00000</ele>
        <time>2010-06-22T23:02:04Z</time>
      </trkpt>
      <trkpt lat="45.89471000" lon="6.127800000">
        <ele>470.00000</ele>
        <time>2010-06-22T23:02:21Z</time>
      </trkpt>
      <trkpt lat="45.89491000" lon="6.127530000">
        <ele>470.00000</ele>
        <time>2010-06-22T23:02:32Z</time>
      </trkpt>
      <trkpt lat="45.89536000" lon="6.126030000">
        <ele>475.00000</ele>
        <time>2010-06-22T23:03:18Z</time>
      </trkpt>
      <trkpt lat="45.89537000" lon="6.125660000">
        <ele>475.00000</ele>
        <time>2010-06-22T23:03:28Z</time>
      </trkpt>
      <trkpt lat="45.89515000" lon="6.124450000">
        <ele>469.00000</ele>
        <time>2010-06-22T23:04:03Z</time>
      </trkpt>
      <trkpt lat="45.89516000" lon="6.124260000">
        <ele>469.00000</ele>
        <time>2010-06-22T23:04:08Z</time>
      </trkpt>
      <trkpt lat="45.89531000" lon="6.123780000">
        <ele>469.00000</ele>
        <time>2010-06-22T23:04:23Z</time>
      </trkpt>
      <trkpt lat="45.89536000" lon="6.123240000">
        <ele>464.00000</ele>
        <time>2010-06-22T23:04:38Z</time>
      </trkpt>
      <trkpt lat="45.89525000" lon="6.122320000">
        <ele>459.00000</ele>
        <time>2010-06-22T23:05:04Z</time>
      </trkpt>
      <trkpt lat="45.89680000" lon="6.120810000">
        <ele>448.00000</ele>
        <time>2010-06-22T23:06:19Z</time>
      </trkpt>
      <trkpt lat="45.89670000" lon="6.120760000">
        <ele>448.00000</ele>
        <time>2010-06-22T23:06:23Z</time>
      </trkpt>
      <trkpt lat="45.89183000" lon="6.116470000">
        <ele>449.00000</ele>
        <time>2010-06-22T23:10:12Z</time>
      </trkpt>
      <trkpt lat="45.89002000" lon="6.114820000">
        <ele>454.00000</ele>
        <time>2010-06-22T23:11:38Z</time>
      </trkpt>
      <trkpt lat="45.89008000" lon="6.114640000">
        <ele>454.00000</ele>
        <time>2010-06-22T23:11:44Z</time>
      </trkpt>
      <trkpt lat="45.89005000" lon="6.114470000">
        <ele>456.00000</ele>
        <time>2010-06-22T23:11:48Z</time>
      </trkpt>
      <trkpt lat="45.88995000" lon="6.114390000">
        <ele>456.00000</ele>
        <time>2010-06-22T23:11:53Z</time>
      </trkpt>
      <trkpt lat="45.88985000" lon="6.114420000">
        <ele>456.00000</ele>
        <time>2010-06-22T23:11:57Z</time>
      </trkpt>
      <trkpt lat="45.88968000" lon="6.114370000">
        <ele>456.00000</ele>
        <time>2010-06-22T23:12:04Z</time>
      </trkpt>
      <trkpt lat="45.88933000" lon="6.114110000">
        <ele>457.00000</ele>
        <time>2010-06-22T23:12:20Z</time>
      </trkpt>
      <trkpt lat="45.88780000" lon="6.112510000">
        <ele>461.00000</ele>
        <time>2010-06-22T23:13:36Z</time>
      </trkpt>
      <trkpt lat="45.88733000" lon="6.111890000">
        <ele>467.00000</ele>
        <time>2010-06-22T23:14:01Z</time>
      </trkpt>
      <trkpt lat="45.88738000" lon="6.111780000">
        <ele>467.00000</ele>
        <time>2010-06-22T23:14:05Z</time>
      </trkpt>
      <trkpt lat="45.88736000" lon="6.111650000">
        <ele>467.00000</ele>
        <time>2010-06-22T23:14:08Z</time>
      </trkpt>
      <trkpt lat="45.88729000" lon="6.111570000">
        <ele>467.00000</ele>
        <time>2010-06-22T23:14:12Z</time>
      </trkpt>
      <trkpt lat="45.88721000" lon="6.111580000">
        <ele>467.00000</ele>
        <time>2010-06-22T23:14:15Z</time>
      </trkpt>
      <trkpt lat="45.88688000" lon="6.110970000">
        <ele>478.00000</ele>
        <time>2010-06-22T23:14:37Z</time>
      </trkpt>
      <trkpt lat="45.88652000" lon="6.110460000">
        <ele>478.00000</ele>
        <time>2010-06-22T23:14:57Z</time>
      </trkpt>
      <trkpt lat="45.88612000" lon="6.110060000">
        <ele>486.00000</ele>
        <time>2010-06-22T23:15:17Z</time>
      </trkpt>
      <trkpt lat="45.88495000" lon="6.109050000">
        <ele>497.00000</ele>
        <time>2010-06-22T23:16:11Z</time>
      </trkpt>
      <trkpt lat="45.88442000" lon="6.108790000">
        <ele>501.00000</ele>
        <time>2010-06-22T23:16:34Z</time>
      </trkpt>
      <trkpt lat="45.88281000" lon="6.108420000">
        <ele>507.00000</ele>
        <time>2010-06-22T23:17:39Z</time>
      </trkpt>
      <trkpt lat="45.88270000" lon="6.108310000">
        <ele>507.00000</ele>
        <time>2010-06-22T23:17:44Z</time>
      </trkpt>
      <trkpt lat="45.88266000" lon="6.108100000">
        <ele>507.00000</ele>
        <time>2010-06-22T23:17:50Z</time>
      </trkpt>
      <trkpt lat="45.88258000" lon="6.108040000">
        <ele>507.00000</ele>
        <time>2010-06-22T23:17:54Z</time>
      </trkpt>
      <trkpt lat="45.88246000" lon="6.108080000">
        <ele>507.00000</ele>
        <time>2010-06-22T23:17:59Z</time>
      </trkpt>
      <trkpt lat="45.88240000" lon="6.108240000">
        <ele>507.00000</ele>
        <time>2010-06-22T23:18:04Z</time>
      </trkpt>
      <trkpt lat="45.88207000" lon="6.108250000">
        <ele>506.00000</ele>
        <time>2010-06-22T23:18:17Z</time>
      </trkpt>
      <trkpt lat="45.88161000" lon="6.108130000">
        <ele>506.00000</ele>
        <time>2010-06-22T23:18:36Z</time>
      </trkpt>
      <trkpt lat="45.87898000" lon="6.105720000">
        <ele>508.00000</ele>
        <time>2010-06-22T23:20:41Z</time>
      </trkpt>
      <trkpt lat="45.87834000" lon="6.105400000">
        <ele>514.00000</ele>
        <time>2010-06-22T23:21:08Z</time>
      </trkpt>
      <trkpt lat="45.87704000" lon="6.104920000">
        <ele>511.00000</ele>
        <time>2010-06-22T23:22:02Z</time>
      </trkpt>
      <trkpt lat="45.87620000" lon="6.104240000">
        <ele>514.00000</ele>
        <time>2010-06-22T23:22:40Z</time>
      </trkpt>
      <trkpt lat="45.87537000" lon="6.103490000">
        <ele>516.00000</ele>
        <time>2010-06-22T23:23:19Z</time>
      </trkpt>
      <trkpt lat="45.87492000" lon="6.102710000">
        <ele>524.00000</ele>
        <time>2010-06-22T23:23:48Z</time>
      </trkpt>
      <trkpt lat="45.87437000" lon="6.102040000">
        <ele>527.00000</ele>
        <time>2010-06-22T23:24:17Z</time>
      </trkpt>
      <trkpt lat="45.87404000" lon="6.101800000">
        <ele>527.00000</ele>
        <time>2010-06-22T23:24:31Z</time>
      </trkpt>
      <trkpt lat="45.86722000" lon="6.095010000">
        <ele>575.00000</ele>
        <time>2010-06-22T23:30:04Z</time>
      </trkpt>
      <trkpt lat="45.86615000" lon="6.092940000">
        <ele>585.00000</ele>
        <time>2010-06-22T23:31:15Z</time>
      </trkpt>
      <trkpt lat="45.86359000" lon="6.087590000">
        <ele>602.00000</ele>
        <time>2010-06-22T23:34:16Z</time>
      </trkpt>
      <trkpt lat="45.86362000" lon="6.087460000">
        <ele>602.00000</ele>
        <time>2010-06-22T23:34:20Z</time>
      </trkpt>
      <trkpt lat="45.86358000" lon="6.087360000">
        <ele>602.00000</ele>
        <time>2010-06-22T23:34:23Z</time>
      </trkpt>
      <trkpt lat="45.86349000" lon="6.087320000">
        <ele>602.00000</ele>
        <time>2010-06-22T23:34:27Z</time>
      </trkpt>
      <trkpt lat="45.86342000" lon="6.087370000">
        <ele>602.00000</ele>
        <time>2010-06-22T23:34:30Z</time>
      </trkpt>
      <trkpt lat="45.86340000" lon="6.087560000">
        <ele>602.00000</ele>
        <time>2010-06-22T23:34:36Z</time>
      </trkpt>
      <trkpt lat="45.86299000" lon="6.087940000">
        <ele>601.00000</ele>
        <time>2010-06-22T23:34:55Z</time>
      </trkpt>
      <trkpt lat="45.86252000" lon="6.088730000">
        <ele>604.00000</ele>
        <time>2010-06-22T23:35:24Z</time>
      </trkpt>
      <trkpt lat="45.86234000" lon="6.089140000">
        <ele>604.00000</ele>
        <time>2010-06-22T23:35:38Z</time>
      </trkpt>
      <trkpt lat="45.86206000" lon="6.089340000">
        <ele>606.00000</ele>
        <time>2010-06-22T23:35:50Z</time>
      </trkpt>
      <trkpt lat="45.86134000" lon="6.089160000">
        <ele>606.00000</ele>
        <time>2010-06-22T23:36:19Z</time>
      </trkpt>
      <trkpt lat="45.86091000" lon="6.089220000">
        <ele>609.00000</ele>
        <time>2010-06-22T23:36:37Z</time>
      </trkpt>
      <trkpt lat="45.86044000" lon="6.089360000">
        <ele>609.00000</ele>
        <time>2010-06-22T23:36:56Z</time>
      </trkpt>
      <trkpt lat="45.85999000" lon="6.089360000">
        <ele>612.00000</ele>
        <time>2010-06-22T23:37:14Z</time>
      </trkpt>
      <trkpt lat="45.85991000" lon="6.089340000">
        <ele>612.00000</ele>
        <time>2010-06-22T23:37:17Z</time>
      </trkpt>
      <trkpt lat="45.85989000" lon="6.089180000">
        <ele>612.00000</ele>
        <time>2010-06-22T23:37:22Z</time>
      </trkpt>
      <trkpt lat="45.85979000" lon="6.089110000">
        <ele>612.00000</ele>
        <time>2010-06-22T23:37:26Z</time>
      </trkpt>
      <trkpt lat="45.85971000" lon="6.089130000">
        <ele>612.00000</ele>
        <time>2010-06-22T23:37:29Z</time>
      </trkpt>
      <trkpt lat="45.85965000" lon="6.089270000">
        <ele>612.00000</ele>
        <time>2010-06-22T23:37:34Z</time>
      </trkpt>
      <trkpt lat="45.85915000" lon="6.089050000">
        <ele>614.00000</ele>
        <time>2010-06-22T23:37:55Z</time>
      </trkpt>
      <trkpt lat="45.85886000" lon="6.089030000">
        <ele>614.00000</ele>
        <time>2010-06-22T23:38:07Z</time>
      </trkpt>
      <trkpt lat="45.85756000" lon="6.089320000">
        <ele>620.00000</ele>
        <time>2010-06-22T23:38:59Z</time>
      </trkpt>
      <trkpt lat="45.85754000" lon="6.089200000">
        <ele>620.00000</ele>
        <time>2010-06-22T23:39:03Z</time>
      </trkpt>
      <trkpt lat="45.85745000" lon="6.089130000">
        <ele>620.00000</ele>
        <time>2010-06-22T23:39:07Z</time>
      </trkpt>
      <trkpt lat="45.85734000" lon="6.089170000">
        <ele>620.00000</ele>
        <time>2010-06-22T23:39:11Z</time>
      </trkpt>
      <trkpt lat="45.85730000" lon="6.089320000">
        <ele>620.00000</ele>
        <time>2010-06-22T23:39:16Z</time>
      </trkpt>
      <trkpt lat="45.85630000" lon="6.089190000">
        <ele>626.00000</ele>
        <time>2010-06-22T23:39:56Z</time>
      </trkpt>
      <trkpt lat="45.85588000" lon="6.089300000">
        <ele>633.00000</ele>
        <time>2010-06-22T23:40:13Z</time>
      </trkpt>
      <trkpt lat="45.85547000" lon="6.089480000">
        <ele>633.00000</ele>
        <time>2010-06-22T23:40:30Z</time>
      </trkpt>
      <trkpt lat="45.85524000" lon="6.089490000">
        <ele>639.00000</ele>
        <time>2010-06-22T23:40:39Z</time>
      </trkpt>
      <trkpt lat="45.85510000" lon="6.089380000">
        <ele>639.00000</ele>
        <time>2010-06-22T23:40:46Z</time>
      </trkpt>
      <trkpt lat="45.85499000" lon="6.089210000">
        <ele>639.00000</ele>
        <time>2010-06-22T23:40:52Z</time>
      </trkpt>
      <trkpt lat="45.85491000" lon="6.088910000">
        <ele>639.00000</ele>
        <time>2010-06-22T23:41:01Z</time>
      </trkpt>
      <trkpt lat="45.85483000" lon="6.088220000">
        <ele>643.00000</ele>
        <time>2010-06-22T23:41:21Z</time>
      </trkpt>
      <trkpt lat="45.85469000" lon="6.087960000">
        <ele>643.00000</ele>
        <time>2010-06-22T23:41:30Z</time>
      </trkpt>
      <trkpt lat="45.85450000" lon="6.087430000">
        <ele>653.00000</ele>
        <time>2010-06-22T23:41:47Z</time>
      </trkpt>
      <trkpt lat="45.85455000" lon="6.086660000">
        <ele>655.00000</ele>
        <time>2010-06-22T23:42:08Z</time>
      </trkpt>
      <trkpt lat="45.85454000" lon="6.086480000">
        <ele>655.00000</ele>
        <time>2010-06-22T23:42:13Z</time>
      </trkpt>
      <trkpt lat="45.85445000" lon="6.086260000">
        <ele>655.00000</ele>
        <time>2010-06-22T23:42:20Z</time>
      </trkpt>
      <trkpt lat="45.85403000" lon="6.085580000">
        <ele>658.00000</ele>
        <time>2010-06-22T23:42:46Z</time>
      </trkpt>
      <trkpt lat="45.85368000" lon="6.085140000">
        <ele>663.00000</ele>
        <time>2010-06-22T23:43:04Z</time>
      </trkpt>
      <trkpt lat="45.85326000" lon="6.084800000">
        <ele>663.00000</ele>
        <time>2010-06-22T23:43:23Z</time>
      </trkpt>
      <trkpt lat="45.85290000" lon="6.084580000">
        <ele>676.00000</ele>
        <time>2010-06-22T23:43:39Z</time>
      </trkpt>
      <trkpt lat="45.85214000" lon="6.084220000">
        <ele>676.00000</ele>
        <time>2010-06-22T23:44:11Z</time>
      </trkpt>
      <trkpt lat="45.85193000" lon="6.084190000">
        <ele>677.00000</ele>
        <time>2010-06-22T23:44:20Z</time>
      </trkpt>
      <trkpt lat="45.85151000" lon="6.084450000">
        <ele>677.00000</ele>
        <time>2010-06-22T23:44:38Z</time>
      </trkpt>
      <trkpt lat="45.85132000" lon="6.084500000">
        <ele>677.00000</ele>
        <time>2010-06-22T23:44:46Z</time>
      </trkpt>
      <trkpt lat="45.84942000" lon="6.084630000">
        <ele>693.00000</ele>
        <time>2010-06-22T23:46:02Z</time>
      </trkpt>
      <trkpt lat="45.84835000" lon="6.084910000">
        <ele>698.00000</ele>
        <time>2010-06-22T23:46:45Z</time>
      </trkpt>
      <trkpt lat="45.84488000" lon="6.084240000">
        <ele>720.00000</ele>
        <time>2010-06-22T23:49:06Z</time>
      </trkpt>
      <trkpt lat="45.84390000" lon="6.083840000">
        <ele>721.00000</ele>
        <time>2010-06-22T23:49:46Z</time>
      </trkpt>
      <trkpt lat="45.84366000" lon="6.083790000">
        <ele>724.00000</ele>
        <time>2010-06-22T23:49:56Z</time>
      </trkpt>
      <trkpt lat="45.84356000" lon="6.083860000">
        <ele>724.00000</ele>
        <time>2010-06-22T23:50:00Z</time>
      </trkpt>
      <trkpt lat="45.84296000" lon="6.084680000">
        <ele>726.00000</ele>
        <time>2010-06-22T23:50:34Z</time>
      </trkpt>
      <trkpt lat="45.84285000" lon="6.084760000">
        <ele>733.00000</ele>
        <time>2010-06-22T23:50:39Z</time>
      </trkpt>
      <trkpt lat="45.84270000" lon="6.084800000">
        <ele>733.00000</ele>
        <time>2010-06-22T23:50:45Z</time>
      </trkpt>
      <trkpt lat="45.84207000" lon="6.084780000">
        <ele>740.00000</ele>
        <time>2010-06-22T23:51:10Z</time>
      </trkpt>
      <trkpt lat="45.84182000" lon="6.084770000">
        <ele>740.00000</ele>
        <time>2010-06-22T23:51:20Z</time>
      </trkpt>
      <trkpt lat="45.84174000" lon="6.084720000">
        <ele>740.00000</ele>
        <time>2010-06-22T23:51:23Z</time>
      </trkpt>
      <trkpt lat="45.84166000" lon="6.084830000">
        <ele>740.00000</ele>
        <time>2010-06-22T23:51:28Z</time>
      </trkpt>
      <trkpt lat="45.84068000" lon="6.085490000">
        <ele>748.00000</ele>
        <time>2010-06-22T23:52:11Z</time>
      </trkpt>
      <trkpt lat="45.84020000" lon="6.085700000">
        <ele>755.00000</ele>
        <time>2010-06-22T23:52:31Z</time>
      </trkpt>
      <trkpt lat="45.83857000" lon="6.085800000">
        <ele>763.00000</ele>
        <time>2010-06-22T23:53:37Z</time>
      </trkpt>
      <trkpt lat="45.83805000" lon="6.085700000">
        <ele>763.00000</ele>
        <time>2010-06-22T23:53:58Z</time>
      </trkpt>
      <trkpt lat="45.83773000" lon="6.085420000">
        <ele>766.00000</ele>
        <time>2010-06-22T23:54:13Z</time>
      </trkpt>
      <trkpt lat="45.83697000" lon="6.085520000">
        <ele>770.00000</ele>
        <time>2010-06-22T23:54:43Z</time>
      </trkpt>
      <trkpt lat="45.83683000" lon="6.085610000">
        <ele>770.00000</ele>
        <time>2010-06-22T23:54:49Z</time>
      </trkpt>
      <trkpt lat="45.83673000" lon="6.085840000">
        <ele>770.00000</ele>
        <time>2010-06-22T23:54:57Z</time>
      </trkpt>
      <trkpt lat="45.83678000" lon="6.086760000">
        <ele>775.00000</ele>
        <time>2010-06-22T23:55:23Z</time>
      </trkpt>
      <trkpt lat="45.83674000" lon="6.086970000">
        <ele>775.00000</ele>
        <time>2010-06-22T23:55:29Z</time>
      </trkpt>
      <trkpt lat="45.83669000" lon="6.087010000">
        <ele>775.00000</ele>
        <time>2010-06-22T23:55:31Z</time>
      </trkpt>
      <trkpt lat="45.83594000" lon="6.086930000">
        <ele>784.00000</ele>
        <time>2010-06-22T23:56:01Z</time>
      </trkpt>
      <trkpt lat="45.83540000" lon="6.087240000">
        <ele>795.00000</ele>
        <time>2010-06-22T23:56:24Z</time>
      </trkpt>
      <trkpt lat="45.83508000" lon="6.087290000">
        <ele>795.00000</ele>
        <time>2010-06-22T23:56:37Z</time>
      </trkpt>
      <trkpt lat="45.83466000" lon="6.087220000">
        <ele>795.00000</ele>
        <time>2010-06-22T23:56:54Z</time>
      </trkpt>
      <trkpt lat="45.83428000" lon="6.086990000">
        <ele>796.00000</ele>
        <time>2010-06-22T23:57:11Z</time>
      </trkpt>
      <trkpt lat="45.83284000" lon="6.085440000">
        <ele>805.00000</ele>
        <time>2010-06-22T23:58:23Z</time>
      </trkpt>
      <trkpt lat="45.83243000" lon="6.085130000">
        <ele>798.00000</ele>
        <time>2010-06-22T23:58:41Z</time>
      </trkpt>
      <trkpt lat="45.83229000" lon="6.085060000">
        <ele>798.00000</ele>
        <time>2010-06-22T23:58:47Z</time>
      </trkpt>
      <trkpt lat="45.83218000" lon="6.085070000">
        <ele>798.00000</ele>
        <time>2010-06-22T23:58:52Z</time>
      </trkpt>
      <trkpt lat="45.83202000" lon="6.085250000">
        <ele>802.00000</ele>
        <time>2010-06-22T23:59:00Z</time>
      </trkpt>
      <trkpt lat="45.83195000" lon="6.085410000">
        <ele>802.00000</ele>
        <time>2010-06-22T23:59:05Z</time>
      </trkpt>
      <trkpt lat="45.83189000" lon="6.085930000">
        <ele>808.00000</ele>
        <time>2010-06-22T23:59:20Z</time>
      </trkpt>
      <trkpt lat="45.83192000" lon="6.087540000">
        <ele>820.00000</ele>
        <time>2010-06-23T00:00:05Z</time>
      </trkpt>
      <trkpt lat="45.83190000" lon="6.087670000">
        <ele>820.00000</ele>
        <time>2010-06-23T00:00:08Z</time>
      </trkpt>
      <trkpt lat="45.83179000" lon="6.087860000">
        <ele>820.00000</ele>
        <time>2010-06-23T00:00:15Z</time>
      </trkpt>
      <trkpt lat="45.83166000" lon="6.087930000">
        <ele>830.00000</ele>
        <time>2010-06-23T00:00:21Z</time>
      </trkpt>
      <trkpt lat="45.83094000" lon="6.088010000">
        <ele>831.00000</ele>
        <time>2010-06-23T00:00:50Z</time>
      </trkpt>
      <trkpt lat="45.83081000" lon="6.088070000">
        <ele>831.00000</ele>
        <time>2010-06-23T00:00:55Z</time>
      </trkpt>
      <trkpt lat="45.83061000" lon="6.088280000">
        <ele>831.00000</ele>
        <time>2010-06-23T00:01:05Z</time>
      </trkpt>
      <trkpt lat="45.83025000" lon="6.088380000">
        <ele>838.00000</ele>
        <time>2010-06-23T00:01:20Z</time>
      </trkpt>
      <trkpt lat="45.83000000" lon="6.088590000">
        <ele>838.00000</ele>
        <time>2010-06-23T00:01:31Z</time>
      </trkpt>
      <trkpt lat="45.82971000" lon="6.088680000">
        <ele>838.00000</ele>
        <time>2010-06-23T00:01:43Z</time>
      </trkpt>
      <trkpt lat="45.82960000" lon="6.088770000">
        <ele>854.00000</ele>
        <time>2010-06-23T00:01:48Z</time>
      </trkpt>
      <trkpt lat="45.82957000" lon="6.088860000">
        <ele>863.00000</ele>
        <time>2010-06-23T00:01:51Z</time>
      </trkpt>
      <trkpt lat="45.82961000" lon="6.089050000">
        <ele>854.00000</ele>
        <time>2010-06-23T00:01:57Z</time>
      </trkpt>
      <trkpt lat="45.83008000" lon="6.089140000">
        <ele>854.00000</ele>
        <time>2010-06-23T00:02:16Z</time>
      </trkpt>
      <trkpt lat="45.83021000" lon="6.089210000">
        <ele>854.00000</ele>
        <time>2010-06-23T00:02:21Z</time>
      </trkpt>
      <trkpt lat="45.83058000" lon="6.089540000">
        <ele>845.00000</ele>
        <time>2010-06-23T00:02:39Z</time>
      </trkpt>
      <trkpt lat="45.83094000" lon="6.089770000">
        <ele>860.00000</ele>
        <time>2010-06-23T00:02:54Z</time>
      </trkpt>
      <trkpt lat="45.83106000" lon="6.089870000">
        <ele>860.00000</ele>
        <time>2010-06-23T00:03:00Z</time>
      </trkpt>
      <trkpt lat="45.83128000" lon="6.090210000">
        <ele>852.00000</ele>
        <time>2010-06-23T00:03:13Z</time>
      </trkpt>
      <trkpt lat="45.83140000" lon="6.090540000">
        <ele>865.00000</ele>
        <time>2010-06-23T00:03:23Z</time>
      </trkpt>
      <trkpt lat="45.83146000" lon="6.090990000">
        <ele>865.00000</ele>
        <time>2010-06-23T00:03:36Z</time>
      </trkpt>
      <trkpt lat="45.83168000" lon="6.091160000">
        <ele>865.00000</ele>
        <time>2010-06-23T00:03:46Z</time>
      </trkpt>
      <trkpt lat="45.83165000" lon="6.091510000">
        <ele>878.00000</ele>
        <time>2010-06-23T00:03:56Z</time>
      </trkpt>
      <trkpt lat="45.83168000" lon="6.091760000">
        <ele>878.00000</ele>
        <time>2010-06-23T00:04:03Z</time>
      </trkpt>
      <trkpt lat="45.83189000" lon="6.092060000">
        <ele>878.00000</ele>
        <time>2010-06-23T00:04:15Z</time>
      </trkpt>
      <trkpt lat="45.83211000" lon="6.092550000">
        <ele>879.00000</ele>
        <time>2010-06-23T00:04:31Z</time>
      </trkpt>
      <trkpt lat="45.83210000" lon="6.092780000">
        <ele>879.00000</ele>
        <time>2010-06-23T00:04:37Z</time>
      </trkpt>
      <trkpt lat="45.83190000" lon="6.093210000">
        <ele>911.00000</ele>
        <time>2010-06-23T00:04:52Z</time>
      </trkpt>
      <trkpt lat="45.83193000" lon="6.093320000">
        <ele>911.00000</ele>
        <time>2010-06-23T00:04:55Z</time>
      </trkpt>
      <trkpt lat="45.83215000" lon="6.093570000">
        <ele>893.00000</ele>
        <time>2010-06-23T00:05:06Z</time>
      </trkpt>
      <trkpt lat="45.83236000" lon="6.094240000">
        <ele>911.00000</ele>
        <time>2010-06-23T00:05:27Z</time>
      </trkpt>
      <trkpt lat="45.83259000" lon="6.094560000">
        <ele>911.00000</ele>
        <time>2010-06-23T00:05:40Z</time>
      </trkpt>
      <trkpt lat="45.83384000" lon="6.095730000">
        <ele>930.00000</ele>
        <time>2010-06-23T00:06:39Z</time>
      </trkpt>
      <trkpt lat="45.83456000" lon="6.095920000">
        <ele>930.00000</ele>
        <time>2010-06-23T00:07:09Z</time>
      </trkpt>
      <trkpt lat="45.83470000" lon="6.095990000">
        <ele>924.00000</ele>
        <time>2010-06-23T00:07:15Z</time>
      </trkpt>
      <trkpt lat="45.83499000" lon="6.096290000">
        <ele>943.00000</ele>
        <time>2010-06-23T00:07:29Z</time>
      </trkpt>
      <trkpt lat="45.83558000" lon="6.096410000">
        <ele>943.00000</ele>
        <time>2010-06-23T00:07:53Z</time>
      </trkpt>
      <trkpt lat="45.83591000" lon="6.096900000">
        <ele>943.00000</ele>
        <time>2010-06-23T00:08:12Z</time>
      </trkpt>
      <trkpt lat="45.83631000" lon="6.097330000">
        <ele>963.00000</ele>
        <time>2010-06-23T00:08:32Z</time>
      </trkpt>
      <trkpt lat="45.83669000" lon="6.097470000">
        <ele>963.00000</ele>
        <time>2010-06-23T00:08:48Z</time>
      </trkpt>
      <trkpt lat="45.83702000" lon="6.097440000">
        <ele>963.00000</ele>
        <time>2010-06-23T00:09:01Z</time>
      </trkpt>
      <trkpt lat="45.83732000" lon="6.097270000">
        <ele>967.00000</ele>
        <time>2010-06-23T00:09:14Z</time>
      </trkpt>
      <trkpt lat="45.83748000" lon="6.097260000">
        <ele>967.00000</ele>
        <time>2010-06-23T00:09:20Z</time>
      </trkpt>
      <trkpt lat="45.83796000" lon="6.097640000">
        <ele>967.00000</ele>
        <time>2010-06-23T00:09:42Z</time>
      </trkpt>
      <trkpt lat="45.83798000" lon="6.097820000">
        <ele>967.00000</ele>
        <time>2010-06-23T00:09:47Z</time>
      </trkpt>
      <trkpt lat="45.83783000" lon="6.098240000">
        <ele>988.00000</ele>
        <time>2010-06-23T00:10:00Z</time>
      </trkpt>
      <trkpt lat="45.83766000" lon="6.099090000">
        <ele>1002.0000</ele>
        <time>2010-06-23T00:10:25Z</time>
      </trkpt>
      <trkpt lat="45.83716000" lon="6.099640000">
        <ele>1009.0000</ele>
        <time>2010-06-23T00:10:50Z</time>
      </trkpt>
      <trkpt lat="45.83706000" lon="6.099940000">
        <ele>1007.0000</ele>
        <time>2010-06-23T00:10:59Z</time>
      </trkpt>
      <trkpt lat="45.83716000" lon="6.100410000">
        <ele>1009.0000</ele>
        <time>2010-06-23T00:11:13Z</time>
      </trkpt>
      <trkpt lat="45.83727000" lon="6.100680000">
        <ele>1016.0000</ele>
        <time>2010-06-23T00:11:22Z</time>
      </trkpt>
      <trkpt lat="45.83761000" lon="6.101110000">
        <ele>1016.0000</ele>
        <time>2010-06-23T00:11:40Z</time>
      </trkpt>
      <trkpt lat="45.83761000" lon="6.101380000">
        <ele>1020.0000</ele>
        <time>2010-06-23T00:11:48Z</time>
      </trkpt>
      <trkpt lat="45.83748000" lon="6.101740000">
        <ele>1020.0000</ele>
        <time>2010-06-23T00:11:59Z</time>
      </trkpt>
      <trkpt lat="45.83738000" lon="6.102200000">
        <ele>1020.0000</ele>
        <time>2010-06-23T00:12:12Z</time>
      </trkpt>
      <trkpt lat="45.83704000" lon="6.102620000">
        <ele>1024.0000</ele>
        <time>2010-06-23T00:12:30Z</time>
      </trkpt>
      <trkpt lat="45.83668000" lon="6.102840000">
        <ele>1024.0000</ele>
        <time>2010-06-23T00:12:46Z</time>
      </trkpt>
      <trkpt lat="45.83634000" lon="6.102930000">
        <ele>1028.0000</ele>
        <time>2010-06-23T00:13:00Z</time>
      </trkpt>
      <trkpt lat="45.83624000" lon="6.103060000">
        <ele>1045.0000</ele>
        <time>2010-06-23T00:13:05Z</time>
      </trkpt>
      <trkpt lat="45.83636000" lon="6.103570000">
        <ele>1028.0000</ele>
        <time>2010-06-23T00:13:20Z</time>
      </trkpt>
      <trkpt lat="45.83665000" lon="6.104290000">
        <ele>1031.0000</ele>
        <time>2010-06-23T00:13:43Z</time>
      </trkpt>
      <trkpt lat="45.83666000" lon="6.104560000">
        <ele>1031.0000</ele>
        <time>2010-06-23T00:13:51Z</time>
      </trkpt>
      <trkpt lat="45.83656000" lon="6.104770000">
        <ele>1038.0000</ele>
        <time>2010-06-23T00:13:58Z</time>
      </trkpt>
      <trkpt lat="45.83643000" lon="6.104570000">
        <ele>1031.0000</ele>
        <time>2010-06-23T00:14:06Z</time>
      </trkpt>
      <trkpt lat="45.83620000" lon="6.104060000">
        <ele>1053.0000</ele>
        <time>2010-06-23T00:14:23Z</time>
      </trkpt>
      <trkpt lat="45.83603000" lon="6.103850000">
        <ele>1053.0000</ele>
        <time>2010-06-23T00:14:32Z</time>
      </trkpt>
      <trkpt lat="45.83594000" lon="6.103640000">
        <ele>1045.0000</ele>
        <time>2010-06-23T00:14:38Z</time>
      </trkpt>
      <trkpt lat="45.83578000" lon="6.103420000">
        <ele>1045.0000</ele>
        <time>2010-06-23T00:14:47Z</time>
      </trkpt>
      <trkpt lat="45.83528000" lon="6.103170000">
        <ele>1059.0000</ele>
        <time>2010-06-23T00:15:09Z</time>
      </trkpt>
      <trkpt lat="45.83442000" lon="6.102950000">
        <ele>1075.0000</ele>
        <time>2010-06-23T00:15:43Z</time>
      </trkpt>
      <trkpt lat="45.83404000" lon="6.102740000">
        <ele>1061.0000</ele>
        <time>2010-06-23T00:16:00Z</time>
      </trkpt>
      <trkpt lat="45.83345000" lon="6.102170000">
        <ele>1077.0000</ele>
        <time>2010-06-23T00:16:28Z</time>
      </trkpt>
      <trkpt lat="45.83307000" lon="6.101710000">
        <ele>1064.0000</ele>
        <time>2010-06-23T00:16:48Z</time>
      </trkpt>
      <trkpt lat="45.83212000" lon="6.100360000">
        <ele>1044.0000</ele>
        <time>2010-06-23T00:17:42Z</time>
      </trkpt>
      <trkpt lat="45.83098000" lon="6.099450000">
        <ele>1062.0000</ele>
        <time>2010-06-23T00:18:34Z</time>
      </trkpt>
      <trkpt lat="45.83043000" lon="6.099290000">
        <ele>1062.0000</ele>
        <time>2010-06-23T00:18:56Z</time>
      </trkpt>
      <trkpt lat="45.83028000" lon="6.099330000">
        <ele>1088.0000</ele>
        <time>2010-06-23T00:19:02Z</time>
      </trkpt>
      <trkpt lat="45.83025000" lon="6.099430000">
        <ele>1088.0000</ele>
        <time>2010-06-23T00:19:06Z</time>
      </trkpt>
      <trkpt lat="45.83028000" lon="6.099570000">
        <ele>1088.0000</ele>
        <time>2010-06-23T00:19:10Z</time>
      </trkpt>
      <trkpt lat="45.83070000" lon="6.099880000">
        <ele>1087.0000</ele>
        <time>2010-06-23T00:19:28Z</time>
      </trkpt>
      <trkpt lat="45.83079000" lon="6.100010000">
        <ele>1087.0000</ele>
        <time>2010-06-23T00:19:34Z</time>
      </trkpt>
      <trkpt lat="45.83115000" lon="6.101920000">
        <ele>1127.0000</ele>
        <time>2010-06-23T00:20:29Z</time>
      </trkpt>
      <trkpt lat="45.83165000" lon="6.102530000">
        <ele>1119.0000</ele>
        <time>2010-06-23T00:20:55Z</time>
      </trkpt>
      <trkpt lat="45.83165000" lon="6.102650000">
        <ele>1119.0000</ele>
        <time>2010-06-23T00:20:58Z</time>
      </trkpt>
      <trkpt lat="45.83156000" lon="6.102750000">
        <ele>1119.0000</ele>
        <time>2010-06-23T00:21:03Z</time>
      </trkpt>
      <trkpt lat="45.83080000" lon="6.102210000">
        <ele>1142.0000</ele>
        <time>2010-06-23T00:21:37Z</time>
      </trkpt>
      <trkpt lat="45.83030000" lon="6.101520000">
        <ele>1144.0000</ele>
        <time>2010-06-23T00:22:05Z</time>
      </trkpt>
      <trkpt lat="45.82963000" lon="6.101120000">
        <ele>1130.0000</ele>
        <time>2010-06-23T00:22:34Z</time>
      </trkpt>
      <trkpt lat="45.82915000" lon="6.100570000">
        <ele>1145.0000</ele>
        <time>2010-06-23T00:22:58Z</time>
      </trkpt>
      <trkpt lat="45.82850000" lon="6.100110000">
        <ele>1145.0000</ele>
        <time>2010-06-23T00:23:27Z</time>
      </trkpt>
      <trkpt lat="45.82774000" lon="6.100060000">
        <ele>1157.0000</ele>
        <time>2010-06-23T00:23:58Z</time>
      </trkpt>
      <trkpt lat="45.82726000" lon="6.099740000">
        <ele>1157.0000</ele>
        <time>2010-06-23T00:24:19Z</time>
      </trkpt>
      <trkpt lat="45.82669000" lon="6.099270000">
        <ele>1157.0000</ele>
        <time>2010-06-23T00:24:45Z</time>
      </trkpt>
      <trkpt lat="45.82594000" lon="6.099020000">
        <ele>1170.0000</ele>
        <time>2010-06-23T00:25:16Z</time>
      </trkpt>
      <trkpt lat="45.82499000" lon="6.098420000">
        <ele>1166.0000</ele>
        <time>2010-06-23T00:25:58Z</time>
      </trkpt>
      <trkpt lat="45.82456000" lon="6.098300000">
        <ele>1179.0000</ele>
        <time>2010-06-23T00:26:15Z</time>
      </trkpt>
      <trkpt lat="45.82359000" lon="6.098170000">
        <ele>1194.0000</ele>
        <time>2010-06-23T00:26:54Z</time>
      </trkpt>
      <trkpt lat="45.82293000" lon="6.097700000">
        <ele>1171.0000</ele>
        <time>2010-06-23T00:27:24Z</time>
      </trkpt>
      <trkpt lat="45.82266000" lon="6.097660000">
        <ele>1187.0000</ele>
        <time>2010-06-23T00:27:35Z</time>
      </trkpt>
      <trkpt lat="45.82251000" lon="6.097690000">
        <ele>1187.0000</ele>
        <time>2010-06-23T00:27:41Z</time>
      </trkpt>
      <trkpt lat="45.82229000" lon="6.097840000">
        <ele>1187.0000</ele>
        <time>2010-06-23T00:27:50Z</time>
      </trkpt>
      <trkpt lat="45.82210000" lon="6.098100000">
        <ele>1209.0000</ele>
        <time>2010-06-23T00:28:01Z</time>
      </trkpt>
      <trkpt lat="45.82168000" lon="6.098640000">
        <ele>1222.0000</ele>
        <time>2010-06-23T00:28:23Z</time>
      </trkpt>
      <trkpt lat="45.82128000" lon="6.098700000">
        <ele>1222.0000</ele>
        <time>2010-06-23T00:28:40Z</time>
      </trkpt>
      <trkpt lat="45.82099000" lon="6.098960000">
        <ele>1251.0000</ele>
        <time>2010-06-23T00:28:53Z</time>
      </trkpt>
      <trkpt lat="45.82088000" lon="6.098990000">
        <ele>1251.0000</ele>
        <time>2010-06-23T00:28:58Z</time>
      </trkpt>
      <trkpt lat="45.82019000" lon="6.098840000">
        <ele>1269.0000</ele>
        <time>2010-06-23T00:29:26Z</time>
      </trkpt>
      <trkpt lat="45.81957000" lon="6.098780000">
        <ele>1290.0000</ele>
        <time>2010-06-23T00:29:51Z</time>
      </trkpt>
      <trkpt lat="45.81883000" lon="6.098340000">
        <ele>1266.0000</ele>
        <time>2010-06-23T00:30:23Z</time>
      </trkpt>
      <trkpt lat="45.81822000" lon="6.097850000">
        <ele>1257.0000</ele>
        <time>2010-06-23T00:30:51Z</time>
      </trkpt>
      <trkpt lat="45.81818000" lon="6.097840000">
        <ele>1257.0000</ele>
        <time>2010-06-23T00:30:52Z</time>
      </trkpt>
      <trkpt lat="45.81812000" lon="6.097930000">
        <ele>1286.0000</ele>
        <time>2010-06-23T00:30:56Z</time>
      </trkpt>
      <trkpt lat="45.81821000" lon="6.098170000">
        <ele>1286.0000</ele>
        <time>2010-06-23T00:31:03Z</time>
      </trkpt>
      <trkpt lat="45.81848000" lon="6.098520000">
        <ele>1286.0000</ele>
        <time>2010-06-23T00:31:18Z</time>
      </trkpt>
      <trkpt lat="45.81922000" lon="6.099750000">
        <ele>1308.0000</ele>
        <time>2010-06-23T00:32:03Z</time>
      </trkpt>
      <trkpt lat="45.81957000" lon="6.100070000">
        <ele>1308.0000</ele>
        <time>2010-06-23T00:32:20Z</time>
      </trkpt>
      <trkpt lat="45.81979000" lon="6.100340000">
        <ele>1286.0000</ele>
        <time>2010-06-23T00:32:31Z</time>
      </trkpt>
      <trkpt lat="45.81985000" lon="6.100480000">
        <ele>1307.0000</ele>
        <time>2010-06-23T00:32:36Z</time>
      </trkpt>
      <trkpt lat="45.81987000" lon="6.100660000">
        <ele>1307.0000</ele>
        <time>2010-06-23T00:32:41Z</time>
      </trkpt>
      <trkpt lat="45.81981000" lon="6.101200000">
        <ele>1307.0000</ele>
        <time>2010-06-23T00:32:56Z</time>
      </trkpt>
      <trkpt lat="45.81981000" lon="6.101430000">
        <ele>1321.0000</ele>
        <time>2010-06-23T00:33:03Z</time>
      </trkpt>
      <trkpt lat="45.81986000" lon="6.101690000">
        <ele>1321.0000</ele>
        <time>2010-06-23T00:33:10Z</time>
      </trkpt>
      <trkpt lat="45.82093000" lon="6.103910000">
        <ele>1330.0000</ele>
        <time>2010-06-23T00:34:26Z</time>
      </trkpt>
      <trkpt lat="45.82092000" lon="6.104080000">
        <ele>1330.0000</ele>
        <time>2010-06-23T00:34:30Z</time>
      </trkpt>
      <trkpt lat="45.82085000" lon="6.104170000">
        <ele>1330.0000</ele>
        <time>2010-06-23T00:34:34Z</time>
      </trkpt>
      <trkpt lat="45.82076000" lon="6.104160000">
        <ele>1330.0000</ele>
        <time>2010-06-23T00:34:38Z</time>
      </trkpt>
      <trkpt lat="45.82015000" lon="6.103560000">
        <ele>1339.0000</ele>
        <time>2010-06-23T00:35:07Z</time>
      </trkpt>
      <trkpt lat="45.81992000" lon="6.103520000">
        <ele>1339.0000</ele>
        <time>2010-06-23T00:35:17Z</time>
      </trkpt>
      <trkpt lat="45.81982000" lon="6.103600000">
        <ele>1339.0000</ele>
        <time>2010-06-23T00:35:21Z</time>
      </trkpt>
      <trkpt lat="45.81976000" lon="6.103720000">
        <ele>1339.0000</ele>
        <time>2010-06-23T00:35:25Z</time>
      </trkpt>
      <trkpt lat="45.81970000" lon="6.104310000">
        <ele>1346.0000</ele>
        <time>2010-06-23T00:35:42Z</time>
      </trkpt>
      <trkpt lat="45.81956000" lon="6.104490000">
        <ele>1357.0000</ele>
        <time>2010-06-23T00:35:49Z</time>
      </trkpt>
      <trkpt lat="45.81946000" lon="6.104530000">
        <ele>1357.0000</ele>
        <time>2010-06-23T00:35:54Z</time>
      </trkpt>
      <trkpt lat="45.81921000" lon="6.104480000">
        <ele>1357.0000</ele>
        <time>2010-06-23T00:36:04Z</time>
      </trkpt>
      <trkpt lat="45.81832000" lon="6.103470000">
        <ele>1364.0000</ele>
        <time>2010-06-23T00:36:49Z</time>
      </trkpt>
      <trkpt lat="45.81797000" lon="6.103180000">
        <ele>1364.0000</ele>
        <time>2010-06-23T00:37:05Z</time>
      </trkpt>
      <trkpt lat="45.81783000" lon="6.103150000">
        <ele>1378.0000</ele>
        <time>2010-06-23T00:37:11Z</time>
      </trkpt>
      <trkpt lat="45.81753000" lon="6.103210000">
        <ele>1378.0000</ele>
        <time>2010-06-23T00:37:23Z</time>
      </trkpt>
      <trkpt lat="45.81746000" lon="6.103160000">
        <ele>1378.0000</ele>
        <time>2010-06-23T00:37:26Z</time>
      </trkpt>
      <trkpt lat="45.81742000" lon="6.103100000">
        <ele>1378.0000</ele>
        <time>2010-06-23T00:37:29Z</time>
      </trkpt>
      <trkpt lat="45.81735000" lon="6.101970000">
        <ele>1360.0000</ele>
        <time>2010-06-23T00:38:00Z</time>
      </trkpt>
      <trkpt lat="45.81727000" lon="6.101690000">
        <ele>1360.0000</ele>
        <time>2010-06-23T00:38:09Z</time>
      </trkpt>
      <trkpt lat="45.81698000" lon="6.101110000">
        <ele>1362.0000</ele>
        <time>2010-06-23T00:38:29Z</time>
      </trkpt>
      <trkpt lat="45.81674000" lon="6.100840000">
        <ele>1362.0000</ele>
        <time>2010-06-23T00:38:41Z</time>
      </trkpt>
      <trkpt lat="45.81658000" lon="6.100740000">
        <ele>1362.0000</ele>
        <time>2010-06-23T00:38:48Z</time>
      </trkpt>
      <trkpt lat="45.81590000" lon="6.100520000">
        <ele>1376.0000</ele>
        <time>2010-06-23T00:39:16Z</time>
      </trkpt>
      <trkpt lat="45.81551000" lon="6.100330000">
        <ele>1367.0000</ele>
        <time>2010-06-23T00:39:32Z</time>
      </trkpt>
      <trkpt lat="45.81539000" lon="6.100330000">
        <ele>1384.0000</ele>
        <time>2010-06-23T00:39:37Z</time>
      </trkpt>
      <trkpt lat="45.81504000" lon="6.100490000">
        <ele>1393.0000</ele>
        <time>2010-06-23T00:39:52Z</time>
      </trkpt>
      <trkpt lat="45.81450000" lon="6.100340000">
        <ele>1401.0000</ele>
        <time>2010-06-23T00:40:14Z</time>
      </trkpt>
      <trkpt lat="45.81401000" lon="6.100280000">
        <ele>1401.0000</ele>
        <time>2010-06-23T00:40:33Z</time>
      </trkpt>
      <trkpt lat="45.81383000" lon="6.100200000">
        <ele>1401.0000</ele>
        <time>2010-06-23T00:40:41Z</time>
      </trkpt>
      <trkpt lat="45.81354000" lon="6.099950000">
        <ele>1415.0000</ele>
        <time>2010-06-23T00:40:54Z</time>
      </trkpt>
      <trkpt lat="45.81328000" lon="6.099380000">
        <ele>1407.0000</ele>
        <time>2010-06-23T00:41:13Z</time>
      </trkpt>
      <trkpt lat="45.81279000" lon="6.098760000">
        <ele>1420.0000</ele>
        <time>2010-06-23T00:41:40Z</time>
      </trkpt>
      <trkpt lat="45.81254000" lon="6.098730000">
        <ele>1409.0000</ele>
        <time>2010-06-23T00:41:50Z</time>
      </trkpt>
      <trkpt lat="45.81212000" lon="6.099000000">
        <ele>1420.0000</ele>
        <time>2010-06-23T00:42:08Z</time>
      </trkpt>
      <trkpt lat="45.81155000" lon="6.098970000">
        <ele>1432.0000</ele>
        <time>2010-06-23T00:42:31Z</time>
      </trkpt>
      <trkpt lat="45.81147000" lon="6.098920000">
        <ele>1432.0000</ele>
        <time>2010-06-23T00:42:34Z</time>
      </trkpt>
      <trkpt lat="45.81105000" lon="6.098340000">
        <ele>1432.0000</ele>
        <time>2010-06-23T00:42:58Z</time>
      </trkpt>
      <trkpt lat="45.81057000" lon="6.098080000">
        <ele>1432.0000</ele>
        <time>2010-06-23T00:43:18Z</time>
      </trkpt>
      <trkpt lat="45.80984000" lon="6.098110000">
        <ele>1442.0000</ele>
        <time>2010-06-23T00:43:47Z</time>
      </trkpt>
      <trkpt lat="45.80965000" lon="6.098170000">
        <ele>1442.0000</ele>
        <time>2010-06-23T00:43:55Z</time>
      </trkpt>
      <trkpt lat="45.80949000" lon="6.098310000">
        <ele>1451.0000</ele>
        <time>2010-06-23T00:44:03Z</time>
      </trkpt>
      <trkpt lat="45.80946000" lon="6.098410000">
        <ele>1451.0000</ele>
        <time>2010-06-23T00:44:06Z</time>
      </trkpt>
      <trkpt lat="45.80949000" lon="6.098570000">
        <ele>1451.0000</ele>
        <time>2010-06-23T00:44:10Z</time>
      </trkpt>
      <trkpt lat="45.80985000" lon="6.099380000">
        <ele>1453.0000</ele>
        <time>2010-06-23T00:44:37Z</time>
      </trkpt>
      <trkpt lat="45.80985000" lon="6.099680000">
        <ele>1463.0000</ele>
        <time>2010-06-23T00:44:46Z</time>
      </trkpt>
      <trkpt lat="45.80981000" lon="6.099810000">
        <ele>1463.0000</ele>
        <time>2010-06-23T00:44:50Z</time>
      </trkpt>
      <trkpt lat="45.80949000" lon="6.100200000">
        <ele>1472.0000</ele>
        <time>2010-06-23T00:45:06Z</time>
      </trkpt>
      <trkpt lat="45.80839000" lon="6.101230000">
        <ele>1489.0000</ele>
        <time>2010-06-23T00:45:59Z</time>
      </trkpt>
      <trkpt lat="45.80832000" lon="6.101560000">
        <ele>1493.0000</ele>
        <time>2010-06-23T00:46:09Z</time>
      </trkpt>
      <trkpt lat="45.80829000" lon="6.101950000">
        <ele>1493.0000</ele>
        <time>2010-06-23T00:46:20Z</time>
      </trkpt>
      <trkpt lat="45.80815000" lon="6.102250000">
        <ele>1497.0000</ele>
        <time>2010-06-23T00:46:30Z</time>
      </trkpt>
      <trkpt lat="45.80747000" lon="6.102920000">
        <ele>1505.0000</ele>
        <time>2010-06-23T00:47:03Z</time>
      </trkpt>
      <trkpt lat="45.80681000" lon="6.103380000">
        <ele>1507.0000</ele>
        <time>2010-06-23T00:47:32Z</time>
      </trkpt>
      <trkpt lat="45.80615000" lon="6.103650000">
        <ele>1509.0000</ele>
        <time>2010-06-23T00:47:59Z</time>
      </trkpt>
      <trkpt lat="45.80544000" lon="6.103680000">
        <ele>1509.0000</ele>
        <time>2010-06-23T00:48:28Z</time>
      </trkpt>
      <trkpt lat="45.80517000" lon="6.103620000">
        <ele>1520.0000</ele>
        <time>2010-06-23T00:48:39Z</time>
      </trkpt>
      <trkpt lat="45.80325000" lon="6.102890000">
        <ele>1527.0000</ele>
        <time>2010-06-23T00:49:58Z</time>
      </trkpt>
      <trkpt lat="45.80254000" lon="6.102720000">
        <ele>1531.0000</ele>
        <time>2010-06-23T00:50:27Z</time>
      </trkpt>
      <trkpt lat="45.80229000" lon="6.102780000">
        <ele>1531.0000</ele>
        <time>2010-06-23T00:50:37Z</time>
      </trkpt>
      <trkpt lat="45.80176000" lon="6.103410000">
        <ele>1539.0000</ele>
        <time>2010-06-23T00:51:05Z</time>
      </trkpt>
      <trkpt lat="45.80125000" lon="6.104110000">
        <ele>1557.0000</ele>
        <time>2010-06-23T00:51:33Z</time>
      </trkpt>
      <trkpt lat="45.80110000" lon="6.104440000">
        <ele>1543.0000</ele>
        <time>2010-06-23T00:51:44Z</time>
      </trkpt>
      <trkpt lat="45.80107000" lon="6.104660000">
        <ele>1558.0000</ele>
        <time>2010-06-23T00:51:50Z</time>
      </trkpt>
      <trkpt lat="45.80103000" lon="6.105560000">
        <ele>1571.0000</ele>
        <time>2010-06-23T00:52:16Z</time>
      </trkpt>
      <trkpt lat="45.80105000" lon="6.105910000">
        <ele>1571.0000</ele>
        <time>2010-06-23T00:52:25Z</time>
      </trkpt>
      <trkpt lat="45.80110000" lon="6.106030000">
        <ele>1571.0000</ele>
        <time>2010-06-23T00:52:29Z</time>
      </trkpt>
      <trkpt lat="45.80168000" lon="6.106720000">
        <ele>1598.0000</ele>
        <time>2010-06-23T00:52:59Z</time>
      </trkpt>
      <trkpt lat="45.80190000" lon="6.107240000">
        <ele>1604.0000</ele>
        <time>2010-06-23T00:53:16Z</time>
      </trkpt>
      <trkpt lat="45.80218000" lon="6.108080000">
        <ele>1606.0000</ele>
        <time>2010-06-23T00:53:42Z</time>
      </trkpt>
      <trkpt lat="45.80222000" lon="6.108440000">
        <ele>1606.0000</ele>
        <time>2010-06-23T00:53:53Z</time>
      </trkpt>
      <trkpt lat="45.80219000" lon="6.108900000">
        <ele>1609.0000</ele>
        <time>2010-06-23T00:54:05Z</time>
      </trkpt>
      <trkpt lat="45.80249000" lon="6.110180000">
        <ele>1613.0000</ele>
        <time>2010-06-23T00:54:43Z</time>
      </trkpt>
      <trkpt lat="45.80247000" lon="6.110270000">
        <ele>1613.0000</ele>
        <time>2010-06-23T00:54:46Z</time>
      </trkpt>
      <trkpt lat="45.80233000" lon="6.110310000">
        <ele>1613.0000</ele>
        <time>2010-06-23T00:54:51Z</time>
      </trkpt>
      <trkpt lat="45.80139000" lon="6.109960000">
        <ele>1622.0000</ele>
        <time>2010-06-23T00:55:30Z</time>
      </trkpt>
      <trkpt lat="45.80119000" lon="6.109770000">
        <ele>1632.0000</ele>
        <time>2010-06-23T00:55:40Z</time>
      </trkpt>
      <trkpt lat="45.80090000" lon="6.109320000">
        <ele>1637.0000</ele>
        <time>2010-06-23T00:55:57Z</time>
      </trkpt>
      <trkpt lat="45.80009000" lon="6.108870000">
        <ele>1640.0000</ele>
        <time>2010-06-23T00:56:32Z</time>
      </trkpt>
      <trkpt lat="45.79980000" lon="6.108660000">
        <ele>1638.0000</ele>
        <time>2010-06-23T00:56:45Z</time>
      </trkpt>
      <trkpt lat="45.79970000" lon="6.108530000">
        <ele>1638.0000</ele>
        <time>2010-06-23T00:56:50Z</time>
      </trkpt>
      <trkpt lat="45.79966000" lon="6.108400000">
        <ele>1638.0000</ele>
        <time>2010-06-23T00:56:54Z</time>
      </trkpt>
      <trkpt lat="45.79964000" lon="6.108020000">
        <ele>1638.0000</ele>
        <time>2010-06-23T00:57:05Z</time>
      </trkpt>
      <trkpt lat="45.79938000" lon="6.107400000">
        <ele>1645.0000</ele>
        <time>2010-06-23T00:57:25Z</time>
      </trkpt>
      <trkpt lat="45.79901000" lon="6.107040000">
        <ele>1618.0000</ele>
        <time>2010-06-23T00:57:43Z</time>
      </trkpt>
      <trkpt lat="45.79873000" lon="6.106920000">
        <ele>1661.0000</ele>
        <time>2010-06-23T00:57:55Z</time>
      </trkpt>
      <trkpt lat="45.79859000" lon="6.106950000">
        <ele>1661.0000</ele>
        <time>2010-06-23T00:58:00Z</time>
      </trkpt>
      <trkpt lat="45.79815000" lon="6.107200000">
        <ele>1664.0000</ele>
        <time>2010-06-23T00:58:19Z</time>
      </trkpt>
      <trkpt lat="45.79799000" lon="6.107200000">
        <ele>1664.0000</ele>
        <time>2010-06-23T00:58:26Z</time>
      </trkpt>
      <trkpt lat="45.79785000" lon="6.107150000">
        <ele>1667.0000</ele>
        <time>2010-06-23T00:58:31Z</time>
      </trkpt>
      <trkpt lat="45.79754000" lon="6.106840000">
        <ele>1681.0000</ele>
        <time>2010-06-23T00:58:47Z</time>
      </trkpt>
      <trkpt lat="45.79683000" lon="6.106350000">
        <ele>1663.0000</ele>
        <time>2010-06-23T00:59:18Z</time>
      </trkpt>
      <trkpt lat="45.79671000" lon="6.106210000">
        <ele>1682.0000</ele>
        <time>2010-06-23T00:59:24Z</time>
      </trkpt>
      <trkpt lat="45.79654000" lon="6.105860000">
        <ele>1682.0000</ele>
        <time>2010-06-23T00:59:36Z</time>
      </trkpt>
      <trkpt lat="45.79577000" lon="6.103400000">
        <ele>1671.0000</ele>
        <time>2010-06-23T01:00:51Z</time>
      </trkpt>
      <trkpt lat="45.79552000" lon="6.103140000">
        <ele>1671.0000</ele>
        <time>2010-06-23T01:01:04Z</time>
      </trkpt>
      <trkpt lat="45.79469000" lon="6.102740000">
        <ele>1660.0000</ele>
        <time>2010-06-23T01:01:39Z</time>
      </trkpt>
      <trkpt lat="45.79448000" lon="6.102500000">
        <ele>1651.0000</ele>
        <time>2010-06-23T01:01:50Z</time>
      </trkpt>
      <trkpt lat="45.79409000" lon="6.102180000">
        <ele>1651.0000</ele>
        <time>2010-06-23T01:02:08Z</time>
      </trkpt>
      <trkpt lat="45.79326000" lon="6.102110000">
        <ele>1641.0000</ele>
        <time>2010-06-23T01:02:41Z</time>
      </trkpt>
      <trkpt lat="45.79275000" lon="6.101910000">
        <ele>1639.0000</ele>
        <time>2010-06-23T01:03:02Z</time>
      </trkpt>
      <trkpt lat="45.79258000" lon="6.101930000">
        <ele>1639.0000</ele>
        <time>2010-06-23T01:03:09Z</time>
      </trkpt>
      <trkpt lat="45.79255000" lon="6.101960000">
        <ele>1639.0000</ele>
        <time>2010-06-23T01:03:10Z</time>
      </trkpt>
      <trkpt lat="45.79255000" lon="6.102100000">
        <ele>1637.0000</ele>
        <time>2010-06-23T01:03:14Z</time>
      </trkpt>
      <trkpt lat="45.79280000" lon="6.102540000">
        <ele>1637.0000</ele>
        <time>2010-06-23T01:03:30Z</time>
      </trkpt>
      <trkpt lat="45.79352000" lon="6.103240000">
        <ele>1634.0000</ele>
        <time>2010-06-23T01:04:05Z</time>
      </trkpt>
      <trkpt lat="45.79376000" lon="6.103660000">
        <ele>1647.0000</ele>
        <time>2010-06-23T01:04:20Z</time>
      </trkpt>
      <trkpt lat="45.79411000" lon="6.103910000">
        <ele>1635.0000</ele>
        <time>2010-06-23T01:04:36Z</time>
      </trkpt>
      <trkpt lat="45.79437000" lon="6.104310000">
        <ele>1635.0000</ele>
        <time>2010-06-23T01:04:51Z</time>
      </trkpt>
      <trkpt lat="45.79464000" lon="6.104860000">
        <ele>1640.0000</ele>
        <time>2010-06-23T01:05:10Z</time>
      </trkpt>
      <trkpt lat="45.79492000" lon="6.105870000">
        <ele>1620.0000</ele>
        <time>2010-06-23T01:05:40Z</time>
      </trkpt>
      <trkpt lat="45.79517000" lon="6.106480000">
        <ele>1604.0000</ele>
        <time>2010-06-23T01:06:00Z</time>
      </trkpt>
      <trkpt lat="45.79526000" lon="6.106860000">
        <ele>1604.0000</ele>
        <time>2010-06-23T01:06:11Z</time>
      </trkpt>
      <trkpt lat="45.79519000" lon="6.107220000">
        <ele>1595.0000</ele>
        <time>2010-06-23T01:06:21Z</time>
      </trkpt>
      <trkpt lat="45.79504000" lon="6.107450000">
        <ele>1595.0000</ele>
        <time>2010-06-23T01:06:30Z</time>
      </trkpt>
      <trkpt lat="45.79381000" lon="6.108120000">
        <ele>1582.0000</ele>
        <time>2010-06-23T01:07:23Z</time>
      </trkpt>
      <trkpt lat="45.79355000" lon="6.108450000">
        <ele>1582.0000</ele>
        <time>2010-06-23T01:07:37Z</time>
      </trkpt>
      <trkpt lat="45.79338000" lon="6.108790000">
        <ele>1573.0000</ele>
        <time>2010-06-23T01:07:48Z</time>
      </trkpt>
      <trkpt lat="45.79315000" lon="6.109400000">
        <ele>1573.0000</ele>
        <time>2010-06-23T01:08:08Z</time>
      </trkpt>
      <trkpt lat="45.79309000" lon="6.109710000">
        <ele>1563.0000</ele>
        <time>2010-06-23T01:08:17Z</time>
      </trkpt>
      <trkpt lat="45.79308000" lon="6.110530000">
        <ele>1552.0000</ele>
        <time>2010-06-23T01:08:40Z</time>
      </trkpt>
      <trkpt lat="45.79314000" lon="6.111160000">
        <ele>1552.0000</ele>
        <time>2010-06-23T01:08:57Z</time>
      </trkpt>
      <trkpt lat="45.79303000" lon="6.111480000">
        <ele>1540.0000</ele>
        <time>2010-06-23T01:09:07Z</time>
      </trkpt>
      <trkpt lat="45.79294000" lon="6.111590000">
        <ele>1540.0000</ele>
        <time>2010-06-23T01:09:12Z</time>
      </trkpt>
      <trkpt lat="45.79272000" lon="6.111640000">
        <ele>1537.0000</ele>
        <time>2010-06-23T01:09:21Z</time>
      </trkpt>
      <trkpt lat="45.79173000" lon="6.111180000">
        <ele>1549.0000</ele>
        <time>2010-06-23T01:10:03Z</time>
      </trkpt>
      <trkpt lat="45.79061000" lon="6.111050000">
        <ele>1546.0000</ele>
        <time>2010-06-23T01:10:48Z</time>
      </trkpt>
      <trkpt lat="45.78995000" lon="6.110890000">
        <ele>1543.0000</ele>
        <time>2010-06-23T01:11:14Z</time>
      </trkpt>
      <trkpt lat="45.78974000" lon="6.110760000">
        <ele>1543.0000</ele>
        <time>2010-06-23T01:11:24Z</time>
      </trkpt>
      <trkpt lat="45.78927000" lon="6.110260000">
        <ele>1548.0000</ele>
        <time>2010-06-23T01:11:47Z</time>
      </trkpt>
      <trkpt lat="45.78920000" lon="6.110240000">
        <ele>1548.0000</ele>
        <time>2010-06-23T01:11:50Z</time>
      </trkpt>
      <trkpt lat="45.78871000" lon="6.110630000">
        <ele>1529.0000</ele>
        <time>2010-06-23T01:12:12Z</time>
      </trkpt>
      <trkpt lat="45.78809000" lon="6.110800000">
        <ele>1529.0000</ele>
        <time>2010-06-23T01:12:38Z</time>
      </trkpt>
      <trkpt lat="45.78780000" lon="6.110810000">
        <ele>1526.0000</ele>
        <time>2010-06-23T01:12:49Z</time>
      </trkpt>
      <trkpt lat="45.78759000" lon="6.110560000">
        <ele>1526.0000</ele>
        <time>2010-06-23T01:13:00Z</time>
      </trkpt>
      <trkpt lat="45.78750000" lon="6.110540000">
        <ele>1526.0000</ele>
        <time>2010-06-23T01:13:04Z</time>
      </trkpt>
      <trkpt lat="45.78716000" lon="6.110630000">
        <ele>1526.0000</ele>
        <time>2010-06-23T01:13:18Z</time>
      </trkpt>
      <trkpt lat="45.78679000" lon="6.110590000">
        <ele>1526.0000</ele>
        <time>2010-06-23T01:13:33Z</time>
      </trkpt>
      <trkpt lat="45.78645000" lon="6.110770000">
        <ele>1526.0000</ele>
        <time>2010-06-23T01:13:47Z</time>
      </trkpt>
      <trkpt lat="45.78597000" lon="6.110840000">
        <ele>1515.0000</ele>
        <time>2010-06-23T01:14:06Z</time>
      </trkpt>
      <trkpt lat="45.78556000" lon="6.111160000">
        <ele>1515.0000</ele>
        <time>2010-06-23T01:14:25Z</time>
      </trkpt>
      <trkpt lat="45.78546000" lon="6.111290000">
        <ele>1501.0000</ele>
        <time>2010-06-23T01:14:30Z</time>
      </trkpt>
      <trkpt lat="45.78552000" lon="6.111440000">
        <ele>1501.0000</ele>
        <time>2010-06-23T01:14:35Z</time>
      </trkpt>
      <trkpt lat="45.78592000" lon="6.111940000">
        <ele>1501.0000</ele>
        <time>2010-06-23T01:14:56Z</time>
      </trkpt>
      <trkpt lat="45.78600000" lon="6.112090000">
        <ele>1491.0000</ele>
        <time>2010-06-23T01:15:02Z</time>
      </trkpt>
      <trkpt lat="45.78603000" lon="6.112250000">
        <ele>1491.0000</ele>
        <time>2010-06-23T01:15:06Z</time>
      </trkpt>
      <trkpt lat="45.78602000" lon="6.112390000">
        <ele>1491.0000</ele>
        <time>2010-06-23T01:15:10Z</time>
      </trkpt>
      <trkpt lat="45.78580000" lon="6.112990000">
        <ele>1481.0000</ele>
        <time>2010-06-23T01:15:29Z</time>
      </trkpt>
      <trkpt lat="45.78582000" lon="6.113340000">
        <ele>1481.0000</ele>
        <time>2010-06-23T01:15:39Z</time>
      </trkpt>
      <trkpt lat="45.78590000" lon="6.113540000">
        <ele>1481.0000</ele>
        <time>2010-06-23T01:15:45Z</time>
      </trkpt>
      <trkpt lat="45.78593000" lon="6.113770000">
        <ele>1463.0000</ele>
        <time>2010-06-23T01:15:52Z</time>
      </trkpt>
      <trkpt lat="45.78585000" lon="6.114210000">
        <ele>1463.0000</ele>
        <time>2010-06-23T01:16:05Z</time>
      </trkpt>
      <trkpt lat="45.78587000" lon="6.114580000">
        <ele>1463.0000</ele>
        <time>2010-06-23T01:16:15Z</time>
      </trkpt>
      <trkpt lat="45.78579000" lon="6.114800000">
        <ele>1447.0000</ele>
        <time>2010-06-23T01:16:22Z</time>
      </trkpt>
      <trkpt lat="45.78549000" lon="6.114790000">
        <ele>1447.0000</ele>
        <time>2010-06-23T01:16:34Z</time>
      </trkpt>
      <trkpt lat="45.78519000" lon="6.114700000">
        <ele>1443.0000</ele>
        <time>2010-06-23T01:16:46Z</time>
      </trkpt>
      <trkpt lat="45.78489000" lon="6.114710000">
        <ele>1443.0000</ele>
        <time>2010-06-23T01:16:58Z</time>
      </trkpt>
      <trkpt lat="45.78481000" lon="6.114660000">
        <ele>1443.0000</ele>
        <time>2010-06-23T01:17:02Z</time>
      </trkpt>
      <trkpt lat="45.78462000" lon="6.114400000">
        <ele>1458.0000</ele>
        <time>2010-06-23T01:17:12Z</time>
      </trkpt>
      <trkpt lat="45.78455000" lon="6.114380000">
        <ele>1451.0000</ele>
        <time>2010-06-23T01:17:15Z</time>
      </trkpt>
      <trkpt lat="45.78390000" lon="6.114440000">
        <ele>1451.0000</ele>
        <time>2010-06-23T01:17:41Z</time>
      </trkpt>
      <trkpt lat="45.78377000" lon="6.114380000">
        <ele>1451.0000</ele>
        <time>2010-06-23T01:17:47Z</time>
      </trkpt>
      <trkpt lat="45.78356000" lon="6.114100000">
        <ele>1438.0000</ele>
        <time>2010-06-23T01:17:58Z</time>
      </trkpt>
      <trkpt lat="45.78334000" lon="6.114030000">
        <ele>1438.0000</ele>
        <time>2010-06-23T01:18:07Z</time>
      </trkpt>
      <trkpt lat="45.78253000" lon="6.113970000">
        <ele>1423.0000</ele>
        <time>2010-06-23T01:18:40Z</time>
      </trkpt>
      <trkpt lat="45.78213000" lon="6.114180000">
        <ele>1423.0000</ele>
        <time>2010-06-23T01:18:57Z</time>
      </trkpt>
      <trkpt lat="45.78188000" lon="6.114190000">
        <ele>1413.0000</ele>
        <time>2010-06-23T01:19:07Z</time>
      </trkpt>
      <trkpt lat="45.78173000" lon="6.113980000">
        <ele>1413.0000</ele>
        <time>2010-06-23T01:19:15Z</time>
      </trkpt>
      <trkpt lat="45.78138000" lon="6.113030000">
        <ele>1424.0000</ele>
        <time>2010-06-23T01:19:45Z</time>
      </trkpt>
      <trkpt lat="45.78129000" lon="6.112890000">
        <ele>1436.0000</ele>
        <time>2010-06-23T01:19:50Z</time>
      </trkpt>
      <trkpt lat="45.78119000" lon="6.112840000">
        <ele>1428.0000</ele>
        <time>2010-06-23T01:19:55Z</time>
      </trkpt>
      <trkpt lat="45.78104000" lon="6.112920000">
        <ele>1423.0000</ele>
        <time>2010-06-23T01:20:01Z</time>
      </trkpt>
      <trkpt lat="45.78081000" lon="6.113650000">
        <ele>1423.0000</ele>
        <time>2010-06-23T01:20:23Z</time>
      </trkpt>
      <trkpt lat="45.78069000" lon="6.113780000">
        <ele>1413.0000</ele>
        <time>2010-06-23T01:20:29Z</time>
      </trkpt>
      <trkpt lat="45.77998000" lon="6.113500000">
        <ele>1415.0000</ele>
        <time>2010-06-23T01:20:59Z</time>
      </trkpt>
      <trkpt lat="45.77980000" lon="6.113340000">
        <ele>1415.0000</ele>
        <time>2010-06-23T01:21:07Z</time>
      </trkpt>
      <trkpt lat="45.77952000" lon="6.112090000">
        <ele>1406.0000</ele>
        <time>2010-06-23T01:21:44Z</time>
      </trkpt>
      <trkpt lat="45.77952000" lon="6.111700000">
        <ele>1405.0000</ele>
        <time>2010-06-23T01:21:55Z</time>
      </trkpt>
      <trkpt lat="45.77957000" lon="6.111470000">
        <ele>1405.0000</ele>
        <time>2010-06-23T01:22:02Z</time>
      </trkpt>
      <trkpt lat="45.77978000" lon="6.110940000">
        <ele>1418.0000</ele>
        <time>2010-06-23T01:22:19Z</time>
      </trkpt>
      <trkpt lat="45.77978000" lon="6.110710000">
        <ele>1418.0000</ele>
        <time>2010-06-23T01:22:25Z</time>
      </trkpt>
      <trkpt lat="45.77965000" lon="6.110650000">
        <ele>1418.0000</ele>
        <time>2010-06-23T01:22:31Z</time>
      </trkpt>
      <trkpt lat="45.77875000" lon="6.110550000">
        <ele>1413.0000</ele>
        <time>2010-06-23T01:23:07Z</time>
      </trkpt>
      <trkpt lat="45.77863000" lon="6.110590000">
        <ele>1413.0000</ele>
        <time>2010-06-23T01:23:12Z</time>
      </trkpt>
      <trkpt lat="45.77814000" lon="6.111040000">
        <ele>1413.0000</ele>
        <time>2010-06-23T01:23:35Z</time>
      </trkpt>
      <trkpt lat="45.77758000" lon="6.111420000">
        <ele>1400.0000</ele>
        <time>2010-06-23T01:24:00Z</time>
      </trkpt>
      <trkpt lat="45.77713000" lon="6.111860000">
        <ele>1400.0000</ele>
        <time>2010-06-23T01:24:22Z</time>
      </trkpt>
      <trkpt lat="45.77688000" lon="6.111930000">
        <ele>1397.0000</ele>
        <time>2010-06-23T01:24:32Z</time>
      </trkpt>
      <trkpt lat="45.77612000" lon="6.111650000">
        <ele>1386.0000</ele>
        <time>2010-06-23T01:25:03Z</time>
      </trkpt>
      <trkpt lat="45.77534000" lon="6.111490000">
        <ele>1370.0000</ele>
        <time>2010-06-23T01:25:35Z</time>
      </trkpt>
      <trkpt lat="45.77499000" lon="6.111190000">
        <ele>1389.0000</ele>
        <time>2010-06-23T01:25:51Z</time>
      </trkpt>
      <trkpt lat="45.77483000" lon="6.111160000">
        <ele>1389.0000</ele>
        <time>2010-06-23T01:25:57Z</time>
      </trkpt>
      <trkpt lat="45.77446000" lon="6.111240000">
        <ele>1381.0000</ele>
        <time>2010-06-23T01:26:12Z</time>
      </trkpt>
      <trkpt lat="45.77322000" lon="6.110980000">
        <ele>1377.0000</ele>
        <time>2010-06-23T01:27:03Z</time>
      </trkpt>
      <trkpt lat="45.77237000" lon="6.111010000">
        <ele>1370.0000</ele>
        <time>2010-06-23T01:27:37Z</time>
      </trkpt>
      <trkpt lat="45.77040000" lon="6.110620000">
        <ele>1339.0000</ele>
        <time>2010-06-23T01:28:56Z</time>
      </trkpt>
      <trkpt lat="45.77016000" lon="6.110520000">
        <ele>1339.0000</ele>
        <time>2010-06-23T01:29:06Z</time>
      </trkpt>
      <trkpt lat="45.76979000" lon="6.110240000">
        <ele>1361.0000</ele>
        <time>2010-06-23T01:29:23Z</time>
      </trkpt>
      <trkpt lat="45.76966000" lon="6.110050000">
        <ele>1361.0000</ele>
        <time>2010-06-23T01:29:30Z</time>
      </trkpt>
      <trkpt lat="45.76951000" lon="6.109920000">
        <ele>1346.0000</ele>
        <time>2010-06-23T01:29:37Z</time>
      </trkpt>
      <trkpt lat="45.76932000" lon="6.109830000">
        <ele>1346.0000</ele>
        <time>2010-06-23T01:29:45Z</time>
      </trkpt>
      <trkpt lat="45.76831000" lon="6.109610000">
        <ele>1328.0000</ele>
        <time>2010-06-23T01:30:26Z</time>
      </trkpt>
      <trkpt lat="45.76801000" lon="6.109510000">
        <ele>1343.0000</ele>
        <time>2010-06-23T01:30:39Z</time>
      </trkpt>
      <trkpt lat="45.76780000" lon="6.109380000">
        <ele>1328.0000</ele>
        <time>2010-06-23T01:30:48Z</time>
      </trkpt>
      <trkpt lat="45.76769000" lon="6.109170000">
        <ele>1328.0000</ele>
        <time>2010-06-23T01:30:55Z</time>
      </trkpt>
      <trkpt lat="45.76769000" lon="6.108740000">
        <ele>1341.0000</ele>
        <time>2010-06-23T01:31:07Z</time>
      </trkpt>
      <trkpt lat="45.76766000" lon="6.108550000">
        <ele>1341.0000</ele>
        <time>2010-06-23T01:31:13Z</time>
      </trkpt>
      <trkpt lat="45.76760000" lon="6.108430000">
        <ele>1341.0000</ele>
        <time>2010-06-23T01:31:17Z</time>
      </trkpt>
      <trkpt lat="45.76733000" lon="6.108010000">
        <ele>1341.0000</ele>
        <time>2010-06-23T01:31:33Z</time>
      </trkpt>
      <trkpt lat="45.76719000" lon="6.107870000">
        <ele>1352.0000</ele>
        <time>2010-06-23T01:31:40Z</time>
      </trkpt>
      <trkpt lat="45.76684000" lon="6.107820000">
        <ele>1339.0000</ele>
        <time>2010-06-23T01:31:54Z</time>
      </trkpt>
      <trkpt lat="45.76678000" lon="6.107690000">
        <ele>1339.0000</ele>
        <time>2010-06-23T01:31:58Z</time>
      </trkpt>
      <trkpt lat="45.76669000" lon="6.107240000">
        <ele>1339.0000</ele>
        <time>2010-06-23T01:32:11Z</time>
      </trkpt>
      <trkpt lat="45.76662000" lon="6.107120000">
        <ele>1339.0000</ele>
        <time>2010-06-23T01:32:15Z</time>
      </trkpt>
      <trkpt lat="45.76647000" lon="6.107050000">
        <ele>1348.0000</ele>
        <time>2010-06-23T01:32:22Z</time>
      </trkpt>
      <trkpt lat="45.76587000" lon="6.107030000">
        <ele>1332.0000</ele>
        <time>2010-06-23T01:32:46Z</time>
      </trkpt>
      <trkpt lat="45.76529000" lon="6.106720000">
        <ele>1320.0000</ele>
        <time>2010-06-23T01:33:11Z</time>
      </trkpt>
      <trkpt lat="45.76513000" lon="6.106690000">
        <ele>1320.0000</ele>
        <time>2010-06-23T01:33:17Z</time>
      </trkpt>
      <trkpt lat="45.76457000" lon="6.106810000">
        <ele>1309.0000</ele>
        <time>2010-06-23T01:33:40Z</time>
      </trkpt>
      <trkpt lat="45.76417000" lon="6.106770000">
        <ele>1309.0000</ele>
        <time>2010-06-23T01:33:56Z</time>
      </trkpt>
      <trkpt lat="45.76293000" lon="6.106360000">
        <ele>1291.0000</ele>
        <time>2010-06-23T01:34:47Z</time>
      </trkpt>
      <trkpt lat="45.76276000" lon="6.106180000">
        <ele>1299.0000</ele>
        <time>2010-06-23T01:34:55Z</time>
      </trkpt>
      <trkpt lat="45.76252000" lon="6.105410000">
        <ele>1316.0000</ele>
        <time>2010-06-23T01:35:19Z</time>
      </trkpt>
      <trkpt lat="45.76241000" lon="6.105270000">
        <ele>1316.0000</ele>
        <time>2010-06-23T01:35:25Z</time>
      </trkpt>
      <trkpt lat="45.76214000" lon="6.105070000">
        <ele>1316.0000</ele>
        <time>2010-06-23T01:35:37Z</time>
      </trkpt>
      <trkpt lat="45.76149000" lon="6.105050000">
        <ele>1307.0000</ele>
        <time>2010-06-23T01:36:03Z</time>
      </trkpt>
      <trkpt lat="45.76086000" lon="6.104110000">
        <ele>1303.0000</ele>
        <time>2010-06-23T01:36:39Z</time>
      </trkpt>
      <trkpt lat="45.76071000" lon="6.103930000">
        <ele>1303.0000</ele>
        <time>2010-06-23T01:36:47Z</time>
      </trkpt>
      <trkpt lat="45.76063000" lon="6.103900000">
        <ele>1303.0000</ele>
        <time>2010-06-23T01:36:50Z</time>
      </trkpt>
      <trkpt lat="45.76056000" lon="6.103910000">
        <ele>1303.0000</ele>
        <time>2010-06-23T01:36:53Z</time>
      </trkpt>
      <trkpt lat="45.76050000" lon="6.104030000">
        <ele>1303.0000</ele>
        <time>2010-06-23T01:36:57Z</time>
      </trkpt>
      <trkpt lat="45.76059000" lon="6.104350000">
        <ele>1303.0000</ele>
        <time>2010-06-23T01:37:07Z</time>
      </trkpt>
      <trkpt lat="45.76072000" lon="6.104580000">
        <ele>1303.0000</ele>
        <time>2010-06-23T01:37:15Z</time>
      </trkpt>
      <trkpt lat="45.76114000" lon="6.105130000">
        <ele>1291.0000</ele>
        <time>2010-06-23T01:37:38Z</time>
      </trkpt>
      <trkpt lat="45.76141000" lon="6.105740000">
        <ele>1288.0000</ele>
        <time>2010-06-23T01:37:58Z</time>
      </trkpt>
      <trkpt lat="45.76165000" lon="6.106120000">
        <ele>1288.0000</ele>
        <time>2010-06-23T01:38:12Z</time>
      </trkpt>
      <trkpt lat="45.76191000" lon="6.106710000">
        <ele>1269.0000</ele>
        <time>2010-06-23T01:38:32Z</time>
      </trkpt>
      <trkpt lat="45.76230000" lon="6.107290000">
        <ele>1260.0000</ele>
        <time>2010-06-23T01:38:54Z</time>
      </trkpt>
      <trkpt lat="45.76257000" lon="6.107920000">
        <ele>1243.0000</ele>
        <time>2010-06-23T01:39:15Z</time>
      </trkpt>
      <trkpt lat="45.76272000" lon="6.108170000">
        <ele>1243.0000</ele>
        <time>2010-06-23T01:39:24Z</time>
      </trkpt>
      <trkpt lat="45.76341000" lon="6.108230000">
        <ele>1253.0000</ele>
        <time>2010-06-23T01:39:52Z</time>
      </trkpt>
      <trkpt lat="45.76359000" lon="6.108300000">
        <ele>1253.0000</ele>
        <time>2010-06-23T01:39:59Z</time>
      </trkpt>
      <trkpt lat="45.76385000" lon="6.108490000">
        <ele>1262.0000</ele>
        <time>2010-06-23T01:40:11Z</time>
      </trkpt>
      <trkpt lat="45.76418000" lon="6.108890000">
        <ele>1244.0000</ele>
        <time>2010-06-23T01:40:28Z</time>
      </trkpt>
      <trkpt lat="45.76459000" lon="6.109560000">
        <ele>1258.0000</ele>
        <time>2010-06-23T01:40:53Z</time>
      </trkpt>
      <trkpt lat="45.76491000" lon="6.109860000">
        <ele>1240.0000</ele>
        <time>2010-06-23T01:41:09Z</time>
      </trkpt>
      <trkpt lat="45.76534000" lon="6.110560000">
        <ele>1222.0000</ele>
        <time>2010-06-23T01:41:35Z</time>
      </trkpt>
      <trkpt lat="45.76698000" lon="6.111840000">
        <ele>1230.0000</ele>
        <time>2010-06-23T01:42:49Z</time>
      </trkpt>
      <trkpt lat="45.76764000" lon="6.112460000">
        <ele>1221.0000</ele>
        <time>2010-06-23T01:43:21Z</time>
      </trkpt>
      <trkpt lat="45.76890000" lon="6.113460000">
        <ele>1229.0000</ele>
        <time>2010-06-23T01:44:19Z</time>
      </trkpt>
      <trkpt lat="45.76964000" lon="6.114190000">
        <ele>1216.0000</ele>
        <time>2010-06-23T01:44:55Z</time>
      </trkpt>
      <trkpt lat="45.77110000" lon="6.115050000">
        <ele>1198.0000</ele>
        <time>2010-06-23T01:45:58Z</time>
      </trkpt>
      <trkpt lat="45.77190000" lon="6.115330000">
        <ele>1221.0000</ele>
        <time>2010-06-23T01:46:31Z</time>
      </trkpt>
      <trkpt lat="45.77249000" lon="6.115870000">
        <ele>1209.0000</ele>
        <time>2010-06-23T01:46:59Z</time>
      </trkpt>
      <trkpt lat="45.77312000" lon="6.116190000">
        <ele>1221.0000</ele>
        <time>2010-06-23T01:47:25Z</time>
      </trkpt>
      <trkpt lat="45.77343000" lon="6.116450000">
        <ele>1188.0000</ele>
        <time>2010-06-23T01:47:40Z</time>
      </trkpt>
      <trkpt lat="45.77371000" lon="6.116580000">
        <ele>1188.0000</ele>
        <time>2010-06-23T01:47:52Z</time>
      </trkpt>
      <trkpt lat="45.77380000" lon="6.116670000">
        <ele>1195.0000</ele>
        <time>2010-06-23T01:47:56Z</time>
      </trkpt>
      <trkpt lat="45.77384000" lon="6.116790000">
        <ele>1195.0000</ele>
        <time>2010-06-23T01:48:00Z</time>
      </trkpt>
      <trkpt lat="45.77383000" lon="6.116900000">
        <ele>1195.0000</ele>
        <time>2010-06-23T01:48:03Z</time>
      </trkpt>
      <trkpt lat="45.77364000" lon="6.116950000">
        <ele>1188.0000</ele>
        <time>2010-06-23T01:48:11Z</time>
      </trkpt>
      <trkpt lat="45.77348000" lon="6.116880000">
        <ele>1188.0000</ele>
        <time>2010-06-23T01:48:17Z</time>
      </trkpt>
      <trkpt lat="45.77290000" lon="6.116430000">
        <ele>1169.0000</ele>
        <time>2010-06-23T01:48:44Z</time>
      </trkpt>
      <trkpt lat="45.77226000" lon="6.116320000">
        <ele>1169.0000</ele>
        <time>2010-06-23T01:49:09Z</time>
      </trkpt>
      <trkpt lat="45.77193000" lon="6.116180000">
        <ele>1181.0000</ele>
        <time>2010-06-23T01:49:23Z</time>
      </trkpt>
      <trkpt lat="45.77166000" lon="6.115980000">
        <ele>1181.0000</ele>
        <time>2010-06-23T01:49:35Z</time>
      </trkpt>
      <trkpt lat="45.77106000" lon="6.115750000">
        <ele>1157.0000</ele>
        <time>2010-06-23T01:50:00Z</time>
      </trkpt>
      <trkpt lat="45.76986000" lon="6.115470000">
        <ele>1133.0000</ele>
        <time>2010-06-23T01:50:49Z</time>
      </trkpt>
      <trkpt lat="45.76926000" lon="6.115270000">
        <ele>1149.0000</ele>
        <time>2010-06-23T01:51:14Z</time>
      </trkpt>
      <trkpt lat="45.76544000" lon="6.113570000">
        <ele>1150.0000</ele>
        <time>2010-06-23T01:53:54Z</time>
      </trkpt>
      <trkpt lat="45.76439000" lon="6.113260000">
        <ele>1122.0000</ele>
        <time>2010-06-23T01:54:37Z</time>
      </trkpt>
      <trkpt lat="45.76388000" lon="6.112970000">
        <ele>1122.0000</ele>
        <time>2010-06-23T01:54:59Z</time>
      </trkpt>
      <trkpt lat="45.76358000" lon="6.112900000">
        <ele>1133.0000</ele>
        <time>2010-06-23T01:55:11Z</time>
      </trkpt>
      <trkpt lat="45.76302000" lon="6.112930000">
        <ele>1109.0000</ele>
        <time>2010-06-23T01:55:33Z</time>
      </trkpt>
      <trkpt lat="45.76282000" lon="6.112890000">
        <ele>1119.0000</ele>
        <time>2010-06-23T01:55:41Z</time>
      </trkpt>
      <trkpt lat="45.76196000" lon="6.112530000">
        <ele>1102.0000</ele>
        <time>2010-06-23T01:56:17Z</time>
      </trkpt>
      <trkpt lat="45.76146000" lon="6.112450000">
        <ele>1102.0000</ele>
        <time>2010-06-23T01:56:37Z</time>
      </trkpt>
      <trkpt lat="45.76107000" lon="6.112250000">
        <ele>1081.0000</ele>
        <time>2010-06-23T01:56:54Z</time>
      </trkpt>
      <trkpt lat="45.76080000" lon="6.112190000">
        <ele>1081.0000</ele>
        <time>2010-06-23T01:57:05Z</time>
      </trkpt>
      <trkpt lat="45.76080000" lon="6.112290000">
        <ele>1081.0000</ele>
        <time>2010-06-23T01:57:08Z</time>
      </trkpt>
      <trkpt lat="45.76092000" lon="6.112390000">
        <ele>1081.0000</ele>
        <time>2010-06-23T01:57:13Z</time>
      </trkpt>
      <trkpt lat="45.76139000" lon="6.112800000">
        <ele>1102.0000</ele>
        <time>2010-06-23T01:57:35Z</time>
      </trkpt>
      <trkpt lat="45.76294000" lon="6.113690000">
        <ele>1109.0000</ele>
        <time>2010-06-23T01:58:42Z</time>
      </trkpt>
      <trkpt lat="45.76457000" lon="6.114950000">
        <ele>1061.0000</ele>
        <time>2010-06-23T01:59:56Z</time>
      </trkpt>
      <trkpt lat="45.76575000" lon="6.115590000">
        <ele>1057.0000</ele>
        <time>2010-06-23T02:00:47Z</time>
      </trkpt>
      <trkpt lat="45.76660000" lon="6.116270000">
        <ele>1037.0000</ele>
        <time>2010-06-23T02:01:26Z</time>
      </trkpt>
      <trkpt lat="45.76676000" lon="6.116370000">
        <ele>1037.0000</ele>
        <time>2010-06-23T02:01:33Z</time>
      </trkpt>
      <trkpt lat="45.76739000" lon="6.116480000">
        <ele>1050.0000</ele>
        <time>2010-06-23T02:01:58Z</time>
      </trkpt>
      <trkpt lat="45.76749000" lon="6.116550000">
        <ele>1050.0000</ele>
        <time>2010-06-23T02:02:02Z</time>
      </trkpt>
      <trkpt lat="45.76804000" lon="6.117270000">
        <ele>1040.0000</ele>
        <time>2010-06-23T02:02:32Z</time>
      </trkpt>
      <trkpt lat="45.76923000" lon="6.118370000">
        <ele>1033.0000</ele>
        <time>2010-06-23T02:03:29Z</time>
      </trkpt>
      <trkpt lat="45.76998000" lon="6.119390000">
        <ele>1026.0000</ele>
        <time>2010-06-23T02:04:10Z</time>
      </trkpt>
      <trkpt lat="45.77134000" lon="6.120720000">
        <ele>1016.0000</ele>
        <time>2010-06-23T02:05:16Z</time>
      </trkpt>
      <trkpt lat="45.77145000" lon="6.120980000">
        <ele>1016.0000</ele>
        <time>2010-06-23T02:05:25Z</time>
      </trkpt>
      <trkpt lat="45.77143000" lon="6.121100000">
        <ele>1016.0000</ele>
        <time>2010-06-23T02:05:28Z</time>
      </trkpt>
      <trkpt lat="45.77137000" lon="6.121140000">
        <ele>1016.0000</ele>
        <time>2010-06-23T02:05:31Z</time>
      </trkpt>
      <trkpt lat="45.77125000" lon="6.121090000">
        <ele>1016.0000</ele>
        <time>2010-06-23T02:05:36Z</time>
      </trkpt>
      <trkpt lat="45.77066000" lon="6.120650000">
        <ele>1000.0000</ele>
        <time>2010-06-23T02:06:02Z</time>
      </trkpt>
      <trkpt lat="45.76999000" lon="6.120270000">
        <ele>1005.0000</ele>
        <time>2010-06-23T02:06:31Z</time>
      </trkpt>
      <trkpt lat="45.76906000" lon="6.119520000">
        <ele>1006.0000</ele>
        <time>2010-06-23T02:07:14Z</time>
      </trkpt>
      <trkpt lat="45.76836000" lon="6.119080000">
        <ele>986.00000</ele>
        <time>2010-06-23T02:07:45Z</time>
      </trkpt>
      <trkpt lat="45.76666000" lon="6.118510000">
        <ele>977.00000</ele>
        <time>2010-06-23T02:08:54Z</time>
      </trkpt>
      <trkpt lat="45.76639000" lon="6.118340000">
        <ele>977.00000</ele>
        <time>2010-06-23T02:09:06Z</time>
      </trkpt>
      <trkpt lat="45.76624000" lon="6.118340000">
        <ele>958.00000</ele>
        <time>2010-06-23T02:09:12Z</time>
      </trkpt>
      <trkpt lat="45.76618000" lon="6.118390000">
        <ele>958.00000</ele>
        <time>2010-06-23T02:09:15Z</time>
      </trkpt>
      <trkpt lat="45.76614000" lon="6.118550000">
        <ele>958.00000</ele>
        <time>2010-06-23T02:09:20Z</time>
      </trkpt>
      <trkpt lat="45.76621000" lon="6.118720000">
        <ele>958.00000</ele>
        <time>2010-06-23T02:09:25Z</time>
      </trkpt>
      <trkpt lat="45.76685000" lon="6.119190000">
        <ele>946.00000</ele>
        <time>2010-06-23T02:09:54Z</time>
      </trkpt>
      <trkpt lat="45.76760000" lon="6.120310000">
        <ele>941.00000</ele>
        <time>2010-06-23T02:10:37Z</time>
      </trkpt>
      <trkpt lat="45.76779000" lon="6.121200000">
        <ele>923.00000</ele>
        <time>2010-06-23T02:11:03Z</time>
      </trkpt>
      <trkpt lat="45.76777000" lon="6.121380000">
        <ele>915.00000</ele>
        <time>2010-06-23T02:11:09Z</time>
      </trkpt>
      <trkpt lat="45.76756000" lon="6.121350000">
        <ele>915.00000</ele>
        <time>2010-06-23T02:11:17Z</time>
      </trkpt>
      <trkpt lat="45.76709000" lon="6.121090000">
        <ele>923.00000</ele>
        <time>2010-06-23T02:11:37Z</time>
      </trkpt>
      <trkpt lat="45.76700000" lon="6.121080000">
        <ele>905.00000</ele>
        <time>2010-06-23T02:11:41Z</time>
      </trkpt>
      <trkpt lat="45.76695000" lon="6.121180000">
        <ele>905.00000</ele>
        <time>2010-06-23T02:11:44Z</time>
      </trkpt>
      <trkpt lat="45.76701000" lon="6.121320000">
        <ele>901.00000</ele>
        <time>2010-06-23T02:11:49Z</time>
      </trkpt>
      <trkpt lat="45.76725000" lon="6.121550000">
        <ele>915.00000</ele>
        <time>2010-06-23T02:12:00Z</time>
      </trkpt>
      <trkpt lat="45.76728000" lon="6.121670000">
        <ele>915.00000</ele>
        <time>2010-06-23T02:12:04Z</time>
      </trkpt>
      <trkpt lat="45.76724000" lon="6.122260000">
        <ele>910.00000</ele>
        <time>2010-06-23T02:12:20Z</time>
      </trkpt>
      <trkpt lat="45.76725000" lon="6.123040000">
        <ele>904.00000</ele>
        <time>2010-06-23T02:12:42Z</time>
      </trkpt>
      <trkpt lat="45.76764000" lon="6.125520000">
        <ele>882.00000</ele>
        <time>2010-06-23T02:13:53Z</time>
      </trkpt>
      <trkpt lat="45.76773000" lon="6.125840000">
        <ele>882.00000</ele>
        <time>2010-06-23T02:14:03Z</time>
      </trkpt>
      <trkpt lat="45.76796000" lon="6.126270000">
        <ele>882.00000</ele>
        <time>2010-06-23T02:14:18Z</time>
      </trkpt>
      <trkpt lat="45.76827000" lon="6.126580000">
        <ele>882.00000</ele>
        <time>2010-06-23T02:14:33Z</time>
      </trkpt>
      <trkpt lat="45.76860000" lon="6.126760000">
        <ele>882.00000</ele>
        <time>2010-06-23T02:14:47Z</time>
      </trkpt>
      <trkpt lat="45.76897000" lon="6.127050000">
        <ele>889.00000</ele>
        <time>2010-06-23T02:15:04Z</time>
      </trkpt>
      <trkpt lat="45.76903000" lon="6.127160000">
        <ele>883.00000</ele>
        <time>2010-06-23T02:15:08Z</time>
      </trkpt>
      <trkpt lat="45.76903000" lon="6.127260000">
        <ele>883.00000</ele>
        <time>2010-06-23T02:15:11Z</time>
      </trkpt>
      <trkpt lat="45.76860000" lon="6.127360000">
        <ele>875.00000</ele>
        <time>2010-06-23T02:15:28Z</time>
      </trkpt>
      <trkpt lat="45.76826000" lon="6.127350000">
        <ele>875.00000</ele>
        <time>2010-06-23T02:15:42Z</time>
      </trkpt>
      <trkpt lat="45.76792000" lon="6.127270000">
        <ele>875.00000</ele>
        <time>2010-06-23T02:15:56Z</time>
      </trkpt>
      <trkpt lat="45.76690000" lon="6.126690000">
        <ele>864.00000</ele>
        <time>2010-06-23T02:16:40Z</time>
      </trkpt>
      <trkpt lat="45.76563000" lon="6.125820000">
        <ele>861.00000</ele>
        <time>2010-06-23T02:17:36Z</time>
      </trkpt>
      <trkpt lat="45.76493000" lon="6.125250000">
        <ele>856.00000</ele>
        <time>2010-06-23T02:18:08Z</time>
      </trkpt>
      <trkpt lat="45.76476000" lon="6.125050000">
        <ele>856.00000</ele>
        <time>2010-06-23T02:18:17Z</time>
      </trkpt>
      <trkpt lat="45.76438000" lon="6.124440000">
        <ele>849.00000</ele>
        <time>2010-06-23T02:18:40Z</time>
      </trkpt>
      <trkpt lat="45.76427000" lon="6.124170000">
        <ele>849.00000</ele>
        <time>2010-06-23T02:18:49Z</time>
      </trkpt>
      <trkpt lat="45.76419000" lon="6.123820000">
        <ele>849.00000</ele>
        <time>2010-06-23T02:18:59Z</time>
      </trkpt>
      <trkpt lat="45.76409000" lon="6.122730000">
        <ele>858.00000</ele>
        <time>2010-06-23T02:19:30Z</time>
      </trkpt>
      <trkpt lat="45.76379000" lon="6.122110000">
        <ele>858.00000</ele>
        <time>2010-06-23T02:19:51Z</time>
      </trkpt>
      <trkpt lat="45.76367000" lon="6.121960000">
        <ele>852.00000</ele>
        <time>2010-06-23T02:19:57Z</time>
      </trkpt>
      <trkpt lat="45.76248000" lon="6.121340000">
        <ele>838.00000</ele>
        <time>2010-06-23T02:20:48Z</time>
      </trkpt>
      <trkpt lat="45.76090000" lon="6.120430000">
        <ele>821.00000</ele>
        <time>2010-06-23T02:21:56Z</time>
      </trkpt>
      <trkpt lat="45.76060000" lon="6.120140000">
        <ele>831.00000</ele>
        <time>2010-06-23T02:22:10Z</time>
      </trkpt>
      <trkpt lat="45.76014000" lon="6.119440000">
        <ele>829.00000</ele>
        <time>2010-06-23T02:22:37Z</time>
      </trkpt>
      <trkpt lat="45.75961000" lon="6.118830000">
        <ele>829.00000</ele>
        <time>2010-06-23T02:23:04Z</time>
      </trkpt>
      <trkpt lat="45.75809000" lon="6.118070000">
        <ele>819.00000</ele>
        <time>2010-06-23T02:24:09Z</time>
      </trkpt>
      <trkpt lat="45.75543000" lon="6.117220000">
        <ele>806.00000</ele>
        <time>2010-06-23T02:25:58Z</time>
      </trkpt>
      <trkpt lat="45.75501000" lon="6.116810000">
        <ele>809.00000</ele>
        <time>2010-06-23T02:26:18Z</time>
      </trkpt>
      <trkpt lat="45.75476000" lon="6.116700000">
        <ele>809.00000</ele>
        <time>2010-06-23T02:26:29Z</time>
      </trkpt>
      <trkpt lat="45.75458000" lon="6.116520000">
        <ele>801.00000</ele>
        <time>2010-06-23T02:26:37Z</time>
      </trkpt>
      <trkpt lat="45.75358000" lon="6.116060000">
        <ele>808.00000</ele>
        <time>2010-06-23T02:27:20Z</time>
      </trkpt>
      <trkpt lat="45.75164000" lon="6.115010000">
        <ele>807.00000</ele>
        <time>2010-06-23T02:28:43Z</time>
      </trkpt>
      <trkpt lat="45.75048000" lon="6.114520000">
        <ele>812.00000</ele>
        <time>2010-06-23T02:29:31Z</time>
      </trkpt>
      <trkpt lat="45.74978000" lon="6.114280000">
        <ele>799.00000</ele>
        <time>2010-06-23T02:30:00Z</time>
      </trkpt>
      <trkpt lat="45.74912000" lon="6.114130000">
        <ele>790.00000</ele>
        <time>2010-06-23T02:30:27Z</time>
      </trkpt>
      <trkpt lat="45.74881000" lon="6.114140000">
        <ele>790.00000</ele>
        <time>2010-06-23T02:30:39Z</time>
      </trkpt>
      <trkpt lat="45.74789000" lon="6.114370000">
        <ele>784.00000</ele>
        <time>2010-06-23T02:31:16Z</time>
      </trkpt>
      <trkpt lat="45.74719000" lon="6.114360000">
        <ele>784.00000</ele>
        <time>2010-06-23T02:31:44Z</time>
      </trkpt>
      <trkpt lat="45.74634000" lon="6.114150000">
        <ele>782.00000</ele>
        <time>2010-06-23T02:32:19Z</time>
      </trkpt>
      <trkpt lat="45.74621000" lon="6.114200000">
        <ele>775.00000</ele>
        <time>2010-06-23T02:32:24Z</time>
      </trkpt>
      <trkpt lat="45.74600000" lon="6.114440000">
        <ele>775.00000</ele>
        <time>2010-06-23T02:32:35Z</time>
      </trkpt>
      <trkpt lat="45.74577000" lon="6.114460000">
        <ele>775.00000</ele>
        <time>2010-06-23T02:32:44Z</time>
      </trkpt>
      <trkpt lat="45.74313000" lon="6.114150000">
        <ele>759.00000</ele>
        <time>2010-06-23T02:34:30Z</time>
      </trkpt>
      <trkpt lat="45.74275000" lon="6.113950000">
        <ele>749.00000</ele>
        <time>2010-06-23T02:34:46Z</time>
      </trkpt>
      <trkpt lat="45.74111000" lon="6.112650000">
        <ele>746.00000</ele>
        <time>2010-06-23T02:36:01Z</time>
      </trkpt>
      <trkpt lat="45.74001000" lon="6.112780000">
        <ele>736.00000</ele>
        <time>2010-06-23T02:36:46Z</time>
      </trkpt>
      <trkpt lat="45.73913000" lon="6.112590000">
        <ele>724.00000</ele>
        <time>2010-06-23T02:37:21Z</time>
      </trkpt>
      <trkpt lat="45.73898000" lon="6.112510000">
        <ele>724.00000</ele>
        <time>2010-06-23T02:37:28Z</time>
      </trkpt>
      <trkpt lat="45.73878000" lon="6.112300000">
        <ele>724.00000</ele>
        <time>2010-06-23T02:37:38Z</time>
      </trkpt>
      <trkpt lat="45.73866000" lon="6.112040000">
        <ele>725.00000</ele>
        <time>2010-06-23T02:37:46Z</time>
      </trkpt>
      <trkpt lat="45.73844000" lon="6.110810000">
        <ele>733.00000</ele>
        <time>2010-06-23T02:38:22Z</time>
      </trkpt>
      <trkpt lat="45.73837000" lon="6.110700000">
        <ele>733.00000</ele>
        <time>2010-06-23T02:38:26Z</time>
      </trkpt>
      <trkpt lat="45.73830000" lon="6.110720000">
        <ele>733.00000</ele>
        <time>2010-06-23T02:38:29Z</time>
      </trkpt>
      <trkpt lat="45.73819000" lon="6.110920000">
        <ele>733.00000</ele>
        <time>2010-06-23T02:38:36Z</time>
      </trkpt>
      <trkpt lat="45.73796000" lon="6.111990000">
        <ele>725.00000</ele>
        <time>2010-06-23T02:39:07Z</time>
      </trkpt>
      <trkpt lat="45.73774000" lon="6.112590000">
        <ele>709.00000</ele>
        <time>2010-06-23T02:39:26Z</time>
      </trkpt>
      <trkpt lat="45.73749000" lon="6.112660000">
        <ele>709.00000</ele>
        <time>2010-06-23T02:39:36Z</time>
      </trkpt>
      <trkpt lat="45.73660000" lon="6.112670000">
        <ele>702.00000</ele>
        <time>2010-06-23T02:40:12Z</time>
      </trkpt>
      <trkpt lat="45.73606000" lon="6.112870000">
        <ele>698.00000</ele>
        <time>2010-06-23T02:40:34Z</time>
      </trkpt>
      <trkpt lat="45.73513000" lon="6.112500000">
        <ele>690.00000</ele>
        <time>2010-06-23T02:41:13Z</time>
      </trkpt>
      <trkpt lat="45.73497000" lon="6.112410000">
        <ele>690.00000</ele>
        <time>2010-06-23T02:41:20Z</time>
      </trkpt>
      <trkpt lat="45.73473000" lon="6.112160000">
        <ele>690.00000</ele>
        <time>2010-06-23T02:41:32Z</time>
      </trkpt>
      <trkpt lat="45.73437000" lon="6.111300000">
        <ele>687.00000</ele>
        <time>2010-06-23T02:42:00Z</time>
      </trkpt>
      <trkpt lat="45.73418000" lon="6.111030000">
        <ele>694.00000</ele>
        <time>2010-06-23T02:42:10Z</time>
      </trkpt>
      <trkpt lat="45.73372000" lon="6.110600000">
        <ele>679.00000</ele>
        <time>2010-06-23T02:42:32Z</time>
      </trkpt>
      <trkpt lat="45.73346000" lon="6.110420000">
        <ele>679.00000</ele>
        <time>2010-06-23T02:42:44Z</time>
      </trkpt>
      <trkpt lat="45.73094000" lon="6.109120000">
        <ele>650.00000</ele>
        <time>2010-06-23T02:44:31Z</time>
      </trkpt>
      <trkpt lat="45.73063000" lon="6.108850000">
        <ele>650.00000</ele>
        <time>2010-06-23T02:44:46Z</time>
      </trkpt>
      <trkpt lat="45.73039000" lon="6.108180000">
        <ele>644.00000</ele>
        <time>2010-06-23T02:45:07Z</time>
      </trkpt>
      <trkpt lat="45.73015000" lon="6.107670000">
        <ele>650.00000</ele>
        <time>2010-06-23T02:45:24Z</time>
      </trkpt>
      <trkpt lat="45.72827000" lon="6.105090000">
        <ele>653.00000</ele>
        <time>2010-06-23T02:47:08Z</time>
      </trkpt>
      <trkpt lat="45.72810000" lon="6.105050000">
        <ele>653.00000</ele>
        <time>2010-06-23T02:47:15Z</time>
      </trkpt>
      <trkpt lat="45.72773000" lon="6.105150000">
        <ele>645.00000</ele>
        <time>2010-06-23T02:47:30Z</time>
      </trkpt>
      <trkpt lat="45.72619000" lon="6.105660000">
        <ele>625.00000</ele>
        <time>2010-06-23T02:48:33Z</time>
      </trkpt>
      <trkpt lat="45.72281000" lon="6.104400000">
        <ele>603.00000</ele>
        <time>2010-06-23T02:50:53Z</time>
      </trkpt>
      <trkpt lat="45.72272000" lon="6.104320000">
        <ele>603.00000</ele>
        <time>2010-06-23T02:50:57Z</time>
      </trkpt>
      <trkpt lat="45.72238000" lon="6.103800000">
        <ele>603.00000</ele>
        <time>2010-06-23T02:51:17Z</time>
      </trkpt>
      <trkpt lat="45.72225000" lon="6.103480000">
        <ele>605.00000</ele>
        <time>2010-06-23T02:51:28Z</time>
      </trkpt>
      <trkpt lat="45.72224000" lon="6.103350000">
        <ele>605.00000</ele>
        <time>2010-06-23T02:51:31Z</time>
      </trkpt>
      <trkpt lat="45.72226000" lon="6.103150000">
        <ele>605.00000</ele>
        <time>2010-06-23T02:51:37Z</time>
      </trkpt>
      <trkpt lat="45.72240000" lon="6.102790000">
        <ele>598.00000</ele>
        <time>2010-06-23T02:51:49Z</time>
      </trkpt>
      <trkpt lat="45.72249000" lon="6.102660000">
        <ele>598.00000</ele>
        <time>2010-06-23T02:51:54Z</time>
      </trkpt>
      <trkpt lat="45.72280000" lon="6.102450000">
        <ele>598.00000</ele>
        <time>2010-06-23T02:52:07Z</time>
      </trkpt>
      <trkpt lat="45.72279000" lon="6.102310000">
        <ele>598.00000</ele>
        <time>2010-06-23T02:52:11Z</time>
      </trkpt>
      <trkpt lat="45.72268000" lon="6.102180000">
        <ele>598.00000</ele>
        <time>2010-06-23T02:52:17Z</time>
      </trkpt>
      <trkpt lat="45.72248000" lon="6.102030000">
        <ele>591.00000</ele>
        <time>2010-06-23T02:52:26Z</time>
      </trkpt>
      <trkpt lat="45.72241000" lon="6.102450000">
        <ele>598.00000</ele>
        <time>2010-06-23T02:52:38Z</time>
      </trkpt>
      <trkpt lat="45.72192000" lon="6.102980000">
        <ele>591.00000</ele>
        <time>2010-06-23T02:53:03Z</time>
      </trkpt>
      <trkpt lat="45.72182000" lon="6.103110000">
        <ele>591.00000</ele>
        <time>2010-06-23T02:53:08Z</time>
      </trkpt>
      <trkpt lat="45.72179000" lon="6.103230000">
        <ele>591.00000</ele>
        <time>2010-06-23T02:53:12Z</time>
      </trkpt>
      <trkpt lat="45.72182000" lon="6.103670000">
        <ele>591.00000</ele>
        <time>2010-06-23T02:53:24Z</time>
      </trkpt>
      <trkpt lat="45.72237000" lon="6.104420000">
        <ele>603.00000</ele>
        <time>2010-06-23T02:53:54Z</time>
      </trkpt>
      <trkpt lat="45.72235000" lon="6.104600000">
        <ele>601.00000</ele>
        <time>2010-06-23T02:54:00Z</time>
      </trkpt>
      <trkpt lat="45.72219000" lon="6.104620000">
        <ele>601.00000</ele>
        <time>2010-06-23T02:54:06Z</time>
      </trkpt>
      <trkpt lat="45.72209000" lon="6.104580000">
        <ele>603.00000</ele>
        <time>2010-06-23T02:54:10Z</time>
      </trkpt>
      <trkpt lat="45.72197000" lon="6.104450000">
        <ele>596.00000</ele>
        <time>2010-06-23T02:54:16Z</time>
      </trkpt>
      <trkpt lat="45.72143000" lon="6.103560000">
        <ele>591.00000</ele>
        <time>2010-06-23T02:54:49Z</time>
      </trkpt>
      <trkpt lat="45.72120000" lon="6.103280000">
        <ele>584.00000</ele>
        <time>2010-06-23T02:55:01Z</time>
      </trkpt>
      <trkpt lat="45.72114000" lon="6.103280000">
        <ele>584.00000</ele>
        <time>2010-06-23T02:55:04Z</time>
      </trkpt>
      <trkpt lat="45.72109000" lon="6.103440000">
        <ele>584.00000</ele>
        <time>2010-06-23T02:55:08Z</time>
      </trkpt>
      <trkpt lat="45.72112000" lon="6.103570000">
        <ele>584.00000</ele>
        <time>2010-06-23T02:55:12Z</time>
      </trkpt>
      <trkpt lat="45.72138000" lon="6.104010000">
        <ele>596.00000</ele>
        <time>2010-06-23T02:55:28Z</time>
      </trkpt>
      <trkpt lat="45.72148000" lon="6.104340000">
        <ele>596.00000</ele>
        <time>2010-06-23T02:55:38Z</time>
      </trkpt>
      <trkpt lat="45.72138000" lon="6.104750000">
        <ele>594.00000</ele>
        <time>2010-06-23T02:55:51Z</time>
      </trkpt>
      <trkpt lat="45.71851000" lon="6.106660000">
        <ele>591.00000</ele>
        <time>2010-06-23T02:57:57Z</time>
      </trkpt>
      <trkpt lat="45.71727000" lon="6.107010000">
        <ele>590.00000</ele>
        <time>2010-06-23T02:58:48Z</time>
      </trkpt>
      <trkpt lat="45.71665000" lon="6.107140000">
        <ele>593.00000</ele>
        <time>2010-06-23T02:59:13Z</time>
      </trkpt>
      <trkpt lat="45.71606000" lon="6.107180000">
        <ele>594.00000</ele>
        <time>2010-06-23T02:59:37Z</time>
      </trkpt>
      <trkpt lat="45.71588000" lon="6.107080000">
        <ele>591.00000</ele>
        <time>2010-06-23T02:59:44Z</time>
      </trkpt>
      <trkpt lat="45.71547000" lon="6.106500000">
        <ele>591.00000</ele>
        <time>2010-06-23T03:00:07Z</time>
      </trkpt>
      <trkpt lat="45.71512000" lon="6.106210000">
        <ele>589.00000</ele>
        <time>2010-06-23T03:00:24Z</time>
      </trkpt>
      <trkpt lat="45.71443000" lon="6.106030000">
        <ele>588.00000</ele>
        <time>2010-06-23T03:00:52Z</time>
      </trkpt>
      <trkpt lat="45.71405000" lon="6.105990000">
        <ele>588.00000</ele>
        <time>2010-06-23T03:01:07Z</time>
      </trkpt>
      <trkpt lat="45.71362000" lon="6.106940000">
        <ele>588.00000</ele>
        <time>2010-06-23T03:01:39Z</time>
      </trkpt>
      <trkpt lat="45.71345000" lon="6.107070000">
        <ele>588.00000</ele>
        <time>2010-06-23T03:01:46Z</time>
      </trkpt>
      <trkpt lat="45.71327000" lon="6.107130000">
        <ele>590.00000</ele>
        <time>2010-06-23T03:01:54Z</time>
      </trkpt>
      <trkpt lat="45.71313000" lon="6.107240000">
        <ele>590.00000</ele>
        <time>2010-06-23T03:02:00Z</time>
      </trkpt>
      <trkpt lat="45.71305000" lon="6.107370000">
        <ele>590.00000</ele>
        <time>2010-06-23T03:02:05Z</time>
      </trkpt>
      <trkpt lat="45.71304000" lon="6.107680000">
        <ele>590.00000</ele>
        <time>2010-06-23T03:02:14Z</time>
      </trkpt>
      <trkpt lat="45.71371000" lon="6.108920000">
        <ele>592.00000</ele>
        <time>2010-06-23T03:02:57Z</time>
      </trkpt>
      <trkpt lat="45.71375000" lon="6.109650000">
        <ele>591.00000</ele>
        <time>2010-06-23T03:03:18Z</time>
      </trkpt>
      <trkpt lat="45.71383000" lon="6.109880000">
        <ele>596.00000</ele>
        <time>2010-06-23T03:03:25Z</time>
      </trkpt>
      <trkpt lat="45.71390000" lon="6.109950000">
        <ele>596.00000</ele>
        <time>2010-06-23T03:03:28Z</time>
      </trkpt>
      <trkpt lat="45.71403000" lon="6.109980000">
        <ele>596.00000</ele>
        <time>2010-06-23T03:03:34Z</time>
      </trkpt>
      <trkpt lat="45.71415000" lon="6.109940000">
        <ele>596.00000</ele>
        <time>2010-06-23T03:03:39Z</time>
      </trkpt>
      <trkpt lat="45.71427000" lon="6.109850000">
        <ele>596.00000</ele>
        <time>2010-06-23T03:03:44Z</time>
      </trkpt>
      <trkpt lat="45.71450000" lon="6.109510000">
        <ele>595.00000</ele>
        <time>2010-06-23T03:03:57Z</time>
      </trkpt>
      <trkpt lat="45.71467000" lon="6.109490000">
        <ele>598.00000</ele>
        <time>2010-06-23T03:04:04Z</time>
      </trkpt>
      <trkpt lat="45.71476000" lon="6.109520000">
        <ele>598.00000</ele>
        <time>2010-06-23T03:04:08Z</time>
      </trkpt>
      <trkpt lat="45.71491000" lon="6.109670000">
        <ele>600.00000</ele>
        <time>2010-06-23T03:04:15Z</time>
      </trkpt>
      <trkpt lat="45.71495000" lon="6.110000000">
        <ele>600.00000</ele>
        <time>2010-06-23T03:04:25Z</time>
      </trkpt>
      <trkpt lat="45.71493000" lon="6.110160000">
        <ele>600.00000</ele>
        <time>2010-06-23T03:04:29Z</time>
      </trkpt>
      <trkpt lat="45.71423000" lon="6.111520000">
        <ele>605.00000</ele>
        <time>2010-06-23T03:05:16Z</time>
      </trkpt>
      <trkpt lat="45.71390000" lon="6.111950000">
        <ele>605.00000</ele>
        <time>2010-06-23T03:05:34Z</time>
      </trkpt>
      <trkpt lat="45.71338000" lon="6.112340000">
        <ele>599.00000</ele>
        <time>2010-06-23T03:05:58Z</time>
      </trkpt>
      <trkpt lat="45.71282000" lon="6.113480000">
        <ele>600.00000</ele>
        <time>2010-06-23T03:06:37Z</time>
      </trkpt>
      <trkpt lat="45.71270000" lon="6.113650000">
        <ele>600.00000</ele>
        <time>2010-06-23T03:06:43Z</time>
      </trkpt>
      <trkpt lat="45.71250000" lon="6.113800000">
        <ele>611.00000</ele>
        <time>2010-06-23T03:06:52Z</time>
      </trkpt>
      <trkpt lat="45.71136000" lon="6.114400000">
        <ele>613.00000</ele>
        <time>2010-06-23T03:07:41Z</time>
      </trkpt>
      <trkpt lat="45.71075000" lon="6.114520000">
        <ele>615.00000</ele>
        <time>2010-06-23T03:08:06Z</time>
      </trkpt>
      <trkpt lat="45.71028000" lon="6.114690000">
        <ele>627.00000</ele>
        <time>2010-06-23T03:08:25Z</time>
      </trkpt>
      <trkpt lat="45.71011000" lon="6.114780000">
        <ele>627.00000</ele>
        <time>2010-06-23T03:08:32Z</time>
      </trkpt>
      <trkpt lat="45.70909000" lon="6.115600000">
        <ele>635.00000</ele>
        <time>2010-06-23T03:09:19Z</time>
      </trkpt>
      <trkpt lat="45.70786000" lon="6.116100000">
        <ele>631.00000</ele>
        <time>2010-06-23T03:10:10Z</time>
      </trkpt>
      <trkpt lat="45.70750000" lon="6.116320000">
        <ele>645.00000</ele>
        <time>2010-06-23T03:10:26Z</time>
      </trkpt>
      <trkpt lat="45.70632000" lon="6.117650000">
        <ele>650.00000</ele>
        <time>2010-06-23T03:11:26Z</time>
      </trkpt>
      <trkpt lat="45.70520000" lon="6.118450000">
        <ele>655.00000</ele>
        <time>2010-06-23T03:12:16Z</time>
      </trkpt>
      <trkpt lat="45.70503000" lon="6.118750000">
        <ele>660.00000</ele>
        <time>2010-06-23T03:12:27Z</time>
      </trkpt>
      <trkpt lat="45.70486000" lon="6.119230000">
        <ele>660.00000</ele>
        <time>2010-06-23T03:12:42Z</time>
      </trkpt>
      <trkpt lat="45.70469000" lon="6.119480000">
        <ele>660.00000</ele>
        <time>2010-06-23T03:12:52Z</time>
      </trkpt>
      <trkpt lat="45.70427000" lon="6.119940000">
        <ele>664.00000</ele>
        <time>2010-06-23T03:13:13Z</time>
      </trkpt>
      <trkpt lat="45.70284000" lon="6.121140000">
        <ele>666.00000</ele>
        <time>2010-06-23T03:14:19Z</time>
      </trkpt>
      <trkpt lat="45.70239000" lon="6.121460000">
        <ele>669.00000</ele>
        <time>2010-06-23T03:14:39Z</time>
      </trkpt>
      <trkpt lat="45.70204000" lon="6.121810000">
        <ele>668.00000</ele>
        <time>2010-06-23T03:14:57Z</time>
      </trkpt>
      <trkpt lat="45.70170000" lon="6.122660000">
        <ele>672.00000</ele>
        <time>2010-06-23T03:15:24Z</time>
      </trkpt>
      <trkpt lat="45.70145000" lon="6.122840000">
        <ele>672.00000</ele>
        <time>2010-06-23T03:15:35Z</time>
      </trkpt>
      <trkpt lat="45.70109000" lon="6.122890000">
        <ele>669.00000</ele>
        <time>2010-06-23T03:15:50Z</time>
      </trkpt>
      <trkpt lat="45.70075000" lon="6.123070000">
        <ele>672.00000</ele>
        <time>2010-06-23T03:16:04Z</time>
      </trkpt>
      <trkpt lat="45.70058000" lon="6.123220000">
        <ele>672.00000</ele>
        <time>2010-06-23T03:16:12Z</time>
      </trkpt>
      <trkpt lat="45.70004000" lon="6.124040000">
        <ele>673.00000</ele>
        <time>2010-06-23T03:16:44Z</time>
      </trkpt>
      <trkpt lat="45.69995000" lon="6.124110000">
        <ele>673.00000</ele>
        <time>2010-06-23T03:16:48Z</time>
      </trkpt>
      <trkpt lat="45.69968000" lon="6.124100000">
        <ele>673.00000</ele>
        <time>2010-06-23T03:16:59Z</time>
      </trkpt>
      <trkpt lat="45.69945000" lon="6.123900000">
        <ele>681.00000</ele>
        <time>2010-06-23T03:17:09Z</time>
      </trkpt>
      <trkpt lat="45.69903000" lon="6.123720000">
        <ele>665.00000</ele>
        <time>2010-06-23T03:17:27Z</time>
      </trkpt>
      <trkpt lat="45.69874000" lon="6.123720000">
        <ele>671.00000</ele>
        <time>2010-06-23T03:17:38Z</time>
      </trkpt>
      <trkpt lat="45.69857000" lon="6.123760000">
        <ele>682.00000</ele>
        <time>2010-06-23T03:17:45Z</time>
      </trkpt>
      <trkpt lat="45.69759000" lon="6.124490000">
        <ele>681.00000</ele>
        <time>2010-06-23T03:18:30Z</time>
      </trkpt>
      <trkpt lat="45.69718000" lon="6.124500000">
        <ele>681.00000</ele>
        <time>2010-06-23T03:18:46Z</time>
      </trkpt>
      <trkpt lat="45.69664000" lon="6.124350000">
        <ele>687.00000</ele>
        <time>2010-06-23T03:19:08Z</time>
      </trkpt>
      <trkpt lat="45.69647000" lon="6.124360000">
        <ele>687.00000</ele>
        <time>2010-06-23T03:19:15Z</time>
      </trkpt>
      <trkpt lat="45.69614000" lon="6.124570000">
        <ele>688.00000</ele>
        <time>2010-06-23T03:19:29Z</time>
      </trkpt>
      <trkpt lat="45.69604000" lon="6.124680000">
        <ele>699.00000</ele>
        <time>2010-06-23T03:19:34Z</time>
      </trkpt>
      <trkpt lat="45.69586000" lon="6.125190000">
        <ele>699.00000</ele>
        <time>2010-06-23T03:19:50Z</time>
      </trkpt>
      <trkpt lat="45.69562000" lon="6.126420000">
        <ele>713.00000</ele>
        <time>2010-06-23T03:20:26Z</time>
      </trkpt>
      <trkpt lat="45.69555000" lon="6.126580000">
        <ele>713.00000</ele>
        <time>2010-06-23T03:20:31Z</time>
      </trkpt>
      <trkpt lat="45.69589000" lon="6.126780000">
        <ele>713.00000</ele>
        <time>2010-06-23T03:20:46Z</time>
      </trkpt>
      <trkpt lat="45.69665000" lon="6.127110000">
        <ele>719.00000</ele>
        <time>2010-06-23T03:21:18Z</time>
      </trkpt>
      <trkpt lat="45.69758000" lon="6.127120000">
        <ele>717.00000</ele>
        <time>2010-06-23T03:21:55Z</time>
      </trkpt>
      <trkpt lat="45.69757000" lon="6.127330000">
        <ele>717.00000</ele>
        <time>2010-06-23T03:22:01Z</time>
      </trkpt>
      <trkpt lat="45.69779000" lon="6.127340000">
        <ele>717.00000</ele>
        <time>2010-06-23T03:22:10Z</time>
      </trkpt>
      <trkpt lat="45.69757000" lon="6.127330000">
        <ele>717.00000</ele>
        <time>2010-06-23T03:22:19Z</time>
      </trkpt>
      <trkpt lat="45.69758000" lon="6.127120000">
        <ele>717.00000</ele>
        <time>2010-06-23T03:22:24Z</time>
      </trkpt>
      <trkpt lat="45.69866000" lon="6.127210000">
        <ele>717.00000</ele>
        <time>2010-06-23T03:23:08Z</time>
      </trkpt>
      <trkpt lat="45.69912000" lon="6.127400000">
        <ele>715.00000</ele>
        <time>2010-06-23T03:23:27Z</time>
      </trkpt>
      <trkpt lat="45.69963000" lon="6.127790000">
        <ele>707.00000</ele>
        <time>2010-06-23T03:23:50Z</time>
      </trkpt>
      <trkpt lat="45.69997000" lon="6.128260000">
        <ele>714.00000</ele>
        <time>2010-06-23T03:24:09Z</time>
      </trkpt>
      <trkpt lat="45.70020000" lon="6.128960000">
        <ele>718.00000</ele>
        <time>2010-06-23T03:24:31Z</time>
      </trkpt>
      <trkpt lat="45.70047000" lon="6.129510000">
        <ele>709.00000</ele>
        <time>2010-06-23T03:24:49Z</time>
      </trkpt>
      <trkpt lat="45.70069000" lon="6.129740000">
        <ele>716.00000</ele>
        <time>2010-06-23T03:25:00Z</time>
      </trkpt>
      <trkpt lat="45.70109000" lon="6.129840000">
        <ele>716.00000</ele>
        <time>2010-06-23T03:25:17Z</time>
      </trkpt>
      <trkpt lat="45.70135000" lon="6.129820000">
        <ele>727.00000</ele>
        <time>2010-06-23T03:25:27Z</time>
      </trkpt>
      <trkpt lat="45.70147000" lon="6.129760000">
        <ele>727.00000</ele>
        <time>2010-06-23T03:25:32Z</time>
      </trkpt>
      <trkpt lat="45.70184000" lon="6.129300000">
        <ele>715.00000</ele>
        <time>2010-06-23T03:25:52Z</time>
      </trkpt>
      <trkpt lat="45.70237000" lon="6.128900000">
        <ele>722.00000</ele>
        <time>2010-06-23T03:26:16Z</time>
      </trkpt>
      <trkpt lat="45.70256000" lon="6.128690000">
        <ele>712.00000</ele>
        <time>2010-06-23T03:26:25Z</time>
      </trkpt>
      <trkpt lat="45.70278000" lon="6.128630000">
        <ele>712.00000</ele>
        <time>2010-06-23T03:26:34Z</time>
      </trkpt>
      <trkpt lat="45.70354000" lon="6.128200000">
        <ele>719.00000</ele>
        <time>2010-06-23T03:27:07Z</time>
      </trkpt>
      <trkpt lat="45.70399000" lon="6.128140000">
        <ele>726.00000</ele>
        <time>2010-06-23T03:27:25Z</time>
      </trkpt>
      <trkpt lat="45.70450000" lon="6.127860000">
        <ele>716.00000</ele>
        <time>2010-06-23T03:27:47Z</time>
      </trkpt>
      <trkpt lat="45.70507000" lon="6.127850000">
        <ele>722.00000</ele>
        <time>2010-06-23T03:28:10Z</time>
      </trkpt>
      <trkpt lat="45.70577000" lon="6.127650000">
        <ele>727.00000</ele>
        <time>2010-06-23T03:28:38Z</time>
      </trkpt>
      <trkpt lat="45.70692000" lon="6.127560000">
        <ele>732.00000</ele>
        <time>2010-06-23T03:29:24Z</time>
      </trkpt>
      <trkpt lat="45.70737000" lon="6.127440000">
        <ele>738.00000</ele>
        <time>2010-06-23T03:29:43Z</time>
      </trkpt>
      <trkpt lat="45.70864000" lon="6.127260000">
        <ele>745.00000</ele>
        <time>2010-06-23T03:30:34Z</time>
      </trkpt>
      <trkpt lat="45.70880000" lon="6.127320000">
        <ele>742.00000</ele>
        <time>2010-06-23T03:30:40Z</time>
      </trkpt>
      <trkpt lat="45.70941000" lon="6.127740000">
        <ele>742.00000</ele>
        <time>2010-06-23T03:31:08Z</time>
      </trkpt>
      <trkpt lat="45.70981000" lon="6.127770000">
        <ele>745.00000</ele>
        <time>2010-06-23T03:31:24Z</time>
      </trkpt>
      <trkpt lat="45.71018000" lon="6.127750000">
        <ele>745.00000</ele>
        <time>2010-06-23T03:31:38Z</time>
      </trkpt>
      <trkpt lat="45.71117000" lon="6.127480000">
        <ele>750.00000</ele>
        <time>2010-06-23T03:32:19Z</time>
      </trkpt>
      <trkpt lat="45.71180000" lon="6.127370000">
        <ele>757.00000</ele>
        <time>2010-06-23T03:32:44Z</time>
      </trkpt>
      <trkpt lat="45.71236000" lon="6.127340000">
        <ele>762.00000</ele>
        <time>2010-06-23T03:33:07Z</time>
      </trkpt>
      <trkpt lat="45.71339000" lon="6.127390000">
        <ele>770.00000</ele>
        <time>2010-06-23T03:33:48Z</time>
      </trkpt>
      <trkpt lat="45.71424000" lon="6.127170000">
        <ele>780.00000</ele>
        <time>2010-06-23T03:34:22Z</time>
      </trkpt>
      <trkpt lat="45.71458000" lon="6.127140000">
        <ele>780.00000</ele>
        <time>2010-06-23T03:34:36Z</time>
      </trkpt>
      <trkpt lat="45.71486000" lon="6.127200000">
        <ele>785.00000</ele>
        <time>2010-06-23T03:34:47Z</time>
      </trkpt>
      <trkpt lat="45.71556000" lon="6.127890000">
        <ele>781.00000</ele>
        <time>2010-06-23T03:35:21Z</time>
      </trkpt>
      <trkpt lat="45.71602000" lon="6.128140000">
        <ele>791.00000</ele>
        <time>2010-06-23T03:35:41Z</time>
      </trkpt>
      <trkpt lat="45.71641000" lon="6.128160000">
        <ele>790.00000</ele>
        <time>2010-06-23T03:35:57Z</time>
      </trkpt>
      <trkpt lat="45.71721000" lon="6.127870000">
        <ele>784.00000</ele>
        <time>2010-06-23T03:36:30Z</time>
      </trkpt>
      <trkpt lat="45.71904000" lon="6.128050000">
        <ele>802.00000</ele>
        <time>2010-06-23T03:37:43Z</time>
      </trkpt>
      <trkpt lat="45.72032000" lon="6.128630000">
        <ele>801.00000</ele>
        <time>2010-06-23T03:38:37Z</time>
      </trkpt>
      <trkpt lat="45.72069000" lon="6.128750000">
        <ele>798.00000</ele>
        <time>2010-06-23T03:38:52Z</time>
      </trkpt>
      <trkpt lat="45.72099000" lon="6.129140000">
        <ele>809.00000</ele>
        <time>2010-06-23T03:39:08Z</time>
      </trkpt>
      <trkpt lat="45.72106000" lon="6.129620000">
        <ele>821.00000</ele>
        <time>2010-06-23T03:39:22Z</time>
      </trkpt>
      <trkpt lat="45.72131000" lon="6.130180000">
        <ele>818.00000</ele>
        <time>2010-06-23T03:39:41Z</time>
      </trkpt>
      <trkpt lat="45.72160000" lon="6.130430000">
        <ele>833.00000</ele>
        <time>2010-06-23T03:39:54Z</time>
      </trkpt>
      <trkpt lat="45.72204000" lon="6.130310000">
        <ele>818.00000</ele>
        <time>2010-06-23T03:40:12Z</time>
      </trkpt>
      <trkpt lat="45.72284000" lon="6.129740000">
        <ele>825.00000</ele>
        <time>2010-06-23T03:40:48Z</time>
      </trkpt>
      <trkpt lat="45.72325000" lon="6.129510000">
        <ele>831.00000</ele>
        <time>2010-06-23T03:41:05Z</time>
      </trkpt>
      <trkpt lat="45.72340000" lon="6.129490000">
        <ele>831.00000</ele>
        <time>2010-06-23T03:41:11Z</time>
      </trkpt>
      <trkpt lat="45.72463000" lon="6.129700000">
        <ele>848.00000</ele>
        <time>2010-06-23T03:42:01Z</time>
      </trkpt>
      <trkpt lat="45.72536000" lon="6.129720000">
        <ele>848.00000</ele>
        <time>2010-06-23T03:42:30Z</time>
      </trkpt>
      <trkpt lat="45.72575000" lon="6.129640000">
        <ele>846.00000</ele>
        <time>2010-06-23T03:42:46Z</time>
      </trkpt>
      <trkpt lat="45.72627000" lon="6.129270000">
        <ele>837.00000</ele>
        <time>2010-06-23T03:43:09Z</time>
      </trkpt>
      <trkpt lat="45.72665000" lon="6.129080000">
        <ele>837.00000</ele>
        <time>2010-06-23T03:43:25Z</time>
      </trkpt>
      <trkpt lat="45.72746000" lon="6.128820000">
        <ele>829.00000</ele>
        <time>2010-06-23T03:43:59Z</time>
      </trkpt>
      <trkpt lat="45.72804000" lon="6.129140000">
        <ele>820.00000</ele>
        <time>2010-06-23T03:44:24Z</time>
      </trkpt>
      <trkpt lat="45.72847000" lon="6.129590000">
        <ele>826.00000</ele>
        <time>2010-06-23T03:44:45Z</time>
      </trkpt>
      <trkpt lat="45.72889000" lon="6.130200000">
        <ele>816.00000</ele>
        <time>2010-06-23T03:45:09Z</time>
      </trkpt>
      <trkpt lat="45.72961000" lon="6.131430000">
        <ele>808.00000</ele>
        <time>2010-06-23T03:45:54Z</time>
      </trkpt>
      <trkpt lat="45.72978000" lon="6.131790000">
        <ele>808.00000</ele>
        <time>2010-06-23T03:46:06Z</time>
      </trkpt>
      <trkpt lat="45.73013000" lon="6.132860000">
        <ele>810.00000</ele>
        <time>2010-06-23T03:46:39Z</time>
      </trkpt>
      <trkpt lat="45.73017000" lon="6.133780000">
        <ele>810.00000</ele>
        <time>2010-06-23T03:47:05Z</time>
      </trkpt>
      <trkpt lat="45.73023000" lon="6.134060000">
        <ele>810.00000</ele>
        <time>2010-06-23T03:47:13Z</time>
      </trkpt>
      <trkpt lat="45.73030000" lon="6.134190000">
        <ele>810.00000</ele>
        <time>2010-06-23T03:47:17Z</time>
      </trkpt>
      <trkpt lat="45.73048000" lon="6.134330000">
        <ele>784.00000</ele>
        <time>2010-06-23T03:47:26Z</time>
      </trkpt>
      <trkpt lat="45.73114000" lon="6.134410000">
        <ele>784.00000</ele>
        <time>2010-06-23T03:47:52Z</time>
      </trkpt>
      <trkpt lat="45.73124000" lon="6.134480000">
        <ele>784.00000</ele>
        <time>2010-06-23T03:47:56Z</time>
      </trkpt>
      <trkpt lat="45.73138000" lon="6.134680000">
        <ele>762.00000</ele>
        <time>2010-06-23T03:48:04Z</time>
      </trkpt>
      <trkpt lat="45.73155000" lon="6.135120000">
        <ele>762.00000</ele>
        <time>2010-06-23T03:48:18Z</time>
      </trkpt>
      <trkpt lat="45.73165000" lon="6.135510000">
        <ele>768.00000</ele>
        <time>2010-06-23T03:48:30Z</time>
      </trkpt>
      <trkpt lat="45.73173000" lon="6.136070000">
        <ele>768.00000</ele>
        <time>2010-06-23T03:48:46Z</time>
      </trkpt>
      <trkpt lat="45.73187000" lon="6.136690000">
        <ele>774.00000</ele>
        <time>2010-06-23T03:49:04Z</time>
      </trkpt>
      <trkpt lat="45.73206000" lon="6.137210000">
        <ele>780.00000</ele>
        <time>2010-06-23T03:49:21Z</time>
      </trkpt>
      <trkpt lat="45.73211000" lon="6.137700000">
        <ele>759.00000</ele>
        <time>2010-06-23T03:49:34Z</time>
      </trkpt>
      <trkpt lat="45.73242000" lon="6.137970000">
        <ele>767.00000</ele>
        <time>2010-06-23T03:49:49Z</time>
      </trkpt>
      <trkpt lat="45.73263000" lon="6.138320000">
        <ele>767.00000</ele>
        <time>2010-06-23T03:50:02Z</time>
      </trkpt>
      <trkpt lat="45.73274000" lon="6.138310000">
        <ele>767.00000</ele>
        <time>2010-06-23T03:50:06Z</time>
      </trkpt>
      <trkpt lat="45.73276000" lon="6.138230000">
        <ele>767.00000</ele>
        <time>2010-06-23T03:50:09Z</time>
      </trkpt>
      <trkpt lat="45.73263000" lon="6.137740000">
        <ele>759.00000</ele>
        <time>2010-06-23T03:50:23Z</time>
      </trkpt>
      <trkpt lat="45.73265000" lon="6.137640000">
        <ele>759.00000</ele>
        <time>2010-06-23T03:50:26Z</time>
      </trkpt>
      <trkpt lat="45.73274000" lon="6.137610000">
        <ele>759.00000</ele>
        <time>2010-06-23T03:50:30Z</time>
      </trkpt>
      <trkpt lat="45.73289000" lon="6.137750000">
        <ele>759.00000</ele>
        <time>2010-06-23T03:50:37Z</time>
      </trkpt>
      <trkpt lat="45.73343000" lon="6.138590000">
        <ele>760.00000</ele>
        <time>2010-06-23T03:51:09Z</time>
      </trkpt>
      <trkpt lat="45.73355000" lon="6.138660000">
        <ele>760.00000</ele>
        <time>2010-06-23T03:51:14Z</time>
      </trkpt>
      <trkpt lat="45.73373000" lon="6.138560000">
        <ele>760.00000</ele>
        <time>2010-06-23T03:51:22Z</time>
      </trkpt>
      <trkpt lat="45.73415000" lon="6.138090000">
        <ele>765.00000</ele>
        <time>2010-06-23T03:51:43Z</time>
      </trkpt>
      <trkpt lat="45.73425000" lon="6.137020000">
        <ele>757.00000</ele>
        <time>2010-06-23T03:52:13Z</time>
      </trkpt>
      <trkpt lat="45.73430000" lon="6.136840000">
        <ele>757.00000</ele>
        <time>2010-06-23T03:52:19Z</time>
      </trkpt>
      <trkpt lat="45.73437000" lon="6.136800000">
        <ele>757.00000</ele>
        <time>2010-06-23T03:52:22Z</time>
      </trkpt>
      <trkpt lat="45.73445000" lon="6.136840000">
        <ele>757.00000</ele>
        <time>2010-06-23T03:52:25Z</time>
      </trkpt>
      <trkpt lat="45.73450000" lon="6.137000000">
        <ele>757.00000</ele>
        <time>2010-06-23T03:52:30Z</time>
      </trkpt>
      <trkpt lat="45.73453000" lon="6.137650000">
        <ele>762.00000</ele>
        <time>2010-06-23T03:52:48Z</time>
      </trkpt>
      <trkpt lat="45.73451000" lon="6.138230000">
        <ele>765.00000</ele>
        <time>2010-06-23T03:53:05Z</time>
      </trkpt>
      <trkpt lat="45.73458000" lon="6.138250000">
        <ele>765.00000</ele>
        <time>2010-06-23T03:53:07Z</time>
      </trkpt>
      <trkpt lat="45.73462000" lon="6.138200000">
        <ele>784.00000</ele>
        <time>2010-06-23T03:53:10Z</time>
      </trkpt>
      <trkpt lat="45.73479000" lon="6.137480000">
        <ele>777.00000</ele>
        <time>2010-06-23T03:53:31Z</time>
      </trkpt>
      <trkpt lat="45.73491000" lon="6.137340000">
        <ele>777.00000</ele>
        <time>2010-06-23T03:53:37Z</time>
      </trkpt>
      <trkpt lat="45.73513000" lon="6.137290000">
        <ele>777.00000</ele>
        <time>2010-06-23T03:53:46Z</time>
      </trkpt>
      <trkpt lat="45.73545000" lon="6.137300000">
        <ele>787.00000</ele>
        <time>2010-06-23T03:53:59Z</time>
      </trkpt>
      <trkpt lat="45.73588000" lon="6.137470000">
        <ele>787.00000</ele>
        <time>2010-06-23T03:54:17Z</time>
      </trkpt>
      <trkpt lat="45.73643000" lon="6.137300000">
        <ele>791.00000</ele>
        <time>2010-06-23T03:54:39Z</time>
      </trkpt>
      <trkpt lat="45.73682000" lon="6.137600000">
        <ele>791.00000</ele>
        <time>2010-06-23T03:54:57Z</time>
      </trkpt>
      <trkpt lat="45.73695000" lon="6.137430000">
        <ele>791.00000</ele>
        <time>2010-06-23T03:55:04Z</time>
      </trkpt>
      <trkpt lat="45.73705000" lon="6.136940000">
        <ele>783.00000</ele>
        <time>2010-06-23T03:55:18Z</time>
      </trkpt>
      <trkpt lat="45.73716000" lon="6.136630000">
        <ele>798.00000</ele>
        <time>2010-06-23T03:55:28Z</time>
      </trkpt>
      <trkpt lat="45.73729000" lon="6.136610000">
        <ele>798.00000</ele>
        <time>2010-06-23T03:55:33Z</time>
      </trkpt>
      <trkpt lat="45.73730000" lon="6.137350000">
        <ele>802.00000</ele>
        <time>2010-06-23T03:55:54Z</time>
      </trkpt>
      <trkpt lat="45.73770000" lon="6.138780000">
        <ele>815.00000</ele>
        <time>2010-06-23T03:56:37Z</time>
      </trkpt>
      <trkpt lat="45.73770000" lon="6.139160000">
        <ele>815.00000</ele>
        <time>2010-06-23T03:56:47Z</time>
      </trkpt>
      <trkpt lat="45.73756000" lon="6.139610000">
        <ele>823.00000</ele>
        <time>2010-06-23T03:57:01Z</time>
      </trkpt>
      <trkpt lat="45.73703000" lon="6.140660000">
        <ele>831.00000</ele>
        <time>2010-06-23T03:57:37Z</time>
      </trkpt>
      <trkpt lat="45.73678000" lon="6.142030000">
        <ele>839.00000</ele>
        <time>2010-06-23T03:58:17Z</time>
      </trkpt>
      <trkpt lat="45.73667000" lon="6.142450000">
        <ele>845.00000</ele>
        <time>2010-06-23T03:58:29Z</time>
      </trkpt>
      <trkpt lat="45.73619000" lon="6.143220000">
        <ele>833.00000</ele>
        <time>2010-06-23T03:58:58Z</time>
      </trkpt>
      <trkpt lat="45.73618000" lon="6.143510000">
        <ele>833.00000</ele>
        <time>2010-06-23T03:59:06Z</time>
      </trkpt>
      <trkpt lat="45.73622000" lon="6.143600000">
        <ele>833.00000</ele>
        <time>2010-06-23T03:59:09Z</time>
      </trkpt>
      <trkpt lat="45.73633000" lon="6.143670000">
        <ele>850.00000</ele>
        <time>2010-06-23T03:59:14Z</time>
      </trkpt>
      <trkpt lat="45.73649000" lon="6.143610000">
        <ele>850.00000</ele>
        <time>2010-06-23T03:59:21Z</time>
      </trkpt>
      <trkpt lat="45.73665000" lon="6.143080000">
        <ele>850.00000</ele>
        <time>2010-06-23T03:59:37Z</time>
      </trkpt>
      <trkpt lat="45.73677000" lon="6.142800000">
        <ele>845.00000</ele>
        <time>2010-06-23T03:59:46Z</time>
      </trkpt>
      <trkpt lat="45.73688000" lon="6.142670000">
        <ele>845.00000</ele>
        <time>2010-06-23T03:59:52Z</time>
      </trkpt>
      <trkpt lat="45.73727000" lon="6.142510000">
        <ele>852.00000</ele>
        <time>2010-06-23T04:00:08Z</time>
      </trkpt>
      <trkpt lat="45.73768000" lon="6.142170000">
        <ele>852.00000</ele>
        <time>2010-06-23T04:00:27Z</time>
      </trkpt>
      <trkpt lat="45.73825000" lon="6.142110000">
        <ele>858.00000</ele>
        <time>2010-06-23T04:00:50Z</time>
      </trkpt>
      <trkpt lat="45.73841000" lon="6.142040000">
        <ele>848.00000</ele>
        <time>2010-06-23T04:00:57Z</time>
      </trkpt>
      <trkpt lat="45.73930000" lon="6.141120000">
        <ele>850.00000</ele>
        <time>2010-06-23T04:01:41Z</time>
      </trkpt>
      <trkpt lat="45.73958000" lon="6.140770000">
        <ele>850.00000</ele>
        <time>2010-06-23T04:01:55Z</time>
      </trkpt>
      <trkpt lat="45.74003000" lon="6.139750000">
        <ele>857.00000</ele>
        <time>2010-06-23T04:02:29Z</time>
      </trkpt>
      <trkpt lat="45.73992000" lon="6.137910000">
        <ele>857.00000</ele>
        <time>2010-06-23T04:03:21Z</time>
      </trkpt>
      <trkpt lat="45.73995000" lon="6.137530000">
        <ele>857.00000</ele>
        <time>2010-06-23T04:03:31Z</time>
      </trkpt>
      <trkpt lat="45.74035000" lon="6.136920000">
        <ele>852.00000</ele>
        <time>2010-06-23T04:03:55Z</time>
      </trkpt>
      <trkpt lat="45.74067000" lon="6.135580000">
        <ele>859.00000</ele>
        <time>2010-06-23T04:04:34Z</time>
      </trkpt>
      <trkpt lat="45.74075000" lon="6.135440000">
        <ele>859.00000</ele>
        <time>2010-06-23T04:04:39Z</time>
      </trkpt>
      <trkpt lat="45.74102000" lon="6.135230000">
        <ele>849.00000</ele>
        <time>2010-06-23T04:04:52Z</time>
      </trkpt>
      <trkpt lat="45.74153000" lon="6.135190000">
        <ele>856.00000</ele>
        <time>2010-06-23T04:05:12Z</time>
      </trkpt>
      <trkpt lat="45.74270000" lon="6.135250000">
        <ele>863.00000</ele>
        <time>2010-06-23T04:05:59Z</time>
      </trkpt>
      <trkpt lat="45.74345000" lon="6.135140000">
        <ele>872.00000</ele>
        <time>2010-06-23T04:06:29Z</time>
      </trkpt>
      <trkpt lat="45.74450000" lon="6.134900000">
        <ele>879.00000</ele>
        <time>2010-06-23T04:07:12Z</time>
      </trkpt>
      <trkpt lat="45.74506000" lon="6.134900000">
        <ele>881.00000</ele>
        <time>2010-06-23T04:07:34Z</time>
      </trkpt>
      <trkpt lat="45.74522000" lon="6.134940000">
        <ele>881.00000</ele>
        <time>2010-06-23T04:07:41Z</time>
      </trkpt>
      <trkpt lat="45.74548000" lon="6.135110000">
        <ele>877.00000</ele>
        <time>2010-06-23T04:07:52Z</time>
      </trkpt>
      <trkpt lat="45.74690000" lon="6.136380000">
        <ele>886.00000</ele>
        <time>2010-06-23T04:08:59Z</time>
      </trkpt>
      <trkpt lat="45.74690000" lon="6.136390000">
        <ele>886.00000</ele>
        <time>2010-06-23T04:08:59Z</time>
      </trkpt>
      <trkpt lat="45.74793000" lon="6.137310000">
        <ele>876.00000</ele>
        <time>2010-06-23T04:09:48Z</time>
      </trkpt>
      <trkpt lat="45.74808000" lon="6.137490000">
        <ele>876.00000</ele>
        <time>2010-06-23T04:09:56Z</time>
      </trkpt>
      <trkpt lat="45.74827000" lon="6.137830000">
        <ele>876.00000</ele>
        <time>2010-06-23T04:10:08Z</time>
      </trkpt>
      <trkpt lat="45.74848000" lon="6.138330000">
        <ele>886.00000</ele>
        <time>2010-06-23T04:10:24Z</time>
      </trkpt>
      <trkpt lat="45.74864000" lon="6.138500000">
        <ele>886.00000</ele>
        <time>2010-06-23T04:10:32Z</time>
      </trkpt>
      <trkpt lat="45.74891000" lon="6.138520000">
        <ele>890.00000</ele>
        <time>2010-06-23T04:10:43Z</time>
      </trkpt>
      <trkpt lat="45.74959000" lon="6.138140000">
        <ele>888.00000</ele>
        <time>2010-06-23T04:11:12Z</time>
      </trkpt>
      <trkpt lat="45.75070000" lon="6.138120000">
        <ele>888.00000</ele>
        <time>2010-06-23T04:11:57Z</time>
      </trkpt>
      <trkpt lat="45.75091000" lon="6.138020000">
        <ele>888.00000</ele>
        <time>2010-06-23T04:12:06Z</time>
      </trkpt>
      <trkpt lat="45.75118000" lon="6.137590000">
        <ele>880.00000</ele>
        <time>2010-06-23T04:12:22Z</time>
      </trkpt>
      <trkpt lat="45.75210000" lon="6.135320000">
        <ele>886.00000</ele>
        <time>2010-06-23T04:13:35Z</time>
      </trkpt>
      <trkpt lat="45.75228000" lon="6.135090000">
        <ele>886.00000</ele>
        <time>2010-06-23T04:13:45Z</time>
      </trkpt>
      <trkpt lat="45.75247000" lon="6.135040000">
        <ele>886.00000</ele>
        <time>2010-06-23T04:13:53Z</time>
      </trkpt>
      <trkpt lat="45.75263000" lon="6.135060000">
        <ele>886.00000</ele>
        <time>2010-06-23T04:13:59Z</time>
      </trkpt>
      <trkpt lat="45.75284000" lon="6.135140000">
        <ele>886.00000</ele>
        <time>2010-06-23T04:14:08Z</time>
      </trkpt>
      <trkpt lat="45.75299000" lon="6.135290000">
        <ele>879.00000</ele>
        <time>2010-06-23T04:14:15Z</time>
      </trkpt>
      <trkpt lat="45.75329000" lon="6.135930000">
        <ele>888.00000</ele>
        <time>2010-06-23T04:14:37Z</time>
      </trkpt>
      <trkpt lat="45.75342000" lon="6.136110000">
        <ele>888.00000</ele>
        <time>2010-06-23T04:14:44Z</time>
      </trkpt>
      <trkpt lat="45.75364000" lon="6.136380000">
        <ele>896.00000</ele>
        <time>2010-06-23T04:14:55Z</time>
      </trkpt>
      <trkpt lat="45.75412000" lon="6.136820000">
        <ele>888.00000</ele>
        <time>2010-06-23T04:15:18Z</time>
      </trkpt>
      <trkpt lat="45.75472000" lon="6.137250000">
        <ele>888.00000</ele>
        <time>2010-06-23T04:15:45Z</time>
      </trkpt>
      <trkpt lat="45.75565000" lon="6.137720000">
        <ele>882.00000</ele>
        <time>2010-06-23T04:16:24Z</time>
      </trkpt>
      <trkpt lat="45.75597000" lon="6.137870000">
        <ele>882.00000</ele>
        <time>2010-06-23T04:16:38Z</time>
      </trkpt>
      <trkpt lat="45.75661000" lon="6.138070000">
        <ele>891.00000</ele>
        <time>2010-06-23T04:17:04Z</time>
      </trkpt>
      <trkpt lat="45.75678000" lon="6.138110000">
        <ele>891.00000</ele>
        <time>2010-06-23T04:17:11Z</time>
      </trkpt>
      <trkpt lat="45.75693000" lon="6.138020000">
        <ele>891.00000</ele>
        <time>2010-06-23T04:17:18Z</time>
      </trkpt>
      <trkpt lat="45.75707000" lon="6.137870000">
        <ele>884.00000</ele>
        <time>2010-06-23T04:17:25Z</time>
      </trkpt>
      <trkpt lat="45.75723000" lon="6.137550000">
        <ele>894.00000</ele>
        <time>2010-06-23T04:17:36Z</time>
      </trkpt>
      <trkpt lat="45.75724000" lon="6.137220000">
        <ele>894.00000</ele>
        <time>2010-06-23T04:17:45Z</time>
      </trkpt>
      <trkpt lat="45.75696000" lon="6.136420000">
        <ele>881.00000</ele>
        <time>2010-06-23T04:18:10Z</time>
      </trkpt>
      <trkpt lat="45.75695000" lon="6.136240000">
        <ele>883.00000</ele>
        <time>2010-06-23T04:18:15Z</time>
      </trkpt>
      <trkpt lat="45.75700000" lon="6.135920000">
        <ele>883.00000</ele>
        <time>2010-06-23T04:18:24Z</time>
      </trkpt>
      <trkpt lat="45.75692000" lon="6.135670000">
        <ele>883.00000</ele>
        <time>2010-06-23T04:18:32Z</time>
      </trkpt>
      <trkpt lat="45.75645000" lon="6.135200000">
        <ele>887.00000</ele>
        <time>2010-06-23T04:18:55Z</time>
      </trkpt>
      <trkpt lat="45.75623000" lon="6.134660000">
        <ele>876.00000</ele>
        <time>2010-06-23T04:19:12Z</time>
      </trkpt>
      <trkpt lat="45.75614000" lon="6.134570000">
        <ele>878.00000</ele>
        <time>2010-06-23T04:19:16Z</time>
      </trkpt>
      <trkpt lat="45.75588000" lon="6.134460000">
        <ele>878.00000</ele>
        <time>2010-06-23T04:19:27Z</time>
      </trkpt>
      <trkpt lat="45.75571000" lon="6.134220000">
        <ele>878.00000</ele>
        <time>2010-06-23T04:19:37Z</time>
      </trkpt>
      <trkpt lat="45.75567000" lon="6.134070000">
        <ele>878.00000</ele>
        <time>2010-06-23T04:19:41Z</time>
      </trkpt>
      <trkpt lat="45.75564000" lon="6.133210000">
        <ele>884.00000</ele>
        <time>2010-06-23T04:20:05Z</time>
      </trkpt>
      <trkpt lat="45.75566000" lon="6.132830000">
        <ele>885.00000</ele>
        <time>2010-06-23T04:20:16Z</time>
      </trkpt>
      <trkpt lat="45.75592000" lon="6.131850000">
        <ele>880.00000</ele>
        <time>2010-06-23T04:20:45Z</time>
      </trkpt>
      <trkpt lat="45.75611000" lon="6.131650000">
        <ele>880.00000</ele>
        <time>2010-06-23T04:20:55Z</time>
      </trkpt>
      <trkpt lat="45.75642000" lon="6.131460000">
        <ele>894.00000</ele>
        <time>2010-06-23T04:21:08Z</time>
      </trkpt>
      <trkpt lat="45.75649000" lon="6.131370000">
        <ele>894.00000</ele>
        <time>2010-06-23T04:21:12Z</time>
      </trkpt>
      <trkpt lat="45.75651000" lon="6.131170000">
        <ele>893.00000</ele>
        <time>2010-06-23T04:21:18Z</time>
      </trkpt>
      <trkpt lat="45.75638000" lon="6.131000000">
        <ele>893.00000</ele>
        <time>2010-06-23T04:21:25Z</time>
      </trkpt>
      <trkpt lat="45.75580000" lon="6.130940000">
        <ele>880.00000</ele>
        <time>2010-06-23T04:21:48Z</time>
      </trkpt>
      <trkpt lat="45.75571000" lon="6.130900000">
        <ele>880.00000</ele>
        <time>2010-06-23T04:21:52Z</time>
      </trkpt>
      <trkpt lat="45.75564000" lon="6.130800000">
        <ele>880.00000</ele>
        <time>2010-06-23T04:21:56Z</time>
      </trkpt>
      <trkpt lat="45.75560000" lon="6.130610000">
        <ele>880.00000</ele>
        <time>2010-06-23T04:22:01Z</time>
      </trkpt>
      <trkpt lat="45.75565000" lon="6.129780000">
        <ele>886.00000</ele>
        <time>2010-06-23T04:22:25Z</time>
      </trkpt>
      <trkpt lat="45.75562000" lon="6.129600000">
        <ele>886.00000</ele>
        <time>2010-06-23T04:22:30Z</time>
      </trkpt>
      <trkpt lat="45.75556000" lon="6.129380000">
        <ele>885.00000</ele>
        <time>2010-06-23T04:22:36Z</time>
      </trkpt>
      <trkpt lat="45.75509000" lon="6.128490000">
        <ele>881.00000</ele>
        <time>2010-06-23T04:23:07Z</time>
      </trkpt>
      <trkpt lat="45.75487000" lon="6.127920000">
        <ele>881.00000</ele>
        <time>2010-06-23T04:23:26Z</time>
      </trkpt>
      <trkpt lat="45.75518000" lon="6.127580000">
        <ele>879.00000</ele>
        <time>2010-06-23T04:23:41Z</time>
      </trkpt>
      <trkpt lat="45.75540000" lon="6.127470000">
        <ele>879.00000</ele>
        <time>2010-06-23T04:23:51Z</time>
      </trkpt>
      <trkpt lat="45.75556000" lon="6.127450000">
        <ele>876.00000</ele>
        <time>2010-06-23T04:23:57Z</time>
      </trkpt>
      <trkpt lat="45.75616000" lon="6.127450000">
        <ele>876.00000</ele>
        <time>2010-06-23T04:24:21Z</time>
      </trkpt>
      <trkpt lat="45.75732000" lon="6.127660000">
        <ele>873.00000</ele>
        <time>2010-06-23T04:25:08Z</time>
      </trkpt>
      <trkpt lat="45.75794000" lon="6.127830000">
        <ele>877.00000</ele>
        <time>2010-06-23T04:25:33Z</time>
      </trkpt>
      <trkpt lat="45.75814000" lon="6.127710000">
        <ele>877.00000</ele>
        <time>2010-06-23T04:25:42Z</time>
      </trkpt>
      <trkpt lat="45.75831000" lon="6.127450000">
        <ele>877.00000</ele>
        <time>2010-06-23T04:25:52Z</time>
      </trkpt>
      <trkpt lat="45.75845000" lon="6.127350000">
        <ele>877.00000</ele>
        <time>2010-06-23T04:25:58Z</time>
      </trkpt>
      <trkpt lat="45.75888000" lon="6.127220000">
        <ele>885.00000</ele>
        <time>2010-06-23T04:26:16Z</time>
      </trkpt>
      <trkpt lat="45.75938000" lon="6.127180000">
        <ele>885.00000</ele>
        <time>2010-06-23T04:26:36Z</time>
      </trkpt>
      <trkpt lat="45.76055000" lon="6.127720000">
        <ele>876.00000</ele>
        <time>2010-06-23T04:27:25Z</time>
      </trkpt>
      <trkpt lat="45.76111000" lon="6.127790000">
        <ele>876.00000</ele>
        <time>2010-06-23T04:27:47Z</time>
      </trkpt>
      <trkpt lat="45.76150000" lon="6.127970000">
        <ele>872.00000</ele>
        <time>2010-06-23T04:28:04Z</time>
      </trkpt>
      <trkpt lat="45.76187000" lon="6.128320000">
        <ele>872.00000</ele>
        <time>2010-06-23T04:28:22Z</time>
      </trkpt>
      <trkpt lat="45.76201000" lon="6.128520000">
        <ele>872.00000</ele>
        <time>2010-06-23T04:28:29Z</time>
      </trkpt>
      <trkpt lat="45.76233000" lon="6.129190000">
        <ele>858.00000</ele>
        <time>2010-06-23T04:28:52Z</time>
      </trkpt>
      <trkpt lat="45.76259000" lon="6.130250000">
        <ele>862.00000</ele>
        <time>2010-06-23T04:29:23Z</time>
      </trkpt>
      <trkpt lat="45.76286000" lon="6.131780000">
        <ele>871.00000</ele>
        <time>2010-06-23T04:30:08Z</time>
      </trkpt>
      <trkpt lat="45.76325000" lon="6.133490000">
        <ele>868.00000</ele>
        <time>2010-06-23T04:30:58Z</time>
      </trkpt>
      <trkpt lat="45.76339000" lon="6.133610000">
        <ele>868.00000</ele>
        <time>2010-06-23T04:31:04Z</time>
      </trkpt>
      <trkpt lat="45.76352000" lon="6.133630000">
        <ele>868.00000</ele>
        <time>2010-06-23T04:31:10Z</time>
      </trkpt>
      <trkpt lat="45.76400000" lon="6.133550000">
        <ele>869.00000</ele>
        <time>2010-06-23T04:31:29Z</time>
      </trkpt>
      <trkpt lat="45.76416000" lon="6.133570000">
        <ele>869.00000</ele>
        <time>2010-06-23T04:31:35Z</time>
      </trkpt>
      <trkpt lat="45.76469000" lon="6.134070000">
        <ele>883.00000</ele>
        <time>2010-06-23T04:32:01Z</time>
      </trkpt>
      <trkpt lat="45.76479000" lon="6.134080000">
        <ele>883.00000</ele>
        <time>2010-06-23T04:32:05Z</time>
      </trkpt>
      <trkpt lat="45.76488000" lon="6.134020000">
        <ele>883.00000</ele>
        <time>2010-06-23T04:32:09Z</time>
      </trkpt>
      <trkpt lat="45.76494000" lon="6.133910000">
        <ele>883.00000</ele>
        <time>2010-06-23T04:32:13Z</time>
      </trkpt>
      <trkpt lat="45.76498000" lon="6.133590000">
        <ele>879.00000</ele>
        <time>2010-06-23T04:32:22Z</time>
      </trkpt>
      <trkpt lat="45.76467000" lon="6.132440000">
        <ele>878.00000</ele>
        <time>2010-06-23T04:32:56Z</time>
      </trkpt>
      <trkpt lat="45.76462000" lon="6.132090000">
        <ele>878.00000</ele>
        <time>2010-06-23T04:33:06Z</time>
      </trkpt>
      <trkpt lat="45.76465000" lon="6.131610000">
        <ele>879.00000</ele>
        <time>2010-06-23T04:33:20Z</time>
      </trkpt>
      <trkpt lat="45.76490000" lon="6.131260000">
        <ele>879.00000</ele>
        <time>2010-06-23T04:33:34Z</time>
      </trkpt>
      <trkpt lat="45.76512000" lon="6.131080000">
        <ele>877.00000</ele>
        <time>2010-06-23T04:33:44Z</time>
      </trkpt>
      <trkpt lat="45.76530000" lon="6.131020000">
        <ele>877.00000</ele>
        <time>2010-06-23T04:33:51Z</time>
      </trkpt>
      <trkpt lat="45.76563000" lon="6.131050000">
        <ele>881.00000</ele>
        <time>2010-06-23T04:34:04Z</time>
      </trkpt>
      <trkpt lat="45.76592000" lon="6.131210000">
        <ele>881.00000</ele>
        <time>2010-06-23T04:34:17Z</time>
      </trkpt>
      <trkpt lat="45.76776000" lon="6.132990000">
        <ele>901.00000</ele>
        <time>2010-06-23T04:35:46Z</time>
      </trkpt>
      <trkpt lat="45.76798000" lon="6.132980000">
        <ele>901.00000</ele>
        <time>2010-06-23T04:35:54Z</time>
      </trkpt>
      <trkpt lat="45.76834000" lon="6.132650000">
        <ele>889.00000</ele>
        <time>2010-06-23T04:36:12Z</time>
      </trkpt>
      <trkpt lat="45.76840000" lon="6.132610000">
        <ele>889.00000</ele>
        <time>2010-06-23T04:36:14Z</time>
      </trkpt>
      <trkpt lat="45.76850000" lon="6.132630000">
        <ele>889.00000</ele>
        <time>2010-06-23T04:36:18Z</time>
      </trkpt>
      <trkpt lat="45.76882000" lon="6.132880000">
        <ele>888.00000</ele>
        <time>2010-06-23T04:36:33Z</time>
      </trkpt>
      <trkpt lat="45.76911000" lon="6.133250000">
        <ele>899.00000</ele>
        <time>2010-06-23T04:36:48Z</time>
      </trkpt>
      <trkpt lat="45.76934000" lon="6.133370000">
        <ele>899.00000</ele>
        <time>2010-06-23T04:36:58Z</time>
      </trkpt>
      <trkpt lat="45.76958000" lon="6.133300000">
        <ele>899.00000</ele>
        <time>2010-06-23T04:37:08Z</time>
      </trkpt>
      <trkpt lat="45.77021000" lon="6.132920000">
        <ele>899.00000</ele>
        <time>2010-06-23T04:37:35Z</time>
      </trkpt>
      <trkpt lat="45.77093000" lon="6.132930000">
        <ele>900.00000</ele>
        <time>2010-06-23T04:38:04Z</time>
      </trkpt>
      <trkpt lat="45.77153000" lon="6.132630000">
        <ele>896.00000</ele>
        <time>2010-06-23T04:38:30Z</time>
      </trkpt>
      <trkpt lat="45.77169000" lon="6.132630000">
        <ele>896.00000</ele>
        <time>2010-06-23T04:38:36Z</time>
      </trkpt>
      <trkpt lat="45.77150000" lon="6.133120000">
        <ele>899.00000</ele>
        <time>2010-06-23T04:38:52Z</time>
      </trkpt>
      <trkpt lat="45.77137000" lon="6.133310000">
        <ele>899.00000</ele>
        <time>2010-06-23T04:38:59Z</time>
      </trkpt>
      <trkpt lat="45.77098000" lon="6.133680000">
        <ele>900.00000</ele>
        <time>2010-06-23T04:39:18Z</time>
      </trkpt>
      <trkpt lat="45.77086000" lon="6.133730000">
        <ele>900.00000</ele>
        <time>2010-06-23T04:39:23Z</time>
      </trkpt>
      <trkpt lat="45.77026000" lon="6.133720000">
        <ele>899.00000</ele>
        <time>2010-06-23T04:39:47Z</time>
      </trkpt>
      <trkpt lat="45.77013000" lon="6.133850000">
        <ele>913.00000</ele>
        <time>2010-06-23T04:39:53Z</time>
      </trkpt>
      <trkpt lat="45.77013000" lon="6.134090000">
        <ele>913.00000</ele>
        <time>2010-06-23T04:40:00Z</time>
      </trkpt>
      <trkpt lat="45.77053000" lon="6.134420000">
        <ele>910.00000</ele>
        <time>2010-06-23T04:40:18Z</time>
      </trkpt>
      <trkpt lat="45.77057000" lon="6.134650000">
        <ele>918.00000</ele>
        <time>2010-06-23T04:40:25Z</time>
      </trkpt>
      <trkpt lat="45.77030000" lon="6.135290000">
        <ele>921.00000</ele>
        <time>2010-06-23T04:40:46Z</time>
      </trkpt>
      <trkpt lat="45.77003000" lon="6.135700000">
        <ele>925.00000</ele>
        <time>2010-06-23T04:41:02Z</time>
      </trkpt>
      <trkpt lat="45.76972000" lon="6.136100000">
        <ele>925.00000</ele>
        <time>2010-06-23T04:41:18Z</time>
      </trkpt>
      <trkpt lat="45.76964000" lon="6.136270000">
        <ele>929.00000</ele>
        <time>2010-06-23T04:41:24Z</time>
      </trkpt>
      <trkpt lat="45.76936000" lon="6.137070000">
        <ele>933.00000</ele>
        <time>2010-06-23T04:41:49Z</time>
      </trkpt>
      <trkpt lat="45.76929000" lon="6.137440000">
        <ele>938.00000</ele>
        <time>2010-06-23T04:42:00Z</time>
      </trkpt>
      <trkpt lat="45.76937000" lon="6.137860000">
        <ele>938.00000</ele>
        <time>2010-06-23T04:42:12Z</time>
      </trkpt>
      <trkpt lat="45.76955000" lon="6.138280000">
        <ele>943.00000</ele>
        <time>2010-06-23T04:42:26Z</time>
      </trkpt>
      <trkpt lat="45.76960000" lon="6.138520000">
        <ele>938.00000</ele>
        <time>2010-06-23T04:42:33Z</time>
      </trkpt>
      <trkpt lat="45.76970000" lon="6.139520000">
        <ele>943.00000</ele>
        <time>2010-06-23T04:43:01Z</time>
      </trkpt>
      <trkpt lat="45.76978000" lon="6.139940000">
        <ele>948.00000</ele>
        <time>2010-06-23T04:43:13Z</time>
      </trkpt>
      <trkpt lat="45.77001000" lon="6.140490000">
        <ele>953.00000</ele>
        <time>2010-06-23T04:43:31Z</time>
      </trkpt>
      <trkpt lat="45.77012000" lon="6.141170000">
        <ele>953.00000</ele>
        <time>2010-06-23T04:43:50Z</time>
      </trkpt>
      <trkpt lat="45.77018000" lon="6.141250000">
        <ele>958.00000</ele>
        <time>2010-06-23T04:43:54Z</time>
      </trkpt>
      <trkpt lat="45.77044000" lon="6.141250000">
        <ele>954.00000</ele>
        <time>2010-06-23T04:44:04Z</time>
      </trkpt>
      <trkpt lat="45.77108000" lon="6.140730000">
        <ele>943.00000</ele>
        <time>2010-06-23T04:44:34Z</time>
      </trkpt>
      <trkpt lat="45.77128000" lon="6.140660000">
        <ele>938.00000</ele>
        <time>2010-06-23T04:44:42Z</time>
      </trkpt>
      <trkpt lat="45.77158000" lon="6.140750000">
        <ele>938.00000</ele>
        <time>2010-06-23T04:44:54Z</time>
      </trkpt>
      <trkpt lat="45.77174000" lon="6.141020000">
        <ele>938.00000</ele>
        <time>2010-06-23T04:45:04Z</time>
      </trkpt>
      <trkpt lat="45.77203000" lon="6.141990000">
        <ele>945.00000</ele>
        <time>2010-06-23T04:45:33Z</time>
      </trkpt>
      <trkpt lat="45.77240000" lon="6.142840000">
        <ele>936.00000</ele>
        <time>2010-06-23T04:46:01Z</time>
      </trkpt>
      <trkpt lat="45.77267000" lon="6.143270000">
        <ele>938.00000</ele>
        <time>2010-06-23T04:46:18Z</time>
      </trkpt>
      <trkpt lat="45.77280000" lon="6.143570000">
        <ele>938.00000</ele>
        <time>2010-06-23T04:46:27Z</time>
      </trkpt>
      <trkpt lat="45.77281000" lon="6.143710000">
        <ele>938.00000</ele>
        <time>2010-06-23T04:46:31Z</time>
      </trkpt>
      <trkpt lat="45.77267000" lon="6.144430000">
        <ele>941.00000</ele>
        <time>2010-06-23T04:46:52Z</time>
      </trkpt>
      <trkpt lat="45.77267000" lon="6.144650000">
        <ele>943.00000</ele>
        <time>2010-06-23T04:46:58Z</time>
      </trkpt>
      <trkpt lat="45.77294000" lon="6.146000000">
        <ele>931.00000</ele>
        <time>2010-06-23T04:47:38Z</time>
      </trkpt>
      <trkpt lat="45.77300000" lon="6.146640000">
        <ele>937.00000</ele>
        <time>2010-06-23T04:47:56Z</time>
      </trkpt>
      <trkpt lat="45.77308000" lon="6.147000000">
        <ele>937.00000</ele>
        <time>2010-06-23T04:48:06Z</time>
      </trkpt>
      <trkpt lat="45.77315000" lon="6.147090000">
        <ele>948.00000</ele>
        <time>2010-06-23T04:48:10Z</time>
      </trkpt>
      <trkpt lat="45.77324000" lon="6.147120000">
        <ele>948.00000</ele>
        <time>2010-06-23T04:48:14Z</time>
      </trkpt>
      <trkpt lat="45.77356000" lon="6.146990000">
        <ele>937.00000</ele>
        <time>2010-06-23T04:48:27Z</time>
      </trkpt>
      <trkpt lat="45.77375000" lon="6.146800000">
        <ele>936.00000</ele>
        <time>2010-06-23T04:48:36Z</time>
      </trkpt>
      <trkpt lat="45.77416000" lon="6.146160000">
        <ele>924.00000</ele>
        <time>2010-06-23T04:49:00Z</time>
      </trkpt>
      <trkpt lat="45.77424000" lon="6.146090000">
        <ele>924.00000</ele>
        <time>2010-06-23T04:49:04Z</time>
      </trkpt>
      <trkpt lat="45.77436000" lon="6.146080000">
        <ele>924.00000</ele>
        <time>2010-06-23T04:49:09Z</time>
      </trkpt>
      <trkpt lat="45.77471000" lon="6.146320000">
        <ele>937.00000</ele>
        <time>2010-06-23T04:49:25Z</time>
      </trkpt>
      <trkpt lat="45.77501000" lon="6.146460000">
        <ele>937.00000</ele>
        <time>2010-06-23T04:49:37Z</time>
      </trkpt>
      <trkpt lat="45.77517000" lon="6.146620000">
        <ele>937.00000</ele>
        <time>2010-06-23T04:49:45Z</time>
      </trkpt>
      <trkpt lat="45.77533000" lon="6.146880000">
        <ele>937.00000</ele>
        <time>2010-06-23T04:49:55Z</time>
      </trkpt>
      <trkpt lat="45.77554000" lon="6.147410000">
        <ele>938.00000</ele>
        <time>2010-06-23T04:50:12Z</time>
      </trkpt>
      <trkpt lat="45.77562000" lon="6.147520000">
        <ele>938.00000</ele>
        <time>2010-06-23T04:50:16Z</time>
      </trkpt>
      <trkpt lat="45.77612000" lon="6.147820000">
        <ele>938.00000</ele>
        <time>2010-06-23T04:50:38Z</time>
      </trkpt>
      <trkpt lat="45.77631000" lon="6.148100000">
        <ele>929.00000</ele>
        <time>2010-06-23T04:50:49Z</time>
      </trkpt>
      <trkpt lat="45.77653000" lon="6.148750000">
        <ele>929.00000</ele>
        <time>2010-06-23T04:51:09Z</time>
      </trkpt>
      <trkpt lat="45.77652000" lon="6.149090000">
        <ele>934.00000</ele>
        <time>2010-06-23T04:51:18Z</time>
      </trkpt>
      <trkpt lat="45.77636000" lon="6.149410000">
        <ele>934.00000</ele>
        <time>2010-06-23T04:51:29Z</time>
      </trkpt>
      <trkpt lat="45.77637000" lon="6.149640000">
        <ele>943.00000</ele>
        <time>2010-06-23T04:51:36Z</time>
      </trkpt>
      <trkpt lat="45.77642000" lon="6.149710000">
        <ele>943.00000</ele>
        <time>2010-06-23T04:51:39Z</time>
      </trkpt>
      <trkpt lat="45.77651000" lon="6.149760000">
        <ele>943.00000</ele>
        <time>2010-06-23T04:51:42Z</time>
      </trkpt>
      <trkpt lat="45.77699000" lon="6.149800000">
        <ele>943.00000</ele>
        <time>2010-06-23T04:52:02Z</time>
      </trkpt>
      <trkpt lat="45.77733000" lon="6.150050000">
        <ele>936.00000</ele>
        <time>2010-06-23T04:52:17Z</time>
      </trkpt>
      <trkpt lat="45.77764000" lon="6.150430000">
        <ele>949.00000</ele>
        <time>2010-06-23T04:52:33Z</time>
      </trkpt>
      <trkpt lat="45.77778000" lon="6.150490000">
        <ele>949.00000</ele>
        <time>2010-06-23T04:52:39Z</time>
      </trkpt>
      <trkpt lat="45.77796000" lon="6.150470000">
        <ele>951.00000</ele>
        <time>2010-06-23T04:52:46Z</time>
      </trkpt>
      <trkpt lat="45.77853000" lon="6.150340000">
        <ele>939.00000</ele>
        <time>2010-06-23T04:53:10Z</time>
      </trkpt>
      <trkpt lat="45.77930000" lon="6.150280000">
        <ele>941.00000</ele>
        <time>2010-06-23T04:53:40Z</time>
      </trkpt>
      <trkpt lat="45.77958000" lon="6.150140000">
        <ele>941.00000</ele>
        <time>2010-06-23T04:53:52Z</time>
      </trkpt>
      <trkpt lat="45.77987000" lon="6.149920000">
        <ele>938.00000</ele>
        <time>2010-06-23T04:54:05Z</time>
      </trkpt>
      <trkpt lat="45.77998000" lon="6.149810000">
        <ele>938.00000</ele>
        <time>2010-06-23T04:54:11Z</time>
      </trkpt>
      <trkpt lat="45.78006000" lon="6.149610000">
        <ele>938.00000</ele>
        <time>2010-06-23T04:54:17Z</time>
      </trkpt>
      <trkpt lat="45.77999000" lon="6.149440000">
        <ele>922.00000</ele>
        <time>2010-06-23T04:54:23Z</time>
      </trkpt>
      <trkpt lat="45.77990000" lon="6.149390000">
        <ele>922.00000</ele>
        <time>2010-06-23T04:54:27Z</time>
      </trkpt>
      <trkpt lat="45.77963000" lon="6.149390000">
        <ele>922.00000</ele>
        <time>2010-06-23T04:54:37Z</time>
      </trkpt>
      <trkpt lat="45.77942000" lon="6.149310000">
        <ele>928.00000</ele>
        <time>2010-06-23T04:54:46Z</time>
      </trkpt>
      <trkpt lat="45.77938000" lon="6.149130000">
        <ele>928.00000</ele>
        <time>2010-06-23T04:54:51Z</time>
      </trkpt>
      <trkpt lat="45.77951000" lon="6.148950000">
        <ele>928.00000</ele>
        <time>2010-06-23T04:54:59Z</time>
      </trkpt>
      <trkpt lat="45.78038000" lon="6.148680000">
        <ele>906.00000</ele>
        <time>2010-06-23T04:55:34Z</time>
      </trkpt>
      <trkpt lat="45.78057000" lon="6.148570000">
        <ele>911.00000</ele>
        <time>2010-06-23T04:55:42Z</time>
      </trkpt>
      <trkpt lat="45.78169000" lon="6.147700000">
        <ele>902.00000</ele>
        <time>2010-06-23T04:56:33Z</time>
      </trkpt>
      <trkpt lat="45.78232000" lon="6.147500000">
        <ele>896.00000</ele>
        <time>2010-06-23T04:56:59Z</time>
      </trkpt>
      <trkpt lat="45.78265000" lon="6.147330000">
        <ele>896.00000</ele>
        <time>2010-06-23T04:57:13Z</time>
      </trkpt>
      <trkpt lat="45.78327000" lon="6.146900000">
        <ele>876.00000</ele>
        <time>2010-06-23T04:57:41Z</time>
      </trkpt>
      <trkpt lat="45.78419000" lon="6.146610000">
        <ele>870.00000</ele>
        <time>2010-06-23T04:58:19Z</time>
      </trkpt>
      <trkpt lat="45.78459000" lon="6.146600000">
        <ele>867.00000</ele>
        <time>2010-06-23T04:58:35Z</time>
      </trkpt>
      <trkpt lat="45.78532000" lon="6.146680000">
        <ele>867.00000</ele>
        <time>2010-06-23T04:59:04Z</time>
      </trkpt>
      <trkpt lat="45.78564000" lon="6.146850000">
        <ele>859.00000</ele>
        <time>2010-06-23T04:59:18Z</time>
      </trkpt>
      <trkpt lat="45.78612000" lon="6.147350000">
        <ele>870.00000</ele>
        <time>2010-06-23T04:59:41Z</time>
      </trkpt>
      <trkpt lat="45.78630000" lon="6.147460000">
        <ele>856.00000</ele>
        <time>2010-06-23T04:59:49Z</time>
      </trkpt>
      <trkpt lat="45.78653000" lon="6.147520000">
        <ele>856.00000</ele>
        <time>2010-06-23T04:59:58Z</time>
      </trkpt>
      <trkpt lat="45.78746000" lon="6.147650000">
        <ele>846.00000</ele>
        <time>2010-06-23T05:00:36Z</time>
      </trkpt>
      <trkpt lat="45.78838000" lon="6.147600000">
        <ele>838.00000</ele>
        <time>2010-06-23T05:01:13Z</time>
      </trkpt>
      <trkpt lat="45.78864000" lon="6.147650000">
        <ele>838.00000</ele>
        <time>2010-06-23T05:01:23Z</time>
      </trkpt>
      <trkpt lat="45.78903000" lon="6.147590000">
        <ele>828.00000</ele>
        <time>2010-06-23T05:01:39Z</time>
      </trkpt>
      <trkpt lat="45.78921000" lon="6.147630000">
        <ele>828.00000</ele>
        <time>2010-06-23T05:01:46Z</time>
      </trkpt>
      <trkpt lat="45.78981000" lon="6.148720000">
        <ele>826.00000</ele>
        <time>2010-06-23T05:02:25Z</time>
      </trkpt>
      <trkpt lat="45.78985000" lon="6.148940000">
        <ele>828.00000</ele>
        <time>2010-06-23T05:02:31Z</time>
      </trkpt>
      <trkpt lat="45.78987000" lon="6.149840000">
        <ele>824.00000</ele>
        <time>2010-06-23T05:02:56Z</time>
      </trkpt>
      <trkpt lat="45.78993000" lon="6.149960000">
        <ele>824.00000</ele>
        <time>2010-06-23T05:03:01Z</time>
      </trkpt>
      <trkpt lat="45.79007000" lon="6.150030000">
        <ele>824.00000</ele>
        <time>2010-06-23T05:03:07Z</time>
      </trkpt>
      <trkpt lat="45.79019000" lon="6.149880000">
        <ele>824.00000</ele>
        <time>2010-06-23T05:03:13Z</time>
      </trkpt>
      <trkpt lat="45.79035000" lon="6.149320000">
        <ele>828.00000</ele>
        <time>2010-06-23T05:03:30Z</time>
      </trkpt>
      <trkpt lat="45.79071000" lon="6.148400000">
        <ele>814.00000</ele>
        <time>2010-06-23T05:03:59Z</time>
      </trkpt>
      <trkpt lat="45.79074000" lon="6.147830000">
        <ele>807.00000</ele>
        <time>2010-06-23T05:04:15Z</time>
      </trkpt>
      <trkpt lat="45.79081000" lon="6.147560000">
        <ele>807.00000</ele>
        <time>2010-06-23T05:04:23Z</time>
      </trkpt>
      <trkpt lat="45.79086000" lon="6.147500000">
        <ele>807.00000</ele>
        <time>2010-06-23T05:04:26Z</time>
      </trkpt>
      <trkpt lat="45.79101000" lon="6.147530000">
        <ele>807.00000</ele>
        <time>2010-06-23T05:04:32Z</time>
      </trkpt>
      <trkpt lat="45.79114000" lon="6.147740000">
        <ele>807.00000</ele>
        <time>2010-06-23T05:04:40Z</time>
      </trkpt>
      <trkpt lat="45.79118000" lon="6.147940000">
        <ele>814.00000</ele>
        <time>2010-06-23T05:04:46Z</time>
      </trkpt>
      <trkpt lat="45.79121000" lon="6.148540000">
        <ele>814.00000</ele>
        <time>2010-06-23T05:05:02Z</time>
      </trkpt>
      <trkpt lat="45.79128000" lon="6.149030000">
        <ele>797.00000</ele>
        <time>2010-06-23T05:05:16Z</time>
      </trkpt>
      <trkpt lat="45.79174000" lon="6.150360000">
        <ele>791.00000</ele>
        <time>2010-06-23T05:05:58Z</time>
      </trkpt>
      <trkpt lat="45.79174000" lon="6.150560000">
        <ele>784.00000</ele>
        <time>2010-06-23T05:06:03Z</time>
      </trkpt>
      <trkpt lat="45.79169000" lon="6.150730000">
        <ele>784.00000</ele>
        <time>2010-06-23T05:06:08Z</time>
      </trkpt>
      <trkpt lat="45.79150000" lon="6.151020000">
        <ele>784.00000</ele>
        <time>2010-06-23T05:06:20Z</time>
      </trkpt>
      <trkpt lat="45.79148000" lon="6.151120000">
        <ele>784.00000</ele>
        <time>2010-06-23T05:06:22Z</time>
      </trkpt>
      <trkpt lat="45.79151000" lon="6.151200000">
        <ele>784.00000</ele>
        <time>2010-06-23T05:06:25Z</time>
      </trkpt>
      <trkpt lat="45.79162000" lon="6.151270000">
        <ele>782.00000</ele>
        <time>2010-06-23T05:06:30Z</time>
      </trkpt>
      <trkpt lat="45.79169000" lon="6.151240000">
        <ele>784.00000</ele>
        <time>2010-06-23T05:06:33Z</time>
      </trkpt>
      <trkpt lat="45.79177000" lon="6.151120000">
        <ele>784.00000</ele>
        <time>2010-06-23T05:06:37Z</time>
      </trkpt>
      <trkpt lat="45.79242000" lon="6.149930000">
        <ele>776.00000</ele>
        <time>2010-06-23T05:07:20Z</time>
      </trkpt>
      <trkpt lat="45.79260000" lon="6.149150000">
        <ele>779.00000</ele>
        <time>2010-06-23T05:07:43Z</time>
      </trkpt>
      <trkpt lat="45.79290000" lon="6.148740000">
        <ele>780.00000</ele>
        <time>2010-06-23T05:07:59Z</time>
      </trkpt>
      <trkpt lat="45.79309000" lon="6.148370000">
        <ele>764.00000</ele>
        <time>2010-06-23T05:08:12Z</time>
      </trkpt>
      <trkpt lat="45.79371000" lon="6.147720000">
        <ele>765.00000</ele>
        <time>2010-06-23T05:08:43Z</time>
      </trkpt>
      <trkpt lat="45.79375000" lon="6.147420000">
        <ele>752.00000</ele>
        <time>2010-06-23T05:08:51Z</time>
      </trkpt>
      <trkpt lat="45.79373000" lon="6.147280000">
        <ele>765.00000</ele>
        <time>2010-06-23T05:08:55Z</time>
      </trkpt>
      <trkpt lat="45.79356000" lon="6.146850000">
        <ele>758.00000</ele>
        <time>2010-06-23T05:09:09Z</time>
      </trkpt>
      <trkpt lat="45.79355000" lon="6.146580000">
        <ele>758.00000</ele>
        <time>2010-06-23T05:09:17Z</time>
      </trkpt>
      <trkpt lat="45.79359000" lon="6.146530000">
        <ele>758.00000</ele>
        <time>2010-06-23T05:09:19Z</time>
      </trkpt>
      <trkpt lat="45.79379000" lon="6.146590000">
        <ele>749.00000</ele>
        <time>2010-06-23T05:09:27Z</time>
      </trkpt>
      <trkpt lat="45.79406000" lon="6.146790000">
        <ele>749.00000</ele>
        <time>2010-06-23T05:09:39Z</time>
      </trkpt>
      <trkpt lat="45.79413000" lon="6.146910000">
        <ele>749.00000</ele>
        <time>2010-06-23T05:09:43Z</time>
      </trkpt>
      <trkpt lat="45.79434000" lon="6.147560000">
        <ele>752.00000</ele>
        <time>2010-06-23T05:10:03Z</time>
      </trkpt>
      <trkpt lat="45.79456000" lon="6.147830000">
        <ele>752.00000</ele>
        <time>2010-06-23T05:10:15Z</time>
      </trkpt>
      <trkpt lat="45.79482000" lon="6.147940000">
        <ele>739.00000</ele>
        <time>2010-06-23T05:10:26Z</time>
      </trkpt>
      <trkpt lat="45.79490000" lon="6.148030000">
        <ele>739.00000</ele>
        <time>2010-06-23T05:10:30Z</time>
      </trkpt>
      <trkpt lat="45.79506000" lon="6.148380000">
        <ele>739.00000</ele>
        <time>2010-06-23T05:10:42Z</time>
      </trkpt>
      <trkpt lat="45.79514000" lon="6.148450000">
        <ele>739.00000</ele>
        <time>2010-06-23T05:10:45Z</time>
      </trkpt>
      <trkpt lat="45.79540000" lon="6.148480000">
        <ele>739.00000</ele>
        <time>2010-06-23T05:10:56Z</time>
      </trkpt>
      <trkpt lat="45.79585000" lon="6.148290000">
        <ele>733.00000</ele>
        <time>2010-06-23T05:11:15Z</time>
      </trkpt>
      <trkpt lat="45.79603000" lon="6.148530000">
        <ele>733.00000</ele>
        <time>2010-06-23T05:11:24Z</time>
      </trkpt>
      <trkpt lat="45.79600000" lon="6.148790000">
        <ele>732.00000</ele>
        <time>2010-06-23T05:11:32Z</time>
      </trkpt>
      <trkpt lat="45.79586000" lon="6.148960000">
        <ele>732.00000</ele>
        <time>2010-06-23T05:11:39Z</time>
      </trkpt>
      <trkpt lat="45.79561000" lon="6.148960000">
        <ele>732.00000</ele>
        <time>2010-06-23T05:11:49Z</time>
      </trkpt>
      <trkpt lat="45.79522000" lon="6.148770000">
        <ele>738.00000</ele>
        <time>2010-06-23T05:12:06Z</time>
      </trkpt>
      <trkpt lat="45.79495000" lon="6.148740000">
        <ele>739.00000</ele>
        <time>2010-06-23T05:12:16Z</time>
      </trkpt>
      <trkpt lat="45.79473000" lon="6.148790000">
        <ele>738.00000</ele>
        <time>2010-06-23T05:12:25Z</time>
      </trkpt>
      <trkpt lat="45.79461000" lon="6.148880000">
        <ele>738.00000</ele>
        <time>2010-06-23T05:12:31Z</time>
      </trkpt>
      <trkpt lat="45.79458000" lon="6.148980000">
        <ele>748.00000</ele>
        <time>2010-06-23T05:12:34Z</time>
      </trkpt>
      <trkpt lat="45.79460000" lon="6.149080000">
        <ele>738.00000</ele>
        <time>2010-06-23T05:12:37Z</time>
      </trkpt>
      <trkpt lat="45.79474000" lon="6.149280000">
        <ele>738.00000</ele>
        <time>2010-06-23T05:12:45Z</time>
      </trkpt>
      <trkpt lat="45.79518000" lon="6.149500000">
        <ele>738.00000</ele>
        <time>2010-06-23T05:13:03Z</time>
      </trkpt>
      <trkpt lat="45.79524000" lon="6.149600000">
        <ele>742.00000</ele>
        <time>2010-06-23T05:13:07Z</time>
      </trkpt>
      <trkpt lat="45.79544000" lon="6.150380000">
        <ele>733.00000</ele>
        <time>2010-06-23T05:13:30Z</time>
      </trkpt>
      <trkpt lat="45.79556000" lon="6.150540000">
        <ele>737.00000</ele>
        <time>2010-06-23T05:13:37Z</time>
      </trkpt>
      <trkpt lat="45.79612000" lon="6.151050000">
        <ele>737.00000</ele>
        <time>2010-06-23T05:14:03Z</time>
      </trkpt>
      <trkpt lat="45.79635000" lon="6.151120000">
        <ele>721.00000</ele>
        <time>2010-06-23T05:14:13Z</time>
      </trkpt>
      <trkpt lat="45.79666000" lon="6.151130000">
        <ele>721.00000</ele>
        <time>2010-06-23T05:14:25Z</time>
      </trkpt>
      <trkpt lat="45.79674000" lon="6.151190000">
        <ele>721.00000</ele>
        <time>2010-06-23T05:14:29Z</time>
      </trkpt>
      <trkpt lat="45.79693000" lon="6.151850000">
        <ele>725.00000</ele>
        <time>2010-06-23T05:14:49Z</time>
      </trkpt>
      <trkpt lat="45.79796000" lon="6.151790000">
        <ele>708.00000</ele>
        <time>2010-06-23T05:15:30Z</time>
      </trkpt>
      <trkpt lat="45.79842000" lon="6.151590000">
        <ele>708.00000</ele>
        <time>2010-06-23T05:15:49Z</time>
      </trkpt>
      <trkpt lat="45.79892000" lon="6.151170000">
        <ele>688.00000</ele>
        <time>2010-06-23T05:16:12Z</time>
      </trkpt>
      <trkpt lat="45.79908000" lon="6.151110000">
        <ele>688.00000</ele>
        <time>2010-06-23T05:16:19Z</time>
      </trkpt>
      <trkpt lat="45.79920000" lon="6.151110000">
        <ele>688.00000</ele>
        <time>2010-06-23T05:16:24Z</time>
      </trkpt>
      <trkpt lat="45.79958000" lon="6.151310000">
        <ele>697.00000</ele>
        <time>2010-06-23T05:16:40Z</time>
      </trkpt>
      <trkpt lat="45.79975000" lon="6.151350000">
        <ele>691.00000</ele>
        <time>2010-06-23T05:16:47Z</time>
      </trkpt>
      <trkpt lat="45.80019000" lon="6.151380000">
        <ele>691.00000</ele>
        <time>2010-06-23T05:17:04Z</time>
      </trkpt>
      <trkpt lat="45.80034000" lon="6.151350000">
        <ele>691.00000</ele>
        <time>2010-06-23T05:17:11Z</time>
      </trkpt>
      <trkpt lat="45.80044000" lon="6.151270000">
        <ele>694.00000</ele>
        <time>2010-06-23T05:17:15Z</time>
      </trkpt>
      <trkpt lat="45.80049000" lon="6.151170000">
        <ele>687.00000</ele>
        <time>2010-06-23T05:17:19Z</time>
      </trkpt>
      <trkpt lat="45.80049000" lon="6.149640000">
        <ele>681.00000</ele>
        <time>2010-06-23T05:18:01Z</time>
      </trkpt>
      <trkpt lat="45.80062000" lon="6.149190000">
        <ele>678.00000</ele>
        <time>2010-06-23T05:18:15Z</time>
      </trkpt>
      <trkpt lat="45.80078000" lon="6.149020000">
        <ele>678.00000</ele>
        <time>2010-06-23T05:18:23Z</time>
      </trkpt>
      <trkpt lat="45.80101000" lon="6.148890000">
        <ele>678.00000</ele>
        <time>2010-06-23T05:18:33Z</time>
      </trkpt>
      <trkpt lat="45.80164000" lon="6.148720000">
        <ele>665.00000</ele>
        <time>2010-06-23T05:18:58Z</time>
      </trkpt>
      <trkpt lat="45.80197000" lon="6.148410000">
        <ele>665.00000</ele>
        <time>2010-06-23T05:19:14Z</time>
      </trkpt>
      <trkpt lat="45.80212000" lon="6.148330000">
        <ele>664.00000</ele>
        <time>2010-06-23T05:19:21Z</time>
      </trkpt>
      <trkpt lat="45.80258000" lon="6.147680000">
        <ele>653.00000</ele>
        <time>2010-06-23T05:19:46Z</time>
      </trkpt>
      <trkpt lat="45.80273000" lon="6.146930000">
        <ele>645.00000</ele>
        <time>2010-06-23T05:20:08Z</time>
      </trkpt>
      <trkpt lat="45.80294000" lon="6.146710000">
        <ele>639.00000</ele>
        <time>2010-06-23T05:20:19Z</time>
      </trkpt>
      <trkpt lat="45.80326000" lon="6.146680000">
        <ele>639.00000</ele>
        <time>2010-06-23T05:20:31Z</time>
      </trkpt>
      <trkpt lat="45.80377000" lon="6.146780000">
        <ele>631.00000</ele>
        <time>2010-06-23T05:20:52Z</time>
      </trkpt>
      <trkpt lat="45.80414000" lon="6.146980000">
        <ele>631.00000</ele>
        <time>2010-06-23T05:21:08Z</time>
      </trkpt>
      <trkpt lat="45.80440000" lon="6.147250000">
        <ele>642.00000</ele>
        <time>2010-06-23T05:21:21Z</time>
      </trkpt>
      <trkpt lat="45.80461000" lon="6.147160000">
        <ele>639.00000</ele>
        <time>2010-06-23T05:21:29Z</time>
      </trkpt>
      <trkpt lat="45.80524000" lon="6.146480000">
        <ele>627.00000</ele>
        <time>2010-06-23T05:22:01Z</time>
      </trkpt>
      <trkpt lat="45.80537000" lon="6.146390000">
        <ele>627.00000</ele>
        <time>2010-06-23T05:22:07Z</time>
      </trkpt>
      <trkpt lat="45.80562000" lon="6.146370000">
        <ele>624.00000</ele>
        <time>2010-06-23T05:22:17Z</time>
      </trkpt>
      <trkpt lat="45.80609000" lon="6.146670000">
        <ele>624.00000</ele>
        <time>2010-06-23T05:22:37Z</time>
      </trkpt>
      <trkpt lat="45.80627000" lon="6.146590000">
        <ele>620.00000</ele>
        <time>2010-06-23T05:22:45Z</time>
      </trkpt>
      <trkpt lat="45.80633000" lon="6.146440000">
        <ele>620.00000</ele>
        <time>2010-06-23T05:22:50Z</time>
      </trkpt>
      <trkpt lat="45.80629000" lon="6.146280000">
        <ele>620.00000</ele>
        <time>2010-06-23T05:22:55Z</time>
      </trkpt>
      <trkpt lat="45.80562000" lon="6.145610000">
        <ele>604.00000</ele>
        <time>2010-06-23T05:23:27Z</time>
      </trkpt>
      <trkpt lat="45.80500000" lon="6.145070000">
        <ele>596.00000</ele>
        <time>2010-06-23T05:23:56Z</time>
      </trkpt>
      <trkpt lat="45.80496000" lon="6.144950000">
        <ele>596.00000</ele>
        <time>2010-06-23T05:24:00Z</time>
      </trkpt>
      <trkpt lat="45.80495000" lon="6.144700000">
        <ele>596.00000</ele>
        <time>2010-06-23T05:24:07Z</time>
      </trkpt>
      <trkpt lat="45.80502000" lon="6.144230000">
        <ele>596.00000</ele>
        <time>2010-06-23T05:24:20Z</time>
      </trkpt>
      <trkpt lat="45.80506000" lon="6.144120000">
        <ele>596.00000</ele>
        <time>2010-06-23T05:24:24Z</time>
      </trkpt>
      <trkpt lat="45.80521000" lon="6.144010000">
        <ele>596.00000</ele>
        <time>2010-06-23T05:24:31Z</time>
      </trkpt>
      <trkpt lat="45.80549000" lon="6.144010000">
        <ele>586.00000</ele>
        <time>2010-06-23T05:24:42Z</time>
      </trkpt>
      <trkpt lat="45.80672000" lon="6.144290000">
        <ele>588.00000</ele>
        <time>2010-06-23T05:25:32Z</time>
      </trkpt>
      <trkpt lat="45.80716000" lon="6.144510000">
        <ele>590.00000</ele>
        <time>2010-06-23T05:25:50Z</time>
      </trkpt>
      <trkpt lat="45.80749000" lon="6.144540000">
        <ele>590.00000</ele>
        <time>2010-06-23T05:26:04Z</time>
      </trkpt>
      <trkpt lat="45.80876000" lon="6.144240000">
        <ele>577.00000</ele>
        <time>2010-06-23T05:26:55Z</time>
      </trkpt>
      <trkpt lat="45.80927000" lon="6.143940000">
        <ele>577.00000</ele>
        <time>2010-06-23T05:27:17Z</time>
      </trkpt>
      <trkpt lat="45.80954000" lon="6.143930000">
        <ele>577.00000</ele>
        <time>2010-06-23T05:27:28Z</time>
      </trkpt>
      <trkpt lat="45.81010000" lon="6.144010000">
        <ele>575.00000</ele>
        <time>2010-06-23T05:27:50Z</time>
      </trkpt>
      <trkpt lat="45.81033000" lon="6.143930000">
        <ele>575.00000</ele>
        <time>2010-06-23T05:28:00Z</time>
      </trkpt>
      <trkpt lat="45.81060000" lon="6.143920000">
        <ele>574.00000</ele>
        <time>2010-06-23T05:28:11Z</time>
      </trkpt>
      <trkpt lat="45.81082000" lon="6.144020000">
        <ele>574.00000</ele>
        <time>2010-06-23T05:28:20Z</time>
      </trkpt>
      <trkpt lat="45.81110000" lon="6.144300000">
        <ele>574.00000</ele>
        <time>2010-06-23T05:28:34Z</time>
      </trkpt>
      <trkpt lat="45.81122000" lon="6.144360000">
        <ele>574.00000</ele>
        <time>2010-06-23T05:28:39Z</time>
      </trkpt>
      <trkpt lat="45.81192000" lon="6.144430000">
        <ele>572.00000</ele>
        <time>2010-06-23T05:29:07Z</time>
      </trkpt>
      <trkpt lat="45.81279000" lon="6.144870000">
        <ele>565.00000</ele>
        <time>2010-06-23T05:29:44Z</time>
      </trkpt>
      <trkpt lat="45.81293000" lon="6.144670000">
        <ele>564.00000</ele>
        <time>2010-06-23T05:29:52Z</time>
      </trkpt>
      <trkpt lat="45.81279000" lon="6.144870000">
        <ele>565.00000</ele>
        <time>2010-06-23T05:30:00Z</time>
      </trkpt>
      <trkpt lat="45.81340000" lon="6.145140000">
        <ele>564.00000</ele>
        <time>2010-06-23T05:30:25Z</time>
      </trkpt>
      <trkpt lat="45.81411000" lon="6.145000000">
        <ele>560.00000</ele>
        <time>2010-06-23T05:30:54Z</time>
      </trkpt>
      <trkpt lat="45.81504000" lon="6.145340000">
        <ele>558.00000</ele>
        <time>2010-06-23T05:31:32Z</time>
      </trkpt>
      <trkpt lat="45.81567000" lon="6.145240000">
        <ele>557.00000</ele>
        <time>2010-06-23T05:31:58Z</time>
      </trkpt>
      <trkpt lat="45.81603000" lon="6.145330000">
        <ele>557.00000</ele>
        <time>2010-06-23T05:32:12Z</time>
      </trkpt>
      <trkpt lat="45.81606000" lon="6.145580000">
        <ele>552.00000</ele>
        <time>2010-06-23T05:32:19Z</time>
      </trkpt>
      <trkpt lat="45.81587000" lon="6.146030000">
        <ele>552.00000</ele>
        <time>2010-06-23T05:32:34Z</time>
      </trkpt>
      <trkpt lat="45.81590000" lon="6.146260000">
        <ele>548.00000</ele>
        <time>2010-06-23T05:32:41Z</time>
      </trkpt>
      <trkpt lat="45.81644000" lon="6.146720000">
        <ele>545.00000</ele>
        <time>2010-06-23T05:33:06Z</time>
      </trkpt>
      <trkpt lat="45.81665000" lon="6.146820000">
        <ele>545.00000</ele>
        <time>2010-06-23T05:33:15Z</time>
      </trkpt>
      <trkpt lat="45.81700000" lon="6.146740000">
        <ele>545.00000</ele>
        <time>2010-06-23T05:33:29Z</time>
      </trkpt>
      <trkpt lat="45.81727000" lon="6.146780000">
        <ele>543.00000</ele>
        <time>2010-06-23T05:33:40Z</time>
      </trkpt>
      <trkpt lat="45.81865000" lon="6.147340000">
        <ele>541.00000</ele>
        <time>2010-06-23T05:34:37Z</time>
      </trkpt>
      <trkpt lat="45.81904000" lon="6.147160000">
        <ele>531.00000</ele>
        <time>2010-06-23T05:34:53Z</time>
      </trkpt>
      <trkpt lat="45.81925000" lon="6.147130000">
        <ele>531.00000</ele>
        <time>2010-06-23T05:35:02Z</time>
      </trkpt>
      <trkpt lat="45.81939000" lon="6.147220000">
        <ele>531.00000</ele>
        <time>2010-06-23T05:35:08Z</time>
      </trkpt>
      <trkpt lat="45.81963000" lon="6.147650000">
        <ele>520.00000</ele>
        <time>2010-06-23T05:35:23Z</time>
      </trkpt>
      <trkpt lat="45.81980000" lon="6.147780000">
        <ele>520.00000</ele>
        <time>2010-06-23T05:35:31Z</time>
      </trkpt>
      <trkpt lat="45.82140000" lon="6.148300000">
        <ele>516.00000</ele>
        <time>2010-06-23T05:36:37Z</time>
      </trkpt>
      <trkpt lat="45.82161000" lon="6.148270000">
        <ele>516.00000</ele>
        <time>2010-06-23T05:36:45Z</time>
      </trkpt>
      <trkpt lat="45.82211000" lon="6.148010000">
        <ele>511.00000</ele>
        <time>2010-06-23T05:37:06Z</time>
      </trkpt>
      <trkpt lat="45.82236000" lon="6.148040000">
        <ele>511.00000</ele>
        <time>2010-06-23T05:37:16Z</time>
      </trkpt>
      <trkpt lat="45.82257000" lon="6.148250000">
        <ele>511.00000</ele>
        <time>2010-06-23T05:37:27Z</time>
      </trkpt>
      <trkpt lat="45.82265000" lon="6.148450000">
        <ele>511.00000</ele>
        <time>2010-06-23T05:37:33Z</time>
      </trkpt>
      <trkpt lat="45.82267000" lon="6.148690000">
        <ele>511.00000</ele>
        <time>2010-06-23T05:37:40Z</time>
      </trkpt>
      <trkpt lat="45.82264000" lon="6.149220000">
        <ele>514.00000</ele>
        <time>2010-06-23T05:37:55Z</time>
      </trkpt>
      <trkpt lat="45.82271000" lon="6.149620000">
        <ele>518.00000</ele>
        <time>2010-06-23T05:38:06Z</time>
      </trkpt>
      <trkpt lat="45.82287000" lon="6.149980000">
        <ele>518.00000</ele>
        <time>2010-06-23T05:38:18Z</time>
      </trkpt>
      <trkpt lat="45.82320000" lon="6.150440000">
        <ele>511.00000</ele>
        <time>2010-06-23T05:38:37Z</time>
      </trkpt>
      <trkpt lat="45.82395000" lon="6.150980000">
        <ele>499.00000</ele>
        <time>2010-06-23T05:39:10Z</time>
      </trkpt>
      <trkpt lat="45.82484000" lon="6.151470000">
        <ele>496.00000</ele>
        <time>2010-06-23T05:39:48Z</time>
      </trkpt>
      <trkpt lat="45.82507000" lon="6.151540000">
        <ele>496.00000</ele>
        <time>2010-06-23T05:39:58Z</time>
      </trkpt>
      <trkpt lat="45.82565000" lon="6.151580000">
        <ele>491.00000</ele>
        <time>2010-06-23T05:40:21Z</time>
      </trkpt>
      <trkpt lat="45.82575000" lon="6.151320000">
        <ele>491.00000</ele>
        <time>2010-06-23T05:40:29Z</time>
      </trkpt>
      <trkpt lat="45.82585000" lon="6.151270000">
        <ele>491.00000</ele>
        <time>2010-06-23T05:40:34Z</time>
      </trkpt>
      <trkpt lat="45.82593000" lon="6.151290000">
        <ele>491.00000</ele>
        <time>2010-06-23T05:40:37Z</time>
      </trkpt>
      <trkpt lat="45.82628000" lon="6.151530000">
        <ele>489.00000</ele>
        <time>2010-06-23T05:40:52Z</time>
      </trkpt>
      <trkpt lat="45.82761000" lon="6.152090000">
        <ele>485.00000</ele>
        <time>2010-06-23T05:41:48Z</time>
      </trkpt>
      <trkpt lat="45.82953000" lon="6.151900000">
        <ele>488.00000</ele>
        <time>2010-06-23T05:43:05Z</time>
      </trkpt>
      <trkpt lat="45.83007000" lon="6.151810000">
        <ele>484.00000</ele>
        <time>2010-06-23T05:43:27Z</time>
      </trkpt>
      <trkpt lat="45.83079000" lon="6.151560000">
        <ele>482.00000</ele>
        <time>2010-06-23T05:43:56Z</time>
      </trkpt>
      <trkpt lat="45.83270000" lon="6.150690000">
        <ele>484.00000</ele>
        <time>2010-06-23T05:45:16Z</time>
      </trkpt>
      <trkpt lat="45.83338000" lon="6.150640000">
        <ele>480.00000</ele>
        <time>2010-06-23T05:45:44Z</time>
      </trkpt>
      <trkpt lat="45.83413000" lon="6.150920000">
        <ele>480.00000</ele>
        <time>2010-06-23T05:46:15Z</time>
      </trkpt>
      <trkpt lat="45.83443000" lon="6.150940000">
        <ele>480.00000</ele>
        <time>2010-06-23T05:46:27Z</time>
      </trkpt>
      <trkpt lat="45.83519000" lon="6.150690000">
        <ele>480.00000</ele>
        <time>2010-06-23T05:46:58Z</time>
      </trkpt>
      <trkpt lat="45.83561000" lon="6.150380000">
        <ele>485.00000</ele>
        <time>2010-06-23T05:47:17Z</time>
      </trkpt>
      <trkpt lat="45.83581000" lon="6.150170000">
        <ele>485.00000</ele>
        <time>2010-06-23T05:47:27Z</time>
      </trkpt>
      <trkpt lat="45.83601000" lon="6.150090000">
        <ele>485.00000</ele>
        <time>2010-06-23T05:47:35Z</time>
      </trkpt>
      <trkpt lat="45.83749000" lon="6.149780000">
        <ele>478.00000</ele>
        <time>2010-06-23T05:48:35Z</time>
      </trkpt>
      <trkpt lat="45.84323000" lon="6.148360000">
        <ele>461.00000</ele>
        <time>2010-06-23T05:52:28Z</time>
      </trkpt>
      <trkpt lat="45.84458000" lon="6.148230000">
        <ele>460.00000</ele>
        <time>2010-06-23T05:53:22Z</time>
      </trkpt>
      <trkpt lat="45.84493000" lon="6.148230000">
        <ele>460.00000</ele>
        <time>2010-06-23T05:53:36Z</time>
      </trkpt>
      <trkpt lat="45.84523000" lon="6.148340000">
        <ele>460.00000</ele>
        <time>2010-06-23T05:53:49Z</time>
      </trkpt>
      <trkpt lat="45.84523000" lon="6.148670000">
        <ele>460.00000</ele>
        <time>2010-06-23T05:53:58Z</time>
      </trkpt>
      <trkpt lat="45.84531000" lon="6.148810000">
        <ele>458.00000</ele>
        <time>2010-06-23T05:54:03Z</time>
      </trkpt>
      <trkpt lat="45.84543000" lon="6.148890000">
        <ele>457.00000</ele>
        <time>2010-06-23T05:54:08Z</time>
      </trkpt>
      <trkpt lat="45.84562000" lon="6.148860000">
        <ele>457.00000</ele>
        <time>2010-06-23T05:54:16Z</time>
      </trkpt>
      <trkpt lat="45.84575000" lon="6.148650000">
        <ele>459.00000</ele>
        <time>2010-06-23T05:54:24Z</time>
      </trkpt>
      <trkpt lat="45.84576000" lon="6.148400000">
        <ele>459.00000</ele>
        <time>2010-06-23T05:54:31Z</time>
      </trkpt>
      <trkpt lat="45.84582000" lon="6.148260000">
        <ele>459.00000</ele>
        <time>2010-06-23T05:54:35Z</time>
      </trkpt>
      <trkpt lat="45.84620000" lon="6.147770000">
        <ele>464.00000</ele>
        <time>2010-06-23T05:54:56Z</time>
      </trkpt>
      <trkpt lat="45.84725000" lon="6.146870000">
        <ele>460.00000</ele>
        <time>2010-06-23T05:55:45Z</time>
      </trkpt>
      <trkpt lat="45.84772000" lon="6.146560000">
        <ele>460.00000</ele>
        <time>2010-06-23T05:56:05Z</time>
      </trkpt>
      <trkpt lat="45.84770000" lon="6.146520000">
        <ele>460.00000</ele>
        <time>2010-06-23T05:56:07Z</time>
      </trkpt>
      <trkpt lat="45.84760000" lon="6.146580000">
        <ele>460.00000</ele>
        <time>2010-06-23T05:56:11Z</time>
      </trkpt>
      <trkpt lat="45.84698000" lon="6.147010000">
        <ele>467.00000</ele>
        <time>2010-06-23T05:56:39Z</time>
      </trkpt>
      <trkpt lat="45.84583000" lon="6.148010000">
        <ele>459.00000</ele>
        <time>2010-06-23T05:57:32Z</time>
      </trkpt>
      <trkpt lat="45.84560000" lon="6.148140000">
        <ele>459.00000</ele>
        <time>2010-06-23T05:57:42Z</time>
      </trkpt>
      <trkpt lat="45.84539000" lon="6.148150000">
        <ele>460.00000</ele>
        <time>2010-06-23T05:57:51Z</time>
      </trkpt>
      <trkpt lat="45.84532000" lon="6.148190000">
        <ele>460.00000</ele>
        <time>2010-06-23T05:57:54Z</time>
      </trkpt>
      <trkpt lat="45.84523000" lon="6.148340000">
        <ele>460.00000</ele>
        <time>2010-06-23T05:57:59Z</time>
      </trkpt>
      <trkpt lat="45.84523000" lon="6.148670000">
        <ele>460.00000</ele>
        <time>2010-06-23T05:58:09Z</time>
      </trkpt>
      <trkpt lat="45.84536000" lon="6.148860000">
        <ele>458.00000</ele>
        <time>2010-06-23T05:58:16Z</time>
      </trkpt>
      <trkpt lat="45.84556000" lon="6.148880000">
        <ele>457.00000</ele>
        <time>2010-06-23T05:58:24Z</time>
      </trkpt>
      <trkpt lat="45.84567000" lon="6.148810000">
        <ele>457.00000</ele>
        <time>2010-06-23T05:58:29Z</time>
      </trkpt>
      <trkpt lat="45.84575000" lon="6.148650000">
        <ele>459.00000</ele>
        <time>2010-06-23T05:58:34Z</time>
      </trkpt>
      <trkpt lat="45.84576000" lon="6.148400000">
        <ele>459.00000</ele>
        <time>2010-06-23T05:58:41Z</time>
      </trkpt>
      <trkpt lat="45.84588000" lon="6.148150000">
        <ele>459.00000</ele>
        <time>2010-06-23T05:58:50Z</time>
      </trkpt>
      <trkpt lat="45.84600000" lon="6.148000000">
        <ele>459.00000</ele>
        <time>2010-06-23T05:58:56Z</time>
      </trkpt>
      <trkpt lat="45.84620000" lon="6.147770000">
        <ele>464.00000</ele>
        <time>2010-06-23T05:59:06Z</time>
      </trkpt>
      <trkpt lat="45.84725000" lon="6.146870000">
        <ele>460.00000</ele>
        <time>2010-06-23T05:59:55Z</time>
      </trkpt>
      <trkpt lat="45.84772000" lon="6.146560000">
        <ele>460.00000</ele>
        <time>2010-06-23T06:00:16Z</time>
      </trkpt>
      <trkpt lat="45.84870000" lon="6.146090000">
        <ele>459.00000</ele>
        <time>2010-06-23T06:00:57Z</time>
      </trkpt>
      <trkpt lat="45.85522000" lon="6.143700000">
        <ele>453.00000</ele>
        <time>2010-06-23T06:05:27Z</time>
      </trkpt>
      <trkpt lat="45.85785000" lon="6.142670000">
        <ele>451.00000</ele>
        <time>2010-06-23T06:07:16Z</time>
      </trkpt>
      <trkpt lat="45.85991000" lon="6.141960000">
        <ele>458.00000</ele>
        <time>2010-06-23T06:08:41Z</time>
      </trkpt>
      <trkpt lat="45.85996000" lon="6.141890000">
        <ele>458.00000</ele>
        <time>2010-06-23T06:08:43Z</time>
      </trkpt>
      <trkpt lat="45.86254000" lon="6.141000000">
        <ele>457.00000</ele>
        <time>2010-06-23T06:10:30Z</time>
      </trkpt>
      <trkpt lat="45.86259000" lon="6.140920000">
        <ele>457.00000</ele>
        <time>2010-06-23T06:10:33Z</time>
      </trkpt>
      <trkpt lat="45.86270000" lon="6.140940000">
        <ele>457.00000</ele>
        <time>2010-06-23T06:10:37Z</time>
      </trkpt>
      <trkpt lat="45.86476000" lon="6.140180000">
        <ele>458.00000</ele>
        <time>2010-06-23T06:12:02Z</time>
      </trkpt>
      <trkpt lat="45.86574000" lon="6.139970000">
        <ele>457.00000</ele>
        <time>2010-06-23T06:12:42Z</time>
      </trkpt>
      <trkpt lat="45.86616000" lon="6.139960000">
        <ele>457.00000</ele>
        <time>2010-06-23T06:12:59Z</time>
      </trkpt>
      <trkpt lat="45.86916000" lon="6.140550000">
        <ele>456.00000</ele>
        <time>2010-06-23T06:15:00Z</time>
      </trkpt>
      <trkpt lat="45.86926000" lon="6.140620000">
        <ele>456.00000</ele>
        <time>2010-06-23T06:15:04Z</time>
      </trkpt>
      <trkpt lat="45.87082000" lon="6.140930000">
        <ele>456.00000</ele>
        <time>2010-06-23T06:16:07Z</time>
      </trkpt>
      <trkpt lat="45.87095000" lon="6.140920000">
        <ele>456.00000</ele>
        <time>2010-06-23T06:16:13Z</time>
      </trkpt>
      <trkpt lat="45.87316000" lon="6.141460000">
        <ele>454.00000</ele>
        <time>2010-06-23T06:17:42Z</time>
      </trkpt>
      <trkpt lat="45.87371000" lon="6.141650000">
        <ele>454.00000</ele>
        <time>2010-06-23T06:18:05Z</time>
      </trkpt>
      <trkpt lat="45.88319000" lon="6.142020000">
        <ele>450.00000</ele>
        <time>2010-06-23T06:24:25Z</time>
      </trkpt>
      <trkpt lat="45.88544000" lon="6.142480000">
        <ele>448.00000</ele>
        <time>2010-06-23T06:25:56Z</time>
      </trkpt>
      <trkpt lat="45.88595000" lon="6.142690000">
        <ele>448.00000</ele>
        <time>2010-06-23T06:26:17Z</time>
      </trkpt>
      <trkpt lat="45.88692000" lon="6.143190000">
        <ele>445.00000</ele>
        <time>2010-06-23T06:26:58Z</time>
      </trkpt>
      <trkpt lat="45.88792000" lon="6.143540000">
        <ele>446.00000</ele>
        <time>2010-06-23T06:27:39Z</time>
      </trkpt>
      <trkpt lat="45.88848000" lon="6.143630000">
        <ele>446.00000</ele>
        <time>2010-06-23T06:28:02Z</time>
      </trkpt>
      <trkpt lat="45.88970000" lon="6.143560000">
        <ele>445.00000</ele>
        <time>2010-06-23T06:28:51Z</time>
      </trkpt>
      <trkpt lat="45.88998000" lon="6.143370000">
        <ele>445.00000</ele>
        <time>2010-06-23T06:29:03Z</time>
      </trkpt>
      <trkpt lat="45.89027000" lon="6.142960000">
        <ele>445.00000</ele>
        <time>2010-06-23T06:29:19Z</time>
      </trkpt>
      <trkpt lat="45.89044000" lon="6.142340000">
        <ele>445.00000</ele>
        <time>2010-06-23T06:29:38Z</time>
      </trkpt>
      <trkpt lat="45.89051000" lon="6.141100000">
        <ele>446.00000</ele>
        <time>2010-06-23T06:30:13Z</time>
      </trkpt>
      <trkpt lat="45.89066000" lon="6.140540000">
        <ele>446.00000</ele>
        <time>2010-06-23T06:30:29Z</time>
      </trkpt>
      <trkpt lat="45.89253000" lon="6.137340000">
        <ele>446.00000</ele>
        <time>2010-06-23T06:32:26Z</time>
      </trkpt>
      <trkpt lat="45.89357000" lon="6.135670000">
        <ele>447.00000</ele>
        <time>2010-06-23T06:33:28Z</time>
      </trkpt>
      <trkpt lat="45.89439000" lon="6.134540000">
        <ele>449.00000</ele>
        <time>2010-06-23T06:34:14Z</time>
      </trkpt>
      <trkpt lat="45.89667000" lon="6.131960000">
        <ele>447.00000</ele>
        <time>2010-06-23T06:36:10Z</time>
      </trkpt>
      <trkpt lat="45.89675000" lon="6.131900000">
        <ele>447.00000</ele>
        <time>2010-06-23T06:36:14Z</time>
      </trkpt>
      <trkpt lat="45.89675000" lon="6.131830000">
        <ele>447.00000</ele>
        <time>2010-06-23T06:36:15Z</time>
      </trkpt>
      <trkpt lat="45.89669000" lon="6.131770000">
        <ele>447.00000</ele>
        <time>2010-06-23T06:36:18Z</time>
      </trkpt>
      <trkpt lat="45.89663000" lon="6.131830000">
        <ele>447.00000</ele>
        <time>2010-06-23T06:36:21Z</time>
      </trkpt>
      <trkpt lat="45.89664000" lon="6.131920000">
        <ele>447.00000</ele>
        <time>2010-06-23T06:36:24Z</time>
      </trkpt>
      <trkpt lat="45.89588000" lon="6.132800000">
        <ele>448.00000</ele>
        <time>2010-06-23T06:37:03Z</time>
      </trkpt>
    </trkseg>
  </trk>
</gpx>

